<?xml version="1.0" encoding="utf-8"?>
<gpx xmlns:xsi="http://www.w3.org/2001/XMLSchema-instance" xmlns:xsd="http://www.w3.org/2001/XMLSchema" version="1.1" creator="Shapelink.com" xmlns="http://www.topografix.com/GPX/1/1" xmlns:gpxtpx="http://www.garmin.com/xmlschemas/TrackPointExtension/v1">
  <metadata>
    <name>Löpning 10.15 km, 2011-05-18</name>
    <desc></desc>
    <author><name>Jojje Borssén</name></author> 
    <time>2011-05-18T20:11:11Z</time>
  </metadata>
  <trk>
    <name>Löpning 10.15 km, 2011-05-18</name>
    <trkseg>
      <trkpt lat="57.6968418423" lon="11.988700553">
        <ele>104.2</ele>
        <time>2011-05-18T20:11:11Z</time>
      </trkpt>
      <trkpt lat="57.6968176186" lon="11.9887510121">
        <ele>100</ele>
        <time>2011-05-18T20:11:12Z</time>
      </trkpt>
      <trkpt lat="57.6969818201" lon="11.9890637408">
        <ele>87.8</ele>
        <time>2011-05-18T20:11:18Z</time>
      </trkpt>
      <trkpt lat="57.6970612805" lon="11.9891938279">
        <ele>76</ele>
        <time>2011-05-18T20:11:20Z</time>
      </trkpt>
      <trkpt lat="57.6970942213" lon="11.9893107554">
        <ele>69.2</ele>
        <time>2011-05-18T20:11:22Z</time>
      </trkpt>
      <trkpt lat="57.6971141703" lon="11.9895786409">
        <ele>54.8</ele>
        <time>2011-05-18T20:11:27Z</time>
      </trkpt>
      <trkpt lat="57.6971770345" lon="11.9898114901">
        <ele>44</ele>
        <time>2011-05-18T20:11:32Z</time>
      </trkpt>
      <trkpt lat="57.6972542318" lon="11.9902717402">
        <ele>32.8</ele>
        <time>2011-05-18T20:11:40Z</time>
      </trkpt>
      <trkpt lat="57.6973049423" lon="11.9905712255">
        <ele>28</ele>
        <time>2011-05-18T20:11:45Z</time>
      </trkpt>
      <trkpt lat="57.6973518809" lon="11.9908232692">
        <ele>25.4</ele>
        <time>2011-05-18T20:11:49Z</time>
      </trkpt>
      <trkpt lat="57.6974341912" lon="11.9911447151">
        <ele>22.8</ele>
        <time>2011-05-18T20:11:54Z</time>
      </trkpt>
      <trkpt lat="57.6974827224" lon="11.9914595392">
        <ele>21.4</ele>
        <time>2011-05-18T20:11:59Z</time>
      </trkpt>
      <trkpt lat="57.6975082034" lon="11.9917441886">
        <ele>20.4</ele>
        <time>2011-05-18T20:12:04Z</time>
      </trkpt>
      <trkpt lat="57.6974828062" lon="11.9919753614">
        <ele>20</ele>
        <time>2011-05-18T20:12:08Z</time>
      </trkpt>
      <trkpt lat="57.697579701" lon="11.9924735815">
        <ele>20.8</ele>
        <time>2011-05-18T20:12:17Z</time>
      </trkpt>
      <trkpt lat="57.6976216943" lon="11.9927640143">
        <ele>21</ele>
        <time>2011-05-18T20:12:23Z</time>
      </trkpt>
      <trkpt lat="57.697632004" lon="11.9928723085">
        <ele>21</ele>
        <time>2011-05-18T20:12:24Z</time>
        <extensions><gpxtpx:TrackPointExtension><gpxtpx:hr>131</gpxtpx:hr></gpxtpx:TrackPointExtension></extensions>
      </trkpt>
      <trkpt lat="57.6976646096" lon="11.9931680219">
        <ele>21.2</ele>
        <time>2011-05-18T20:12:30Z</time>
        <extensions><gpxtpx:TrackPointExtension><gpxtpx:hr>131</gpxtpx:hr></gpxtpx:TrackPointExtension></extensions>
      </trkpt>
      <trkpt lat="57.697676931" lon="11.993430543">
        <ele>21.2</ele>
        <time>2011-05-18T20:12:34Z</time>
        <extensions><gpxtpx:TrackPointExtension><gpxtpx:hr>132</gpxtpx:hr></gpxtpx:TrackPointExtension></extensions>
      </trkpt>
      <trkpt lat="57.6977032502" lon="11.9937461216">
        <ele>21.2</ele>
        <time>2011-05-18T20:12:40Z</time>
        <extensions><gpxtpx:TrackPointExtension><gpxtpx:hr>133</gpxtpx:hr></gpxtpx:TrackPointExtension></extensions>
      </trkpt>
      <trkpt lat="57.6977361072" lon="11.9938560921">
        <ele>21.2</ele>
        <time>2011-05-18T20:12:42Z</time>
        <extensions><gpxtpx:TrackPointExtension><gpxtpx:hr>133</gpxtpx:hr></gpxtpx:TrackPointExtension></extensions>
      </trkpt>
      <trkpt lat="57.6978110414" lon="11.9940048708">
        <ele>21</ele>
        <time>2011-05-18T20:12:46Z</time>
        <extensions><gpxtpx:TrackPointExtension><gpxtpx:hr>133</gpxtpx:hr></gpxtpx:TrackPointExtension></extensions>
      </trkpt>
      <trkpt lat="57.6978139751" lon="11.994315504">
        <ele>20.2</ele>
        <time>2011-05-18T20:12:52Z</time>
        <extensions><gpxtpx:TrackPointExtension><gpxtpx:hr>134</gpxtpx:hr></gpxtpx:TrackPointExtension></extensions>
      </trkpt>
      <trkpt lat="57.6978389531" lon="11.9945792824">
        <ele>19.8</ele>
        <time>2011-05-18T20:12:57Z</time>
        <extensions><gpxtpx:TrackPointExtension><gpxtpx:hr>137</gpxtpx:hr></gpxtpx:TrackPointExtension></extensions>
      </trkpt>
      <trkpt lat="57.6978609137" lon="11.9948294821">
        <ele>19.6</ele>
        <time>2011-05-18T20:13:02Z</time>
        <extensions><gpxtpx:TrackPointExtension><gpxtpx:hr>137</gpxtpx:hr></gpxtpx:TrackPointExtension></extensions>
      </trkpt>
      <trkpt lat="57.6978791024" lon="11.9951292189">
        <ele>19.6</ele>
        <time>2011-05-18T20:13:07Z</time>
        <extensions><gpxtpx:TrackPointExtension><gpxtpx:hr>138</gpxtpx:hr></gpxtpx:TrackPointExtension></extensions>
      </trkpt>
      <trkpt lat="57.6979002248" lon="11.9964115658">
        <ele>19.4</ele>
        <time>2011-05-18T20:13:21Z</time>
        <extensions><gpxtpx:TrackPointExtension><gpxtpx:hr>141</gpxtpx:hr></gpxtpx:TrackPointExtension></extensions>
      </trkpt>
      <trkpt lat="57.6979122948" lon="11.9963917007">
        <ele>19.4</ele>
        <time>2011-05-18T20:13:23Z</time>
        <extensions><gpxtpx:TrackPointExtension><gpxtpx:hr>141</gpxtpx:hr></gpxtpx:TrackPointExtension></extensions>
      </trkpt>
      <trkpt lat="57.6980014782" lon="11.9965113104">
        <ele>19</ele>
        <time>2011-05-18T20:13:28Z</time>
        <extensions><gpxtpx:TrackPointExtension><gpxtpx:hr>139</gpxtpx:hr></gpxtpx:TrackPointExtension></extensions>
      </trkpt>
      <trkpt lat="57.6979975387" lon="11.9967187624">
        <ele>18.4</ele>
        <time>2011-05-18T20:13:31Z</time>
        <extensions><gpxtpx:TrackPointExtension><gpxtpx:hr>139</gpxtpx:hr></gpxtpx:TrackPointExtension></extensions>
      </trkpt>
      <trkpt lat="57.6979643464" lon="11.99695421">
        <ele>18</ele>
        <time>2011-05-18T20:13:36Z</time>
        <extensions><gpxtpx:TrackPointExtension><gpxtpx:hr>141</gpxtpx:hr></gpxtpx:TrackPointExtension></extensions>
      </trkpt>
      <trkpt lat="57.697952947" lon="11.9970100334">
        <ele>18</ele>
        <time>2011-05-18T20:13:37Z</time>
        <extensions><gpxtpx:TrackPointExtension><gpxtpx:hr>141</gpxtpx:hr></gpxtpx:TrackPointExtension></extensions>
      </trkpt>
      <trkpt lat="57.6979415476" lon="11.9973077585">
        <ele>17.6</ele>
        <time>2011-05-18T20:13:43Z</time>
        <extensions><gpxtpx:TrackPointExtension><gpxtpx:hr>145</gpxtpx:hr></gpxtpx:TrackPointExtension></extensions>
      </trkpt>
      <trkpt lat="57.6980029869" lon="11.9975801703">
        <ele>17.4</ele>
        <time>2011-05-18T20:13:48Z</time>
        <extensions><gpxtpx:TrackPointExtension><gpxtpx:hr>148</gpxtpx:hr></gpxtpx:TrackPointExtension></extensions>
      </trkpt>
      <trkpt lat="57.6980702098" lon="11.9977825093">
        <ele>17.4</ele>
        <time>2011-05-18T20:13:53Z</time>
        <extensions><gpxtpx:TrackPointExtension><gpxtpx:hr>149</gpxtpx:hr></gpxtpx:TrackPointExtension></extensions>
      </trkpt>
      <trkpt lat="57.6981173999" lon="11.9979339703">
        <ele>17.4</ele>
        <time>2011-05-18T20:13:57Z</time>
        <extensions><gpxtpx:TrackPointExtension><gpxtpx:hr>147</gpxtpx:hr></gpxtpx:TrackPointExtension></extensions>
      </trkpt>
      <trkpt lat="57.6981198306" lon="11.9979495606">
        <ele>17.4</ele>
        <time>2011-05-18T20:13:58Z</time>
        <extensions><gpxtpx:TrackPointExtension><gpxtpx:hr>146</gpxtpx:hr></gpxtpx:TrackPointExtension></extensions>
      </trkpt>
      <trkpt lat="57.6982189047" lon="11.9980824137">
        <ele>17.4</ele>
        <time>2011-05-18T20:14:03Z</time>
        <extensions><gpxtpx:TrackPointExtension><gpxtpx:hr>143</gpxtpx:hr></gpxtpx:TrackPointExtension></extensions>
      </trkpt>
      <trkpt lat="57.6982376801" lon="11.9980875267">
        <ele>17.4</ele>
        <time>2011-05-18T20:14:04Z</time>
        <extensions><gpxtpx:TrackPointExtension><gpxtpx:hr>142</gpxtpx:hr></gpxtpx:TrackPointExtension></extensions>
      </trkpt>
      <trkpt lat="57.6983311383" lon="11.9981594434">
        <ele>17.2</ele>
        <time>2011-05-18T20:14:07Z</time>
        <extensions><gpxtpx:TrackPointExtension><gpxtpx:hr>142</gpxtpx:hr></gpxtpx:TrackPointExtension></extensions>
      </trkpt>
      <trkpt lat="57.6984421147" lon="11.9983137541">
        <ele>17.2</ele>
        <time>2011-05-18T20:14:12Z</time>
        <extensions><gpxtpx:TrackPointExtension><gpxtpx:hr>141</gpxtpx:hr></gpxtpx:TrackPointExtension></extensions>
      </trkpt>
      <trkpt lat="57.6985655801" lon="11.9985352878">
        <ele>17.2</ele>
        <time>2011-05-18T20:14:17Z</time>
        <extensions><gpxtpx:TrackPointExtension><gpxtpx:hr>141</gpxtpx:hr></gpxtpx:TrackPointExtension></extensions>
      </trkpt>
      <trkpt lat="57.6985944138" lon="11.9987887564">
        <ele>17.2</ele>
        <time>2011-05-18T20:14:21Z</time>
        <extensions><gpxtpx:TrackPointExtension><gpxtpx:hr>143</gpxtpx:hr></gpxtpx:TrackPointExtension></extensions>
      </trkpt>
      <trkpt lat="57.6985507441" lon="11.9990586536">
        <ele>17.2</ele>
        <time>2011-05-18T20:14:26Z</time>
        <extensions><gpxtpx:TrackPointExtension><gpxtpx:hr>142</gpxtpx:hr></gpxtpx:TrackPointExtension></extensions>
      </trkpt>
      <trkpt lat="57.6984534302" lon="11.9992858031">
        <ele>17.2</ele>
        <time>2011-05-18T20:14:31Z</time>
        <extensions><gpxtpx:TrackPointExtension><gpxtpx:hr>142</gpxtpx:hr></gpxtpx:TrackPointExtension></extensions>
      </trkpt>
      <trkpt lat="57.6983634924" lon="11.9994425446">
        <ele>17.2</ele>
        <time>2011-05-18T20:14:35Z</time>
        <extensions><gpxtpx:TrackPointExtension><gpxtpx:hr>141</gpxtpx:hr></gpxtpx:TrackPointExtension></extensions>
      </trkpt>
      <trkpt lat="57.6983530151" lon="11.9995082587">
        <ele>17.2</ele>
        <time>2011-05-18T20:14:36Z</time>
        <extensions><gpxtpx:TrackPointExtension><gpxtpx:hr>141</gpxtpx:hr></gpxtpx:TrackPointExtension></extensions>
      </trkpt>
      <trkpt lat="57.6983360836" lon="11.9997305467">
        <ele>17.2</ele>
        <time>2011-05-18T20:14:40Z</time>
        <extensions><gpxtpx:TrackPointExtension><gpxtpx:hr>140</gpxtpx:hr></gpxtpx:TrackPointExtension></extensions>
      </trkpt>
      <trkpt lat="57.698331725" lon="11.9997859511">
        <ele>17.2</ele>
        <time>2011-05-18T20:14:41Z</time>
        <extensions><gpxtpx:TrackPointExtension><gpxtpx:hr>140</gpxtpx:hr></gpxtpx:TrackPointExtension></extensions>
      </trkpt>
      <trkpt lat="57.6983479021" lon="12.0001045471">
        <ele>16.6</ele>
        <time>2011-05-18T20:14:47Z</time>
        <extensions><gpxtpx:TrackPointExtension><gpxtpx:hr>139</gpxtpx:hr></gpxtpx:TrackPointExtension></extensions>
      </trkpt>
      <trkpt lat="57.6983910689" lon="12.0002879431">
        <ele>16</ele>
        <time>2011-05-18T20:14:51Z</time>
        <extensions><gpxtpx:TrackPointExtension><gpxtpx:hr>139</gpxtpx:hr></gpxtpx:TrackPointExtension></extensions>
      </trkpt>
      <trkpt lat="57.6984350739" lon="12.0004776255">
        <ele>15.8</ele>
        <time>2011-05-18T20:14:54Z</time>
        <extensions><gpxtpx:TrackPointExtension><gpxtpx:hr>139</gpxtpx:hr></gpxtpx:TrackPointExtension></extensions>
      </trkpt>
      <trkpt lat="57.6984815934" lon="12.0007398951">
        <ele>15.6</ele>
        <time>2011-05-18T20:15:00Z</time>
        <extensions><gpxtpx:TrackPointExtension><gpxtpx:hr>140</gpxtpx:hr></gpxtpx:TrackPointExtension></extensions>
      </trkpt>
      <trkpt lat="57.698494753" lon="12.0009449164">
        <ele>15.4</ele>
        <time>2011-05-18T20:15:04Z</time>
        <extensions><gpxtpx:TrackPointExtension><gpxtpx:hr>141</gpxtpx:hr></gpxtpx:TrackPointExtension></extensions>
      </trkpt>
      <trkpt lat="57.6985505765" lon="12.0012233631">
        <ele>15.4</ele>
        <time>2011-05-18T20:15:09Z</time>
        <extensions><gpxtpx:TrackPointExtension><gpxtpx:hr>141</gpxtpx:hr></gpxtpx:TrackPointExtension></extensions>
      </trkpt>
      <trkpt lat="57.6986127702" lon="12.001366945">
        <ele>15.2</ele>
        <time>2011-05-18T20:15:13Z</time>
        <extensions><gpxtpx:TrackPointExtension><gpxtpx:hr>141</gpxtpx:hr></gpxtpx:TrackPointExtension></extensions>
      </trkpt>
      <trkpt lat="57.698718885" lon="12.0015245248">
        <ele>15.2</ele>
        <time>2011-05-18T20:15:19Z</time>
        <extensions><gpxtpx:TrackPointExtension><gpxtpx:hr>141</gpxtpx:hr></gpxtpx:TrackPointExtension></extensions>
      </trkpt>
      <trkpt lat="57.6988501456" lon="12.0017143748">
        <ele>15.2</ele>
        <time>2011-05-18T20:15:24Z</time>
        <extensions><gpxtpx:TrackPointExtension><gpxtpx:hr>142</gpxtpx:hr></gpxtpx:TrackPointExtension></extensions>
      </trkpt>
      <trkpt lat="57.6989598646" lon="12.0018359123">
        <ele>15.2</ele>
        <time>2011-05-18T20:15:29Z</time>
        <extensions><gpxtpx:TrackPointExtension><gpxtpx:hr>143</gpxtpx:hr></gpxtpx:TrackPointExtension></extensions>
      </trkpt>
      <trkpt lat="57.6990772951" lon="12.0019726211">
        <ele>15.2</ele>
        <time>2011-05-18T20:15:34Z</time>
        <extensions><gpxtpx:TrackPointExtension><gpxtpx:hr>144</gpxtpx:hr></gpxtpx:TrackPointExtension></extensions>
      </trkpt>
      <trkpt lat="57.6992392334" lon="12.0023495552">
        <ele>15.2</ele>
        <time>2011-05-18T20:15:42Z</time>
        <extensions><gpxtpx:TrackPointExtension><gpxtpx:hr>145</gpxtpx:hr></gpxtpx:TrackPointExtension></extensions>
      </trkpt>
      <trkpt lat="57.6993534787" lon="12.0026340369">
        <ele>15.2</ele>
        <time>2011-05-18T20:15:47Z</time>
        <extensions><gpxtpx:TrackPointExtension><gpxtpx:hr>146</gpxtpx:hr></gpxtpx:TrackPointExtension></extensions>
      </trkpt>
      <trkpt lat="57.6994003335" lon="12.0029499507">
        <ele>15.2</ele>
        <time>2011-05-18T20:15:53Z</time>
        <extensions><gpxtpx:TrackPointExtension><gpxtpx:hr>145</gpxtpx:hr></gpxtpx:TrackPointExtension></extensions>
      </trkpt>
      <trkpt lat="57.6994168458" lon="12.0030176764">
        <ele>15.2</ele>
        <time>2011-05-18T20:15:54Z</time>
        <extensions><gpxtpx:TrackPointExtension><gpxtpx:hr>144</gpxtpx:hr></gpxtpx:TrackPointExtension></extensions>
      </trkpt>
      <trkpt lat="57.6994757706" lon="12.0032196802">
        <ele>16</ele>
        <time>2011-05-18T20:15:58Z</time>
        <extensions><gpxtpx:TrackPointExtension><gpxtpx:hr>144</gpxtpx:hr></gpxtpx:TrackPointExtension></extensions>
      </trkpt>
      <trkpt lat="57.6995274869" lon="12.003515226">
        <ele>16.4</ele>
        <time>2011-05-18T20:16:03Z</time>
        <extensions><gpxtpx:TrackPointExtension><gpxtpx:hr>144</gpxtpx:hr></gpxtpx:TrackPointExtension></extensions>
      </trkpt>
      <trkpt lat="57.6995557339" lon="12.0037941756">
        <ele>17.6</ele>
        <time>2011-05-18T20:16:08Z</time>
        <extensions><gpxtpx:TrackPointExtension><gpxtpx:hr>143</gpxtpx:hr></gpxtpx:TrackPointExtension></extensions>
      </trkpt>
      <trkpt lat="57.6995635291" lon="12.0040695211">
        <ele>18.4</ele>
        <time>2011-05-18T20:16:13Z</time>
        <extensions><gpxtpx:TrackPointExtension><gpxtpx:hr>143</gpxtpx:hr></gpxtpx:TrackPointExtension></extensions>
      </trkpt>
      <trkpt lat="57.6995755152" lon="12.0041187228">
        <ele>18.4</ele>
        <time>2011-05-18T20:16:14Z</time>
        <extensions><gpxtpx:TrackPointExtension><gpxtpx:hr>143</gpxtpx:hr></gpxtpx:TrackPointExtension></extensions>
      </trkpt>
      <trkpt lat="57.6995836456" lon="12.0043613788">
        <ele>19.2</ele>
        <time>2011-05-18T20:16:18Z</time>
        <extensions><gpxtpx:TrackPointExtension><gpxtpx:hr>143</gpxtpx:hr></gpxtpx:TrackPointExtension></extensions>
      </trkpt>
      <trkpt lat="57.6995481064" lon="12.0047795518">
        <ele>20.4</ele>
        <time>2011-05-18T20:16:24Z</time>
        <extensions><gpxtpx:TrackPointExtension><gpxtpx:hr>142</gpxtpx:hr></gpxtpx:TrackPointExtension></extensions>
      </trkpt>
      <trkpt lat="57.6995115613" lon="12.0050836471">
        <ele>20.8</ele>
        <time>2011-05-18T20:16:29Z</time>
        <extensions><gpxtpx:TrackPointExtension><gpxtpx:hr>142</gpxtpx:hr></gpxtpx:TrackPointExtension></extensions>
      </trkpt>
      <trkpt lat="57.6995565721" lon="12.0052878302">
        <ele>21</ele>
        <time>2011-05-18T20:16:33Z</time>
        <extensions><gpxtpx:TrackPointExtension><gpxtpx:hr>143</gpxtpx:hr></gpxtpx:TrackPointExtension></extensions>
      </trkpt>
      <trkpt lat="57.6995652055" lon="12.0053466712">
        <ele>21.2</ele>
        <time>2011-05-18T20:16:34Z</time>
        <extensions><gpxtpx:TrackPointExtension><gpxtpx:hr>143</gpxtpx:hr></gpxtpx:TrackPointExtension></extensions>
      </trkpt>
      <trkpt lat="57.6996123956" lon="12.0057108647">
        <ele>21.4</ele>
        <time>2011-05-18T20:16:39Z</time>
        <extensions><gpxtpx:TrackPointExtension><gpxtpx:hr>143</gpxtpx:hr></gpxtpx:TrackPointExtension></extensions>
      </trkpt>
      <trkpt lat="57.6996090428" lon="12.0057885649">
        <ele>21.4</ele>
        <time>2011-05-18T20:16:41Z</time>
        <extensions><gpxtpx:TrackPointExtension><gpxtpx:hr>143</gpxtpx:hr></gpxtpx:TrackPointExtension></extensions>
      </trkpt>
      <trkpt lat="57.69958901" lon="12.0062123538">
        <ele>21.4</ele>
        <time>2011-05-18T20:16:48Z</time>
        <extensions><gpxtpx:TrackPointExtension><gpxtpx:hr>142</gpxtpx:hr></gpxtpx:TrackPointExtension></extensions>
      </trkpt>
      <trkpt lat="57.6995509562" lon="12.0065428521">
        <ele>21.6</ele>
        <time>2011-05-18T20:16:53Z</time>
        <extensions><gpxtpx:TrackPointExtension><gpxtpx:hr>142</gpxtpx:hr></gpxtpx:TrackPointExtension></extensions>
      </trkpt>
      <trkpt lat="57.6995346953" lon="12.0068649685">
        <ele>21.6</ele>
        <time>2011-05-18T20:16:58Z</time>
        <extensions><gpxtpx:TrackPointExtension><gpxtpx:hr>142</gpxtpx:hr></gpxtpx:TrackPointExtension></extensions>
      </trkpt>
      <trkpt lat="57.6995245532" lon="12.0071020925">
        <ele>21.6</ele>
        <time>2011-05-18T20:17:02Z</time>
        <extensions><gpxtpx:TrackPointExtension><gpxtpx:hr>142</gpxtpx:hr></gpxtpx:TrackPointExtension></extensions>
      </trkpt>
      <trkpt lat="57.6995633614" lon="12.0073646974">
        <ele>21.6</ele>
        <time>2011-05-18T20:17:07Z</time>
        <extensions><gpxtpx:TrackPointExtension><gpxtpx:hr>143</gpxtpx:hr></gpxtpx:TrackPointExtension></extensions>
      </trkpt>
      <trkpt lat="57.699570486" lon="12.0074224487">
        <ele>21.6</ele>
        <time>2011-05-18T20:17:08Z</time>
        <extensions><gpxtpx:TrackPointExtension><gpxtpx:hr>144</gpxtpx:hr></gpxtpx:TrackPointExtension></extensions>
      </trkpt>
      <trkpt lat="57.699542742" lon="12.0076966206">
        <ele>21.6</ele>
        <time>2011-05-18T20:17:13Z</time>
        <extensions><gpxtpx:TrackPointExtension><gpxtpx:hr>144</gpxtpx:hr></gpxtpx:TrackPointExtension></extensions>
      </trkpt>
      <trkpt lat="57.6995040176" lon="12.007998872">
        <ele>21.6</ele>
        <time>2011-05-18T20:17:18Z</time>
        <extensions><gpxtpx:TrackPointExtension><gpxtpx:hr>145</gpxtpx:hr></gpxtpx:TrackPointExtension></extensions>
      </trkpt>
      <trkpt lat="57.6994673049" lon="12.0082925737">
        <ele>21.6</ele>
        <time>2011-05-18T20:17:23Z</time>
        <extensions><gpxtpx:TrackPointExtension><gpxtpx:hr>146</gpxtpx:hr></gpxtpx:TrackPointExtension></extensions>
      </trkpt>
      <trkpt lat="57.699426485" lon="12.0086303643">
        <ele>21.6</ele>
        <time>2011-05-18T20:17:29Z</time>
        <extensions><gpxtpx:TrackPointExtension><gpxtpx:hr>147</gpxtpx:hr></gpxtpx:TrackPointExtension></extensions>
      </trkpt>
      <trkpt lat="57.6994129901" lon="12.0089070508">
        <ele>21.6</ele>
        <time>2011-05-18T20:17:34Z</time>
        <extensions><gpxtpx:TrackPointExtension><gpxtpx:hr>148</gpxtpx:hr></gpxtpx:TrackPointExtension></extensions>
      </trkpt>
      <trkpt lat="57.6994533071" lon="12.0091544007">
        <ele>21.6</ele>
        <time>2011-05-18T20:17:39Z</time>
        <extensions><gpxtpx:TrackPointExtension><gpxtpx:hr>149</gpxtpx:hr></gpxtpx:TrackPointExtension></extensions>
      </trkpt>
      <trkpt lat="57.6994921153" lon="12.0094196878">
        <ele>21.6</ele>
        <time>2011-05-18T20:17:44Z</time>
        <extensions><gpxtpx:TrackPointExtension><gpxtpx:hr>150</gpxtpx:hr></gpxtpx:TrackPointExtension></extensions>
      </trkpt>
      <trkpt lat="57.6994964739" lon="12.0097677043">
        <ele>21.6</ele>
        <time>2011-05-18T20:17:50Z</time>
        <extensions><gpxtpx:TrackPointExtension><gpxtpx:hr>150</gpxtpx:hr></gpxtpx:TrackPointExtension></extensions>
      </trkpt>
      <trkpt lat="57.6994955519" lon="12.009998458">
        <ele>21.6</ele>
        <time>2011-05-18T20:17:54Z</time>
        <extensions><gpxtpx:TrackPointExtension><gpxtpx:hr>151</gpxtpx:hr></gpxtpx:TrackPointExtension></extensions>
      </trkpt>
      <trkpt lat="57.6994973121" lon="12.0102745578">
        <ele>21.6</ele>
        <time>2011-05-18T20:17:59Z</time>
        <extensions><gpxtpx:TrackPointExtension><gpxtpx:hr>150</gpxtpx:hr></gpxtpx:TrackPointExtension></extensions>
      </trkpt>
      <trkpt lat="57.699527906" lon="12.010589382">
        <ele>21.6</ele>
        <time>2011-05-18T20:18:04Z</time>
        <extensions><gpxtpx:TrackPointExtension><gpxtpx:hr>149</gpxtpx:hr></gpxtpx:TrackPointExtension></extensions>
      </trkpt>
      <trkpt lat="57.6994785366" lon="12.0108807368">
        <ele>21.6</ele>
        <time>2011-05-18T20:18:09Z</time>
        <extensions><gpxtpx:TrackPointExtension><gpxtpx:hr>148</gpxtpx:hr></gpxtpx:TrackPointExtension></extensions>
      </trkpt>
      <trkpt lat="57.6994654608" lon="12.0111764502">
        <ele>21.6</ele>
        <time>2011-05-18T20:18:14Z</time>
        <extensions><gpxtpx:TrackPointExtension><gpxtpx:hr>145</gpxtpx:hr></gpxtpx:TrackPointExtension></extensions>
      </trkpt>
      <trkpt lat="57.6994973959" lon="12.0114104729">
        <ele>22.2</ele>
        <time>2011-05-18T20:18:18Z</time>
        <extensions><gpxtpx:TrackPointExtension><gpxtpx:hr>142</gpxtpx:hr></gpxtpx:TrackPointExtension></extensions>
      </trkpt>
      <trkpt lat="57.6995587514" lon="12.0117116346">
        <ele>22.8</ele>
        <time>2011-05-18T20:18:23Z</time>
        <extensions><gpxtpx:TrackPointExtension><gpxtpx:hr>143</gpxtpx:hr></gpxtpx:TrackPointExtension></extensions>
      </trkpt>
      <trkpt lat="57.6996118088" lon="12.0120147241">
        <ele>23</ele>
        <time>2011-05-18T20:18:28Z</time>
        <extensions><gpxtpx:TrackPointExtension><gpxtpx:hr>144</gpxtpx:hr></gpxtpx:TrackPointExtension></extensions>
      </trkpt>
      <trkpt lat="57.6996631899" lon="12.0123097669">
        <ele>23.4</ele>
        <time>2011-05-18T20:18:33Z</time>
        <extensions><gpxtpx:TrackPointExtension><gpxtpx:hr>146</gpxtpx:hr></gpxtpx:TrackPointExtension></extensions>
      </trkpt>
      <trkpt lat="57.6996887547" lon="12.0126314643">
        <ele>23.4</ele>
        <time>2011-05-18T20:18:38Z</time>
        <extensions><gpxtpx:TrackPointExtension><gpxtpx:hr>146</gpxtpx:hr></gpxtpx:TrackPointExtension></extensions>
      </trkpt>
      <trkpt lat="57.6997281496" lon="12.0128785627">
        <ele>23.4</ele>
        <time>2011-05-18T20:18:42Z</time>
        <extensions><gpxtpx:TrackPointExtension><gpxtpx:hr>145</gpxtpx:hr></gpxtpx:TrackPointExtension></extensions>
      </trkpt>
      <trkpt lat="57.6997377888" lon="12.0130950672">
        <ele>23.6</ele>
        <time>2011-05-18T20:18:46Z</time>
        <extensions><gpxtpx:TrackPointExtension><gpxtpx:hr>145</gpxtpx:hr></gpxtpx:TrackPointExtension></extensions>
      </trkpt>
      <trkpt lat="57.6996534669" lon="12.0131060474">
        <ele>23.6</ele>
        <time>2011-05-18T20:18:49Z</time>
        <extensions><gpxtpx:TrackPointExtension><gpxtpx:hr>147</gpxtpx:hr></gpxtpx:TrackPointExtension></extensions>
      </trkpt>
      <trkpt lat="57.6995887586" lon="12.0130875234">
        <ele>23.6</ele>
        <time>2011-05-18T20:18:54Z</time>
        <extensions><gpxtpx:TrackPointExtension><gpxtpx:hr>149</gpxtpx:hr></gpxtpx:TrackPointExtension></extensions>
      </trkpt>
      <trkpt lat="57.6994991561" lon="12.0131229789">
        <ele>23.6</ele>
        <time>2011-05-18T20:18:58Z</time>
        <extensions><gpxtpx:TrackPointExtension><gpxtpx:hr>150</gpxtpx:hr></gpxtpx:TrackPointExtension></extensions>
      </trkpt>
      <trkpt lat="57.6994251439" lon="12.0131602783">
        <ele>24.2</ele>
        <time>2011-05-18T20:19:02Z</time>
        <extensions><gpxtpx:TrackPointExtension><gpxtpx:hr>151</gpxtpx:hr></gpxtpx:TrackPointExtension></extensions>
      </trkpt>
      <trkpt lat="57.6993210407" lon="12.0132656388">
        <ele>25</ele>
        <time>2011-05-18T20:19:08Z</time>
        <extensions><gpxtpx:TrackPointExtension><gpxtpx:hr>153</gpxtpx:hr></gpxtpx:TrackPointExtension></extensions>
      </trkpt>
      <trkpt lat="57.6992225534" lon="12.0133304309">
        <ele>25.6</ele>
        <time>2011-05-18T20:19:12Z</time>
        <extensions><gpxtpx:TrackPointExtension><gpxtpx:hr>155</gpxtpx:hr></gpxtpx:TrackPointExtension></extensions>
      </trkpt>
      <trkpt lat="57.699128257" lon="12.0133687362">
        <ele>26.4</ele>
        <time>2011-05-18T20:19:16Z</time>
        <extensions><gpxtpx:TrackPointExtension><gpxtpx:hr>155</gpxtpx:hr></gpxtpx:TrackPointExtension></extensions>
      </trkpt>
      <trkpt lat="57.6990832462" lon="12.0134025991">
        <ele>26.6</ele>
        <time>2011-05-18T20:19:18Z</time>
        <extensions><gpxtpx:TrackPointExtension><gpxtpx:hr>155</gpxtpx:hr></gpxtpx:TrackPointExtension></extensions>
      </trkpt>
      <trkpt lat="57.699001355" lon="12.0134351208">
        <ele>27</ele>
        <time>2011-05-18T20:19:22Z</time>
        <extensions><gpxtpx:TrackPointExtension><gpxtpx:hr>156</gpxtpx:hr></gpxtpx:TrackPointExtension></extensions>
      </trkpt>
      <trkpt lat="57.6989152729" lon="12.0135206162">
        <ele>28</ele>
        <time>2011-05-18T20:19:26Z</time>
        <extensions><gpxtpx:TrackPointExtension><gpxtpx:hr>158</gpxtpx:hr></gpxtpx:TrackPointExtension></extensions>
      </trkpt>
      <trkpt lat="57.6988084875" lon="12.0136447522">
        <ele>28.8</ele>
        <time>2011-05-18T20:19:31Z</time>
        <extensions><gpxtpx:TrackPointExtension><gpxtpx:hr>157</gpxtpx:hr></gpxtpx:TrackPointExtension></extensions>
      </trkpt>
      <trkpt lat="57.6987166219" lon="12.0137922736">
        <ele>29.2</ele>
        <time>2011-05-18T20:19:34Z</time>
        <extensions><gpxtpx:TrackPointExtension><gpxtpx:hr>157</gpxtpx:hr></gpxtpx:TrackPointExtension></extensions>
      </trkpt>
      <trkpt lat="57.6985691843" lon="12.013946752">
        <ele>30.2</ele>
        <time>2011-05-18T20:19:39Z</time>
        <extensions><gpxtpx:TrackPointExtension><gpxtpx:hr>156</gpxtpx:hr></gpxtpx:TrackPointExtension></extensions>
      </trkpt>
      <trkpt lat="57.6985161268" lon="12.0140057606">
        <ele>30.6</ele>
        <time>2011-05-18T20:19:43Z</time>
        <extensions><gpxtpx:TrackPointExtension><gpxtpx:hr>156</gpxtpx:hr></gpxtpx:TrackPointExtension></extensions>
      </trkpt>
      <trkpt lat="57.6984088385" lon="12.0142231871">
        <ele>31.6</ele>
        <time>2011-05-18T20:19:48Z</time>
        <extensions><gpxtpx:TrackPointExtension><gpxtpx:hr>155</gpxtpx:hr></gpxtpx:TrackPointExtension></extensions>
      </trkpt>
      <trkpt lat="57.6983811783" lon="12.0142697066">
        <ele>31.8</ele>
        <time>2011-05-18T20:19:49Z</time>
        <extensions><gpxtpx:TrackPointExtension><gpxtpx:hr>155</gpxtpx:hr></gpxtpx:TrackPointExtension></extensions>
      </trkpt>
      <trkpt lat="57.6982665977" lon="12.0145317248">
        <ele>32.8</ele>
        <time>2011-05-18T20:19:55Z</time>
        <extensions><gpxtpx:TrackPointExtension><gpxtpx:hr>155</gpxtpx:hr></gpxtpx:TrackPointExtension></extensions>
      </trkpt>
      <trkpt lat="57.6982037334" lon="12.0146731275">
        <ele>34</ele>
        <time>2011-05-18T20:19:59Z</time>
        <extensions><gpxtpx:TrackPointExtension><gpxtpx:hr>154</gpxtpx:hr></gpxtpx:TrackPointExtension></extensions>
      </trkpt>
      <trkpt lat="57.6981618239" lon="12.0147430325">
        <ele>34.4</ele>
        <time>2011-05-18T20:20:01Z</time>
        <extensions><gpxtpx:TrackPointExtension><gpxtpx:hr>154</gpxtpx:hr></gpxtpx:TrackPointExtension></extensions>
      </trkpt>
      <trkpt lat="57.6980484168" lon="12.0148857763">
        <ele>35.4</ele>
        <time>2011-05-18T20:20:06Z</time>
        <extensions><gpxtpx:TrackPointExtension><gpxtpx:hr>153</gpxtpx:hr></gpxtpx:TrackPointExtension></extensions>
      </trkpt>
      <trkpt lat="57.6980419628" lon="12.0149063957">
        <ele>35.6</ele>
        <time>2011-05-18T20:20:07Z</time>
        <extensions><gpxtpx:TrackPointExtension><gpxtpx:hr>153</gpxtpx:hr></gpxtpx:TrackPointExtension></extensions>
      </trkpt>
      <trkpt lat="57.6979420505" lon="12.0150172883">
        <ele>36.6</ele>
        <time>2011-05-18T20:20:11Z</time>
        <extensions><gpxtpx:TrackPointExtension><gpxtpx:hr>154</gpxtpx:hr></gpxtpx:TrackPointExtension></extensions>
      </trkpt>
      <trkpt lat="57.6978892445" lon="12.0150577729">
        <ele>37.2</ele>
        <time>2011-05-18T20:20:15Z</time>
        <extensions><gpxtpx:TrackPointExtension><gpxtpx:hr>154</gpxtpx:hr></gpxtpx:TrackPointExtension></extensions>
      </trkpt>
      <trkpt lat="57.6977956187" lon="12.0151361436">
        <ele>38</ele>
        <time>2011-05-18T20:20:19Z</time>
        <extensions><gpxtpx:TrackPointExtension><gpxtpx:hr>154</gpxtpx:hr></gpxtpx:TrackPointExtension></extensions>
      </trkpt>
      <trkpt lat="57.6977407173" lon="12.0152215552">
        <ele>38.8</ele>
        <time>2011-05-18T20:20:22Z</time>
        <extensions><gpxtpx:TrackPointExtension><gpxtpx:hr>154</gpxtpx:hr></gpxtpx:TrackPointExtension></extensions>
      </trkpt>
      <trkpt lat="57.697657485" lon="12.0153042845">
        <ele>39.2</ele>
        <time>2011-05-18T20:20:25Z</time>
        <extensions><gpxtpx:TrackPointExtension><gpxtpx:hr>155</gpxtpx:hr></gpxtpx:TrackPointExtension></extensions>
      </trkpt>
      <trkpt lat="57.6975447485" lon="12.015424481">
        <ele>40.4</ele>
        <time>2011-05-18T20:20:29Z</time>
        <extensions><gpxtpx:TrackPointExtension><gpxtpx:hr>156</gpxtpx:hr></gpxtpx:TrackPointExtension></extensions>
      </trkpt>
      <trkpt lat="57.6974531343" lon="12.0154832381">
        <ele>41</ele>
        <time>2011-05-18T20:20:32Z</time>
        <extensions><gpxtpx:TrackPointExtension><gpxtpx:hr>157</gpxtpx:hr></gpxtpx:TrackPointExtension></extensions>
      </trkpt>
      <trkpt lat="57.6973994901" lon="12.0155213758">
        <ele>41.2</ele>
        <time>2011-05-18T20:20:34Z</time>
        <extensions><gpxtpx:TrackPointExtension><gpxtpx:hr>157</gpxtpx:hr></gpxtpx:TrackPointExtension></extensions>
      </trkpt>
      <trkpt lat="57.6973707402" lon="12.0155479464">
        <ele>41.6</ele>
        <time>2011-05-18T20:20:36Z</time>
        <extensions><gpxtpx:TrackPointExtension><gpxtpx:hr>157</gpxtpx:hr></gpxtpx:TrackPointExtension></extensions>
      </trkpt>
      <trkpt lat="57.6972980691" lon="12.0156201984">
        <ele>42.6</ele>
        <time>2011-05-18T20:20:39Z</time>
        <extensions><gpxtpx:TrackPointExtension><gpxtpx:hr>157</gpxtpx:hr></gpxtpx:TrackPointExtension></extensions>
      </trkpt>
      <trkpt lat="57.6972730073" lon="12.0156540612">
        <ele>42.8</ele>
        <time>2011-05-18T20:20:41Z</time>
        <extensions><gpxtpx:TrackPointExtension><gpxtpx:hr>156</gpxtpx:hr></gpxtpx:TrackPointExtension></extensions>
      </trkpt>
      <trkpt lat="57.6972297567" lon="12.015681973">
        <ele>43.2</ele>
        <time>2011-05-18T20:20:43Z</time>
        <extensions><gpxtpx:TrackPointExtension><gpxtpx:hr>156</gpxtpx:hr></gpxtpx:TrackPointExtension></extensions>
      </trkpt>
      <trkpt lat="57.6971901103" lon="12.0156925342">
        <ele>43.6</ele>
        <time>2011-05-18T20:20:46Z</time>
        <extensions><gpxtpx:TrackPointExtension><gpxtpx:hr>155</gpxtpx:hr></gpxtpx:TrackPointExtension></extensions>
      </trkpt>
      <trkpt lat="57.6971634558" lon="12.0156875888">
        <ele>44.4</ele>
        <time>2011-05-18T20:20:50Z</time>
        <extensions><gpxtpx:TrackPointExtension><gpxtpx:hr>154</gpxtpx:hr></gpxtpx:TrackPointExtension></extensions>
      </trkpt>
      <trkpt lat="57.6971246476" lon="12.0157590864">
        <ele>45.2</ele>
        <time>2011-05-18T20:20:54Z</time>
        <extensions><gpxtpx:TrackPointExtension><gpxtpx:hr>151</gpxtpx:hr></gpxtpx:TrackPointExtension></extensions>
      </trkpt>
      <trkpt lat="57.6970954786" lon="12.0158053545">
        <ele>45.6</ele>
        <time>2011-05-18T20:20:57Z</time>
        <extensions><gpxtpx:TrackPointExtension><gpxtpx:hr>148</gpxtpx:hr></gpxtpx:TrackPointExtension></extensions>
      </trkpt>
      <trkpt lat="57.6970456063" lon="12.0158512873">
        <ele>45.8</ele>
        <time>2011-05-18T20:20:59Z</time>
        <extensions><gpxtpx:TrackPointExtension><gpxtpx:hr>147</gpxtpx:hr></gpxtpx:TrackPointExtension></extensions>
      </trkpt>
      <trkpt lat="57.6969404973" lon="12.015956564">
        <ele>47</ele>
        <time>2011-05-18T20:21:04Z</time>
        <extensions><gpxtpx:TrackPointExtension><gpxtpx:hr>146</gpxtpx:hr></gpxtpx:TrackPointExtension></extensions>
      </trkpt>
      <trkpt lat="57.6969171956" lon="12.0159703941">
        <ele>47.2</ele>
        <time>2011-05-18T20:21:05Z</time>
        <extensions><gpxtpx:TrackPointExtension><gpxtpx:hr>146</gpxtpx:hr></gpxtpx:TrackPointExtension></extensions>
      </trkpt>
      <trkpt lat="57.696775793" lon="12.0161057618">
        <ele>48.2</ele>
        <time>2011-05-18T20:21:10Z</time>
        <extensions><gpxtpx:TrackPointExtension><gpxtpx:hr>147</gpxtpx:hr></gpxtpx:TrackPointExtension></extensions>
      </trkpt>
      <trkpt lat="57.696754922" lon="12.0161272195">
        <ele>48.4</ele>
        <time>2011-05-18T20:21:11Z</time>
        <extensions><gpxtpx:TrackPointExtension><gpxtpx:hr>147</gpxtpx:hr></gpxtpx:TrackPointExtension></extensions>
      </trkpt>
      <trkpt lat="57.6966371563" lon="12.0162136369">
        <ele>49.4</ele>
        <time>2011-05-18T20:21:15Z</time>
        <extensions><gpxtpx:TrackPointExtension><gpxtpx:hr>149</gpxtpx:hr></gpxtpx:TrackPointExtension></extensions>
      </trkpt>
      <trkpt lat="57.6964897187" lon="12.0163308158">
        <ele>50.8</ele>
        <time>2011-05-18T20:21:21Z</time>
        <extensions><gpxtpx:TrackPointExtension><gpxtpx:hr>150</gpxtpx:hr></gpxtpx:TrackPointExtension></extensions>
      </trkpt>
      <trkpt lat="57.696417802" lon="12.0163813587">
        <ele>51.4</ele>
        <time>2011-05-18T20:21:24Z</time>
        <extensions><gpxtpx:TrackPointExtension><gpxtpx:hr>151</gpxtpx:hr></gpxtpx:TrackPointExtension></extensions>
      </trkpt>
      <trkpt lat="57.6962619825" lon="12.0165292154">
        <ele>52.2</ele>
        <time>2011-05-18T20:21:30Z</time>
        <extensions><gpxtpx:TrackPointExtension><gpxtpx:hr>153</gpxtpx:hr></gpxtpx:TrackPointExtension></extensions>
      </trkpt>
      <trkpt lat="57.6961512576" lon="12.0166515911">
        <ele>53.4</ele>
        <time>2011-05-18T20:21:35Z</time>
        <extensions><gpxtpx:TrackPointExtension><gpxtpx:hr>153</gpxtpx:hr></gpxtpx:TrackPointExtension></extensions>
      </trkpt>
      <trkpt lat="57.6960682768" lon="12.0167342367">
        <ele>54</ele>
        <time>2011-05-18T20:21:39Z</time>
        <extensions><gpxtpx:TrackPointExtension><gpxtpx:hr>153</gpxtpx:hr></gpxtpx:TrackPointExtension></extensions>
      </trkpt>
      <trkpt lat="57.6959472421" lon="12.01686885">
        <ele>55.2</ele>
        <time>2011-05-18T20:21:44Z</time>
        <extensions><gpxtpx:TrackPointExtension><gpxtpx:hr>156</gpxtpx:hr></gpxtpx:TrackPointExtension></extensions>
      </trkpt>
      <trkpt lat="57.6958340865" lon="12.0169789043">
        <ele>56</ele>
        <time>2011-05-18T20:21:49Z</time>
        <extensions><gpxtpx:TrackPointExtension><gpxtpx:hr>156</gpxtpx:hr></gpxtpx:TrackPointExtension></extensions>
      </trkpt>
      <trkpt lat="57.6957276364" lon="12.0170646512">
        <ele>56.6</ele>
        <time>2011-05-18T20:21:53Z</time>
        <extensions><gpxtpx:TrackPointExtension><gpxtpx:hr>157</gpxtpx:hr></gpxtpx:TrackPointExtension></extensions>
      </trkpt>
      <trkpt lat="57.695679189" lon="12.0171275992">
        <ele>57.2</ele>
        <time>2011-05-18T20:21:55Z</time>
        <extensions><gpxtpx:TrackPointExtension><gpxtpx:hr>158</gpxtpx:hr></gpxtpx:TrackPointExtension></extensions>
      </trkpt>
      <trkpt lat="57.6956028299" lon="12.0172708459">
        <ele>58</ele>
        <time>2011-05-18T20:22:00Z</time>
        <extensions><gpxtpx:TrackPointExtension><gpxtpx:hr>158</gpxtpx:hr></gpxtpx:TrackPointExtension></extensions>
      </trkpt>
      <trkpt lat="57.6955410553" lon="12.0174519788">
        <ele>58.6</ele>
        <time>2011-05-18T20:22:04Z</time>
        <extensions><gpxtpx:TrackPointExtension><gpxtpx:hr>158</gpxtpx:hr></gpxtpx:TrackPointExtension></extensions>
      </trkpt>
      <trkpt lat="57.6954486867" lon="12.0177129073">
        <ele>59.6</ele>
        <time>2011-05-18T20:22:09Z</time>
        <extensions><gpxtpx:TrackPointExtension><gpxtpx:hr>158</gpxtpx:hr></gpxtpx:TrackPointExtension></extensions>
      </trkpt>
      <trkpt lat="57.695434186" lon="12.0177549845">
        <ele>59.8</ele>
        <time>2011-05-18T20:22:10Z</time>
        <extensions><gpxtpx:TrackPointExtension><gpxtpx:hr>158</gpxtpx:hr></gpxtpx:TrackPointExtension></extensions>
      </trkpt>
      <trkpt lat="57.6953464275" lon="12.0179321778">
        <ele>60.4</ele>
        <time>2011-05-18T20:22:15Z</time>
        <extensions><gpxtpx:TrackPointExtension><gpxtpx:hr>158</gpxtpx:hr></gpxtpx:TrackPointExtension></extensions>
      </trkpt>
      <trkpt lat="57.6952473535" lon="12.0181442399">
        <ele>60.8</ele>
        <time>2011-05-18T20:22:20Z</time>
        <extensions><gpxtpx:TrackPointExtension><gpxtpx:hr>159</gpxtpx:hr></gpxtpx:TrackPointExtension></extensions>
      </trkpt>
      <trkpt lat="57.6951419092" lon="12.0183559667">
        <ele>61</ele>
        <time>2011-05-18T20:22:25Z</time>
        <extensions><gpxtpx:TrackPointExtension><gpxtpx:hr>159</gpxtpx:hr></gpxtpx:TrackPointExtension></extensions>
      </trkpt>
      <trkpt lat="57.6950468584" lon="12.01859988">
        <ele>61.2</ele>
        <time>2011-05-18T20:22:30Z</time>
        <extensions><gpxtpx:TrackPointExtension><gpxtpx:hr>159</gpxtpx:hr></gpxtpx:TrackPointExtension></extensions>
      </trkpt>
      <trkpt lat="57.6949233092" lon="12.0188498282">
        <ele>62</ele>
        <time>2011-05-18T20:22:35Z</time>
        <extensions><gpxtpx:TrackPointExtension><gpxtpx:hr>158</gpxtpx:hr></gpxtpx:TrackPointExtension></extensions>
      </trkpt>
      <trkpt lat="57.6947968264" lon="12.0190825098">
        <ele>62.6</ele>
        <time>2011-05-18T20:22:40Z</time>
        <extensions><gpxtpx:TrackPointExtension><gpxtpx:hr>157</gpxtpx:hr></gpxtpx:TrackPointExtension></extensions>
      </trkpt>
      <trkpt lat="57.6946906277" lon="12.0193077314">
        <ele>63</ele>
        <time>2011-05-18T20:22:45Z</time>
        <extensions><gpxtpx:TrackPointExtension><gpxtpx:hr>155</gpxtpx:hr></gpxtpx:TrackPointExtension></extensions>
      </trkpt>
      <trkpt lat="57.6945814115" lon="12.0194392434">
        <ele>63</ele>
        <time>2011-05-18T20:22:49Z</time>
        <extensions><gpxtpx:TrackPointExtension><gpxtpx:hr>153</gpxtpx:hr></gpxtpx:TrackPointExtension></extensions>
      </trkpt>
      <trkpt lat="57.6945762148" lon="12.0194577674">
        <ele>63.2</ele>
        <time>2011-05-18T20:22:50Z</time>
        <extensions><gpxtpx:TrackPointExtension><gpxtpx:hr>153</gpxtpx:hr></gpxtpx:TrackPointExtension></extensions>
      </trkpt>
      <trkpt lat="57.6944057269" lon="12.0196071329">
        <ele>63.2</ele>
        <time>2011-05-18T20:22:56Z</time>
        <extensions><gpxtpx:TrackPointExtension><gpxtpx:hr>152</gpxtpx:hr></gpxtpx:TrackPointExtension></extensions>
      </trkpt>
      <trkpt lat="57.6942778191" lon="12.0197046144">
        <ele>63.4</ele>
        <time>2011-05-18T20:23:01Z</time>
        <extensions><gpxtpx:TrackPointExtension><gpxtpx:hr>152</gpxtpx:hr></gpxtpx:TrackPointExtension></extensions>
      </trkpt>
      <trkpt lat="57.6941665913" lon="12.0197839072">
        <ele>63.4</ele>
        <time>2011-05-18T20:23:05Z</time>
        <extensions><gpxtpx:TrackPointExtension><gpxtpx:hr>151</gpxtpx:hr></gpxtpx:TrackPointExtension></extensions>
      </trkpt>
      <trkpt lat="57.694044467" lon="12.019864122">
        <ele>63.4</ele>
        <time>2011-05-18T20:23:10Z</time>
        <extensions><gpxtpx:TrackPointExtension><gpxtpx:hr>149</gpxtpx:hr></gpxtpx:TrackPointExtension></extensions>
      </trkpt>
      <trkpt lat="57.6940246019" lon="12.0198866693">
        <ele>63.4</ele>
        <time>2011-05-18T20:23:11Z</time>
        <extensions><gpxtpx:TrackPointExtension><gpxtpx:hr>149</gpxtpx:hr></gpxtpx:TrackPointExtension></extensions>
      </trkpt>
      <trkpt lat="57.6939449739" lon="12.0199628607">
        <ele>63.6</ele>
        <time>2011-05-18T20:23:14Z</time>
        <extensions><gpxtpx:TrackPointExtension><gpxtpx:hr>147</gpxtpx:hr></gpxtpx:TrackPointExtension></extensions>
      </trkpt>
      <trkpt lat="57.6937881485" lon="12.0199739249">
        <ele>64.4</ele>
        <time>2011-05-18T20:23:19Z</time>
        <extensions><gpxtpx:TrackPointExtension><gpxtpx:hr>147</gpxtpx:hr></gpxtpx:TrackPointExtension></extensions>
      </trkpt>
      <trkpt lat="57.6937595662" lon="12.0199460969">
        <ele>64.6</ele>
        <time>2011-05-18T20:23:21Z</time>
        <extensions><gpxtpx:TrackPointExtension><gpxtpx:hr>148</gpxtpx:hr></gpxtpx:TrackPointExtension></extensions>
      </trkpt>
      <trkpt lat="57.6936718077" lon="12.019880299">
        <ele>65.2</ele>
        <time>2011-05-18T20:23:25Z</time>
        <extensions><gpxtpx:TrackPointExtension><gpxtpx:hr>148</gpxtpx:hr></gpxtpx:TrackPointExtension></extensions>
      </trkpt>
      <trkpt lat="57.6935445705" lon="12.0198057839">
        <ele>66.2</ele>
        <time>2011-05-18T20:23:30Z</time>
        <extensions><gpxtpx:TrackPointExtension><gpxtpx:hr>148</gpxtpx:hr></gpxtpx:TrackPointExtension></extensions>
      </trkpt>
      <trkpt lat="57.6934931056" lon="12.0197844101">
        <ele>66.4</ele>
        <time>2011-05-18T20:23:32Z</time>
        <extensions><gpxtpx:TrackPointExtension><gpxtpx:hr>148</gpxtpx:hr></gpxtpx:TrackPointExtension></extensions>
      </trkpt>
      <trkpt lat="57.6934713965" lon="12.019785835">
        <ele>67.2</ele>
        <time>2011-05-18T20:23:34Z</time>
        <extensions><gpxtpx:TrackPointExtension><gpxtpx:hr>147</gpxtpx:hr></gpxtpx:TrackPointExtension></extensions>
      </trkpt>
      <trkpt lat="57.6933512839" lon="12.019826152">
        <ele>68.4</ele>
        <time>2011-05-18T20:23:39Z</time>
        <extensions><gpxtpx:TrackPointExtension><gpxtpx:hr>143</gpxtpx:hr></gpxtpx:TrackPointExtension></extensions>
      </trkpt>
      <trkpt lat="57.6932455881" lon="12.0199521319">
        <ele>69</ele>
        <time>2011-05-18T20:23:44Z</time>
        <extensions><gpxtpx:TrackPointExtension><gpxtpx:hr>140</gpxtpx:hr></gpxtpx:TrackPointExtension></extensions>
      </trkpt>
      <trkpt lat="57.6932128987" lon="12.019986833">
        <ele>69</ele>
        <time>2011-05-18T20:23:45Z</time>
        <extensions><gpxtpx:TrackPointExtension><gpxtpx:hr>139</gpxtpx:hr></gpxtpx:TrackPointExtension></extensions>
      </trkpt>
      <trkpt lat="57.6930598452" lon="12.0202260524">
        <ele>70.4</ele>
        <time>2011-05-18T20:23:51Z</time>
        <extensions><gpxtpx:TrackPointExtension><gpxtpx:hr>134</gpxtpx:hr></gpxtpx:TrackPointExtension></extensions>
      </trkpt>
      <trkpt lat="57.6929572508" lon="12.0203650243">
        <ele>70.8</ele>
        <time>2011-05-18T20:23:55Z</time>
        <extensions><gpxtpx:TrackPointExtension><gpxtpx:hr>133</gpxtpx:hr></gpxtpx:TrackPointExtension></extensions>
      </trkpt>
      <trkpt lat="57.6929227173" lon="12.0203828778">
        <ele>71</ele>
        <time>2011-05-18T20:23:56Z</time>
        <extensions><gpxtpx:TrackPointExtension><gpxtpx:hr>134</gpxtpx:hr></gpxtpx:TrackPointExtension></extensions>
      </trkpt>
      <trkpt lat="57.6928282533" lon="12.0204753301">
        <ele>71.4</ele>
        <time>2011-05-18T20:24:01Z</time>
        <extensions><gpxtpx:TrackPointExtension><gpxtpx:hr>138</gpxtpx:hr></gpxtpx:TrackPointExtension></extensions>
      </trkpt>
      <trkpt lat="57.6927225576" lon="12.0205100312">
        <ele>71.4</ele>
        <time>2011-05-18T20:24:04Z</time>
        <extensions><gpxtpx:TrackPointExtension><gpxtpx:hr>140</gpxtpx:hr></gpxtpx:TrackPointExtension></extensions>
      </trkpt>
      <trkpt lat="57.6926262495" lon="12.0205920062">
        <ele>71.6</ele>
        <time>2011-05-18T20:24:08Z</time>
        <extensions><gpxtpx:TrackPointExtension><gpxtpx:hr>142</gpxtpx:hr></gpxtpx:TrackPointExtension></extensions>
      </trkpt>
      <trkpt lat="57.69257973" lon="12.0206333289">
        <ele>71.6</ele>
        <time>2011-05-18T20:24:10Z</time>
        <extensions><gpxtpx:TrackPointExtension><gpxtpx:hr>142</gpxtpx:hr></gpxtpx:TrackPointExtension></extensions>
      </trkpt>
      <trkpt lat="57.6924335497" lon="12.0207926688">
        <ele>72.4</ele>
        <time>2011-05-18T20:24:15Z</time>
        <extensions><gpxtpx:TrackPointExtension><gpxtpx:hr>141</gpxtpx:hr></gpxtpx:TrackPointExtension></extensions>
      </trkpt>
      <trkpt lat="57.6923399238" lon="12.0209430401">
        <ele>73</ele>
        <time>2011-05-18T20:24:19Z</time>
        <extensions><gpxtpx:TrackPointExtension><gpxtpx:hr>140</gpxtpx:hr></gpxtpx:TrackPointExtension></extensions>
      </trkpt>
      <trkpt lat="57.6922863635" lon="12.0210131966">
        <ele>73.2</ele>
        <time>2011-05-18T20:24:21Z</time>
        <extensions><gpxtpx:TrackPointExtension><gpxtpx:hr>139</gpxtpx:hr></gpxtpx:TrackPointExtension></extensions>
      </trkpt>
      <trkpt lat="57.6921352378" lon="12.0210855324">
        <ele>73.4</ele>
        <time>2011-05-18T20:24:26Z</time>
        <extensions><gpxtpx:TrackPointExtension><gpxtpx:hr>138</gpxtpx:hr></gpxtpx:TrackPointExtension></extensions>
      </trkpt>
      <trkpt lat="57.6920984413" lon="12.0210800842">
        <ele>73.4</ele>
        <time>2011-05-18T20:24:27Z</time>
        <extensions><gpxtpx:TrackPointExtension><gpxtpx:hr>139</gpxtpx:hr></gpxtpx:TrackPointExtension></extensions>
      </trkpt>
      <trkpt lat="57.6919875488" lon="12.0211052299">
        <ele>73.6</ele>
        <time>2011-05-18T20:24:31Z</time>
        <extensions><gpxtpx:TrackPointExtension><gpxtpx:hr>139</gpxtpx:hr></gpxtpx:TrackPointExtension></extensions>
      </trkpt>
      <trkpt lat="57.6918131214" lon="12.0212087464">
        <ele>74.2</ele>
        <time>2011-05-18T20:24:36Z</time>
        <extensions><gpxtpx:TrackPointExtension><gpxtpx:hr>140</gpxtpx:hr></gpxtpx:TrackPointExtension></extensions>
      </trkpt>
      <trkpt lat="57.6917052464" lon="12.0212814174">
        <ele>74.8</ele>
        <time>2011-05-18T20:24:40Z</time>
        <extensions><gpxtpx:TrackPointExtension><gpxtpx:hr>142</gpxtpx:hr></gpxtpx:TrackPointExtension></extensions>
      </trkpt>
      <trkpt lat="57.691579434" lon="12.0214790626">
        <ele>75.2</ele>
        <time>2011-05-18T20:24:45Z</time>
        <extensions><gpxtpx:TrackPointExtension><gpxtpx:hr>142</gpxtpx:hr></gpxtpx:TrackPointExtension></extensions>
      </trkpt>
      <trkpt lat="57.6915499298" lon="12.0215980856">
        <ele>75.4</ele>
        <time>2011-05-18T20:24:47Z</time>
        <extensions><gpxtpx:TrackPointExtension><gpxtpx:hr>142</gpxtpx:hr></gpxtpx:TrackPointExtension></extensions>
      </trkpt>
      <trkpt lat="57.6914884066" lon="12.0219285839">
        <ele>75.6</ele>
        <time>2011-05-18T20:24:53Z</time>
        <extensions><gpxtpx:TrackPointExtension><gpxtpx:hr>139</gpxtpx:hr></gpxtpx:TrackPointExtension></extensions>
      </trkpt>
      <trkpt lat="57.6913724849" lon="12.0221978944">
        <ele>75.8</ele>
        <time>2011-05-18T20:24:58Z</time>
        <extensions><gpxtpx:TrackPointExtension><gpxtpx:hr>140</gpxtpx:hr></gpxtpx:TrackPointExtension></extensions>
      </trkpt>
      <trkpt lat="57.691256228" lon="12.022424038">
        <ele>76</ele>
        <time>2011-05-18T20:25:03Z</time>
        <extensions><gpxtpx:TrackPointExtension><gpxtpx:hr>141</gpxtpx:hr></gpxtpx:TrackPointExtension></extensions>
      </trkpt>
      <trkpt lat="57.691132595" lon="12.0226859724">
        <ele>76</ele>
        <time>2011-05-18T20:25:09Z</time>
        <extensions><gpxtpx:TrackPointExtension><gpxtpx:hr>141</gpxtpx:hr></gpxtpx:TrackPointExtension></extensions>
      </trkpt>
      <trkpt lat="57.6910571579" lon="12.022824609">
        <ele>76</ele>
        <time>2011-05-18T20:25:12Z</time>
        <extensions><gpxtpx:TrackPointExtension><gpxtpx:hr>140</gpxtpx:hr></gpxtpx:TrackPointExtension></extensions>
      </trkpt>
      <trkpt lat="57.6909641188" lon="12.0231246811">
        <ele>76</ele>
        <time>2011-05-18T20:25:17Z</time>
        <extensions><gpxtpx:TrackPointExtension><gpxtpx:hr>139</gpxtpx:hr></gpxtpx:TrackPointExtension></extensions>
      </trkpt>
      <trkpt lat="57.6909059484" lon="12.023467417">
        <ele>76</ele>
        <time>2011-05-18T20:25:23Z</time>
        <extensions><gpxtpx:TrackPointExtension><gpxtpx:hr>138</gpxtpx:hr></gpxtpx:TrackPointExtension></extensions>
      </trkpt>
      <trkpt lat="57.6909207005" lon="12.0237265853">
        <ele>76</ele>
        <time>2011-05-18T20:25:28Z</time>
        <extensions><gpxtpx:TrackPointExtension><gpxtpx:hr>137</gpxtpx:hr></gpxtpx:TrackPointExtension></extensions>
      </trkpt>
      <trkpt lat="57.6909366261" lon="12.0239789643">
        <ele>76</ele>
        <time>2011-05-18T20:25:33Z</time>
        <extensions><gpxtpx:TrackPointExtension><gpxtpx:hr>137</gpxtpx:hr></gpxtpx:TrackPointExtension></extensions>
      </trkpt>
      <trkpt lat="57.690973758" lon="12.0242826405">
        <ele>76</ele>
        <time>2011-05-18T20:25:38Z</time>
        <extensions><gpxtpx:TrackPointExtension><gpxtpx:hr>137</gpxtpx:hr></gpxtpx:TrackPointExtension></extensions>
      </trkpt>
      <trkpt lat="57.6909826428" lon="12.0244626838">
        <ele>76</ele>
        <time>2011-05-18T20:25:41Z</time>
        <extensions><gpxtpx:TrackPointExtension><gpxtpx:hr>136</gpxtpx:hr></gpxtpx:TrackPointExtension></extensions>
      </trkpt>
      <trkpt lat="57.6910160865" lon="12.0246948624">
        <ele>76</ele>
        <time>2011-05-18T20:25:45Z</time>
        <extensions><gpxtpx:TrackPointExtension><gpxtpx:hr>135</gpxtpx:hr></gpxtpx:TrackPointExtension></extensions>
      </trkpt>
      <trkpt lat="57.6911658711" lon="12.0249137138">
        <ele>76</ele>
        <time>2011-05-18T20:25:51Z</time>
        <extensions><gpxtpx:TrackPointExtension><gpxtpx:hr>135</gpxtpx:hr></gpxtpx:TrackPointExtension></extensions>
      </trkpt>
      <trkpt lat="57.6913137278" lon="12.0249424637">
        <ele>76</ele>
        <time>2011-05-18T20:25:57Z</time>
        <extensions><gpxtpx:TrackPointExtension><gpxtpx:hr>133</gpxtpx:hr></gpxtpx:TrackPointExtension></extensions>
      </trkpt>
      <trkpt lat="57.6913939426" lon="12.0249909111">
        <ele>77</ele>
        <time>2011-05-18T20:26:23Z</time>
        <extensions><gpxtpx:TrackPointExtension><gpxtpx:hr>127</gpxtpx:hr></gpxtpx:TrackPointExtension></extensions>
      </trkpt>
      <trkpt lat="57.6914167414" lon="12.0250003826">
        <ele>77</ele>
        <time>2011-05-18T20:26:24Z</time>
        <extensions><gpxtpx:TrackPointExtension><gpxtpx:hr>126</gpxtpx:hr></gpxtpx:TrackPointExtension></extensions>
      </trkpt>
      <trkpt lat="57.6914436473" lon="12.0250055794">
        <ele>77.2</ele>
        <time>2011-05-18T20:26:25Z</time>
        <extensions><gpxtpx:TrackPointExtension><gpxtpx:hr>126</gpxtpx:hr></gpxtpx:TrackPointExtension></extensions>
      </trkpt>
      <trkpt lat="57.6915872292" lon="12.0250734728">
        <ele>77.6</ele>
        <time>2011-05-18T20:26:30Z</time>
        <extensions><gpxtpx:TrackPointExtension><gpxtpx:hr>123</gpxtpx:hr></gpxtpx:TrackPointExtension></extensions>
      </trkpt>
      <trkpt lat="57.6917287157" lon="12.0251443837">
        <ele>77.8</ele>
        <time>2011-05-18T20:26:36Z</time>
        <extensions><gpxtpx:TrackPointExtension><gpxtpx:hr>121</gpxtpx:hr></gpxtpx:TrackPointExtension></extensions>
      </trkpt>
      <trkpt lat="57.6918302205" lon="12.0253025501">
        <ele>77.8</ele>
        <time>2011-05-18T20:26:40Z</time>
        <extensions><gpxtpx:TrackPointExtension><gpxtpx:hr>121</gpxtpx:hr></gpxtpx:TrackPointExtension></extensions>
      </trkpt>
      <trkpt lat="57.6918536898" lon="12.0254913943">
        <ele>77.8</ele>
        <time>2011-05-18T20:26:44Z</time>
        <extensions><gpxtpx:TrackPointExtension><gpxtpx:hr>125</gpxtpx:hr></gpxtpx:TrackPointExtension></extensions>
      </trkpt>
      <trkpt lat="57.6918365907" lon="12.0255296158">
        <ele>78</ele>
        <time>2011-05-18T20:26:46Z</time>
        <extensions><gpxtpx:TrackPointExtension><gpxtpx:hr>128</gpxtpx:hr></gpxtpx:TrackPointExtension></extensions>
      </trkpt>
      <trkpt lat="57.691738774" lon="12.0256535841">
        <ele>78</ele>
        <time>2011-05-18T20:26:51Z</time>
        <extensions><gpxtpx:TrackPointExtension><gpxtpx:hr>133</gpxtpx:hr></gpxtpx:TrackPointExtension></extensions>
      </trkpt>
      <trkpt lat="57.6916786757" lon="12.0257440248">
        <ele>78</ele>
        <time>2011-05-18T20:26:55Z</time>
        <extensions><gpxtpx:TrackPointExtension><gpxtpx:hr>138</gpxtpx:hr></gpxtpx:TrackPointExtension></extensions>
      </trkpt>
      <trkpt lat="57.6916040768" lon="12.025809236">
        <ele>78</ele>
        <time>2011-05-18T20:26:59Z</time>
        <extensions><gpxtpx:TrackPointExtension><gpxtpx:hr>141</gpxtpx:hr></gpxtpx:TrackPointExtension></extensions>
      </trkpt>
      <trkpt lat="57.6915485048" lon="12.0259113275">
        <ele>78</ele>
        <time>2011-05-18T20:27:02Z</time>
        <extensions><gpxtpx:TrackPointExtension><gpxtpx:hr>142</gpxtpx:hr></gpxtpx:TrackPointExtension></extensions>
      </trkpt>
      <trkpt lat="57.6914513586" lon="12.0262051131">
        <ele>78</ele>
        <time>2011-05-18T20:27:08Z</time>
        <extensions><gpxtpx:TrackPointExtension><gpxtpx:hr>145</gpxtpx:hr></gpxtpx:TrackPointExtension></extensions>
      </trkpt>
      <trkpt lat="57.6914852215" lon="12.0264100506">
        <ele>78</ele>
        <time>2011-05-18T20:27:13Z</time>
        <extensions><gpxtpx:TrackPointExtension><gpxtpx:hr>148</gpxtpx:hr></gpxtpx:TrackPointExtension></extensions>
      </trkpt>
      <trkpt lat="57.6914930167" lon="12.026587244">
        <ele>78</ele>
        <time>2011-05-18T20:27:17Z</time>
        <extensions><gpxtpx:TrackPointExtension><gpxtpx:hr>150</gpxtpx:hr></gpxtpx:TrackPointExtension></extensions>
      </trkpt>
      <trkpt lat="57.6914865626" lon="12.0267109608">
        <ele>78</ele>
        <time>2011-05-18T20:27:20Z</time>
        <extensions><gpxtpx:TrackPointExtension><gpxtpx:hr>149</gpxtpx:hr></gpxtpx:TrackPointExtension></extensions>
      </trkpt>
      <trkpt lat="57.691513217" lon="12.0268709713">
        <ele>78</ele>
        <time>2011-05-18T20:27:24Z</time>
        <extensions><gpxtpx:TrackPointExtension><gpxtpx:hr>150</gpxtpx:hr></gpxtpx:TrackPointExtension></extensions>
      </trkpt>
      <trkpt lat="57.6916342517" lon="12.0271493342">
        <ele>78</ele>
        <time>2011-05-18T20:27:29Z</time>
        <extensions><gpxtpx:TrackPointExtension><gpxtpx:hr>150</gpxtpx:hr></gpxtpx:TrackPointExtension></extensions>
      </trkpt>
      <trkpt lat="57.6916685336" lon="12.0271893996">
        <ele>78</ele>
        <time>2011-05-18T20:27:30Z</time>
        <extensions><gpxtpx:TrackPointExtension><gpxtpx:hr>150</gpxtpx:hr></gpxtpx:TrackPointExtension></extensions>
      </trkpt>
      <trkpt lat="57.69170818" lon="12.0273973546">
        <ele>78</ele>
        <time>2011-05-18T20:27:33Z</time>
        <extensions><gpxtpx:TrackPointExtension><gpxtpx:hr>150</gpxtpx:hr></gpxtpx:TrackPointExtension></extensions>
      </trkpt>
      <trkpt lat="57.6917793424" lon="12.0277707682">
        <ele>78.8</ele>
        <time>2011-05-18T20:27:39Z</time>
        <extensions><gpxtpx:TrackPointExtension><gpxtpx:hr>149</gpxtpx:hr></gpxtpx:TrackPointExtension></extensions>
      </trkpt>
      <trkpt lat="57.6918399435" lon="12.0279451956">
        <ele>79.2</ele>
        <time>2011-05-18T20:27:42Z</time>
        <extensions><gpxtpx:TrackPointExtension><gpxtpx:hr>147</gpxtpx:hr></gpxtpx:TrackPointExtension></extensions>
      </trkpt>
      <trkpt lat="57.6918958508" lon="12.0280280087">
        <ele>79.4</ele>
        <time>2011-05-18T20:27:44Z</time>
        <extensions><gpxtpx:TrackPointExtension><gpxtpx:hr>146</gpxtpx:hr></gpxtpx:TrackPointExtension></extensions>
      </trkpt>
      <trkpt lat="57.6920082521" lon="12.0280112449">
        <ele>79.6</ele>
        <time>2011-05-18T20:27:48Z</time>
        <extensions><gpxtpx:TrackPointExtension><gpxtpx:hr>144</gpxtpx:hr></gpxtpx:TrackPointExtension></extensions>
      </trkpt>
      <trkpt lat="57.6920666739" lon="12.0279995103">
        <ele>79.8</ele>
        <time>2011-05-18T20:27:50Z</time>
        <extensions><gpxtpx:TrackPointExtension><gpxtpx:hr>143</gpxtpx:hr></gpxtpx:TrackPointExtension></extensions>
      </trkpt>
      <trkpt lat="57.6921127743" lon="12.0279677429">
        <ele>79.8</ele>
        <time>2011-05-18T20:27:52Z</time>
        <extensions><gpxtpx:TrackPointExtension><gpxtpx:hr>143</gpxtpx:hr></gpxtpx:TrackPointExtension></extensions>
      </trkpt>
      <trkpt lat="57.6922415203" lon="12.0278734465">
        <ele>80</ele>
        <time>2011-05-18T20:27:57Z</time>
        <extensions><gpxtpx:TrackPointExtension><gpxtpx:hr>141</gpxtpx:hr></gpxtpx:TrackPointExtension></extensions>
      </trkpt>
      <trkpt lat="57.6923581126" lon="12.0278441099">
        <ele>80.8</ele>
        <time>2011-05-18T20:28:01Z</time>
        <extensions><gpxtpx:TrackPointExtension><gpxtpx:hr>139</gpxtpx:hr></gpxtpx:TrackPointExtension></extensions>
      </trkpt>
      <trkpt lat="57.692481997" lon="12.0278969158">
        <ele>81.2</ele>
        <time>2011-05-18T20:28:05Z</time>
        <extensions><gpxtpx:TrackPointExtension><gpxtpx:hr>137</gpxtpx:hr></gpxtpx:TrackPointExtension></extensions>
      </trkpt>
      <trkpt lat="57.6926368107" lon="12.0280851733">
        <ele>81.6</ele>
        <time>2011-05-18T20:28:11Z</time>
        <extensions><gpxtpx:TrackPointExtension><gpxtpx:hr>137</gpxtpx:hr></gpxtpx:TrackPointExtension></extensions>
      </trkpt>
      <trkpt lat="57.6927678198" lon="12.0281855885">
        <ele>81.8</ele>
        <time>2011-05-18T20:28:16Z</time>
        <extensions><gpxtpx:TrackPointExtension><gpxtpx:hr>139</gpxtpx:hr></gpxtpx:TrackPointExtension></extensions>
      </trkpt>
      <trkpt lat="57.6928796344" lon="12.0282176073">
        <ele>82</ele>
        <time>2011-05-18T20:28:20Z</time>
        <extensions><gpxtpx:TrackPointExtension><gpxtpx:hr>140</gpxtpx:hr></gpxtpx:TrackPointExtension></extensions>
      </trkpt>
      <trkpt lat="57.6930533073" lon="12.0281547431">
        <ele>82.8</ele>
        <time>2011-05-18T20:28:25Z</time>
        <extensions><gpxtpx:TrackPointExtension><gpxtpx:hr>141</gpxtpx:hr></gpxtpx:TrackPointExtension></extensions>
      </trkpt>
      <trkpt lat="57.6931070353" lon="12.0280832455">
        <ele>83.2</ele>
        <time>2011-05-18T20:28:27Z</time>
        <extensions><gpxtpx:TrackPointExtension><gpxtpx:hr>141</gpxtpx:hr></gpxtpx:TrackPointExtension></extensions>
      </trkpt>
      <trkpt lat="57.6931917763" lon="12.027962127">
        <ele>83.4</ele>
        <time>2011-05-18T20:28:31Z</time>
        <extensions><gpxtpx:TrackPointExtension><gpxtpx:hr>141</gpxtpx:hr></gpxtpx:TrackPointExtension></extensions>
      </trkpt>
      <trkpt lat="57.6932164191" lon="12.027932958">
        <ele>83.6</ele>
        <time>2011-05-18T20:28:32Z</time>
        <extensions><gpxtpx:TrackPointExtension><gpxtpx:hr>142</gpxtpx:hr></gpxtpx:TrackPointExtension></extensions>
      </trkpt>
      <trkpt lat="57.6932820494" lon="12.0277872806">
        <ele>83.8</ele>
        <time>2011-05-18T20:28:36Z</time>
        <extensions><gpxtpx:TrackPointExtension><gpxtpx:hr>142</gpxtpx:hr></gpxtpx:TrackPointExtension></extensions>
      </trkpt>
      <trkpt lat="57.6934553871" lon="12.0276607977">
        <ele>84</ele>
        <time>2011-05-18T20:28:42Z</time>
        <extensions><gpxtpx:TrackPointExtension><gpxtpx:hr>140</gpxtpx:hr></gpxtpx:TrackPointExtension></extensions>
      </trkpt>
      <trkpt lat="57.6935781819" lon="12.0276273539">
        <ele>84</ele>
        <time>2011-05-18T20:28:46Z</time>
        <extensions><gpxtpx:TrackPointExtension><gpxtpx:hr>139</gpxtpx:hr></gpxtpx:TrackPointExtension></extensions>
      </trkpt>
      <trkpt lat="57.6936045849" lon="12.0276056448">
        <ele>84</ele>
        <time>2011-05-18T20:28:47Z</time>
        <extensions><gpxtpx:TrackPointExtension><gpxtpx:hr>139</gpxtpx:hr></gpxtpx:TrackPointExtension></extensions>
      </trkpt>
      <trkpt lat="57.6937253681" lon="12.027586115">
        <ele>84</ele>
        <time>2011-05-18T20:28:51Z</time>
        <extensions><gpxtpx:TrackPointExtension><gpxtpx:hr>138</gpxtpx:hr></gpxtpx:TrackPointExtension></extensions>
      </trkpt>
      <trkpt lat="57.6939037349" lon="12.0276177147">
        <ele>84.2</ele>
        <time>2011-05-18T20:28:56Z</time>
        <extensions><gpxtpx:TrackPointExtension><gpxtpx:hr>139</gpxtpx:hr></gpxtpx:TrackPointExtension></extensions>
      </trkpt>
      <trkpt lat="57.6940352469" lon="12.0276219057">
        <ele>84.2</ele>
        <time>2011-05-18T20:29:00Z</time>
        <extensions><gpxtpx:TrackPointExtension><gpxtpx:hr>139</gpxtpx:hr></gpxtpx:TrackPointExtension></extensions>
      </trkpt>
      <trkpt lat="57.6941427867" lon="12.0275899706">
        <ele>84.2</ele>
        <time>2011-05-18T20:29:04Z</time>
        <extensions><gpxtpx:TrackPointExtension><gpxtpx:hr>139</gpxtpx:hr></gpxtpx:TrackPointExtension></extensions>
      </trkpt>
      <trkpt lat="57.6942691858" lon="12.0275015416">
        <ele>84.2</ele>
        <time>2011-05-18T20:29:08Z</time>
        <extensions><gpxtpx:TrackPointExtension><gpxtpx:hr>140</gpxtpx:hr></gpxtpx:TrackPointExtension></extensions>
      </trkpt>
      <trkpt lat="57.6943501549" lon="12.0273273657">
        <ele>84.2</ele>
        <time>2011-05-18T20:29:12Z</time>
        <extensions><gpxtpx:TrackPointExtension><gpxtpx:hr>140</gpxtpx:hr></gpxtpx:TrackPointExtension></extensions>
      </trkpt>
      <trkpt lat="57.6943562737" lon="12.0271431316">
        <ele>84.2</ele>
        <time>2011-05-18T20:29:16Z</time>
        <extensions><gpxtpx:TrackPointExtension><gpxtpx:hr>137</gpxtpx:hr></gpxtpx:TrackPointExtension></extensions>
      </trkpt>
      <trkpt lat="57.6944132706" lon="12.0269070973">
        <ele>84.2</ele>
        <time>2011-05-18T20:29:21Z</time>
        <extensions><gpxtpx:TrackPointExtension><gpxtpx:hr>135</gpxtpx:hr></gpxtpx:TrackPointExtension></extensions>
      </trkpt>
      <trkpt lat="57.6944609636" lon="12.0267247071">
        <ele>84.2</ele>
        <time>2011-05-18T20:29:25Z</time>
        <extensions><gpxtpx:TrackPointExtension><gpxtpx:hr>133</gpxtpx:hr></gpxtpx:TrackPointExtension></extensions>
      </trkpt>
      <trkpt lat="57.6945292761" lon="12.0265740005">
        <ele>84.2</ele>
        <time>2011-05-18T20:29:28Z</time>
        <extensions><gpxtpx:TrackPointExtension><gpxtpx:hr>132</gpxtpx:hr></gpxtpx:TrackPointExtension></extensions>
      </trkpt>
      <trkpt lat="57.6945930624" lon="12.0264719928">
        <ele>84.2</ele>
        <time>2011-05-18T20:29:31Z</time>
        <extensions><gpxtpx:TrackPointExtension><gpxtpx:hr>130</gpxtpx:hr></gpxtpx:TrackPointExtension></extensions>
      </trkpt>
      <trkpt lat="57.6947140132" lon="12.0262189433">
        <ele>84</ele>
        <time>2011-05-18T20:29:36Z</time>
        <extensions><gpxtpx:TrackPointExtension><gpxtpx:hr>129</gpxtpx:hr></gpxtpx:TrackPointExtension></extensions>
      </trkpt>
      <trkpt lat="57.6947648913" lon="12.0260309372">
        <ele>83.4</ele>
        <time>2011-05-18T20:29:39Z</time>
        <extensions><gpxtpx:TrackPointExtension><gpxtpx:hr>128</gpxtpx:hr></gpxtpx:TrackPointExtension></extensions>
      </trkpt>
      <trkpt lat="57.6949235607" lon="12.0259242357">
        <ele>83</ele>
        <time>2011-05-18T20:29:44Z</time>
        <extensions><gpxtpx:TrackPointExtension><gpxtpx:hr>127</gpxtpx:hr></gpxtpx:TrackPointExtension></extensions>
      </trkpt>
      <trkpt lat="57.6950759436" lon="12.0257591961">
        <ele>81.8</ele>
        <time>2011-05-18T20:29:49Z</time>
        <extensions><gpxtpx:TrackPointExtension><gpxtpx:hr>127</gpxtpx:hr></gpxtpx:TrackPointExtension></extensions>
      </trkpt>
      <trkpt lat="57.6951904404" lon="12.0256132672">
        <ele>81.2</ele>
        <time>2011-05-18T20:29:53Z</time>
        <extensions><gpxtpx:TrackPointExtension><gpxtpx:hr>127</gpxtpx:hr></gpxtpx:TrackPointExtension></extensions>
      </trkpt>
      <trkpt lat="57.6952220401" lon="12.0254631473">
        <ele>80.2</ele>
        <time>2011-05-18T20:29:56Z</time>
        <extensions><gpxtpx:TrackPointExtension><gpxtpx:hr>127</gpxtpx:hr></gpxtpx:TrackPointExtension></extensions>
      </trkpt>
      <trkpt lat="57.695310553" lon="12.0252945035">
        <ele>79.4</ele>
        <time>2011-05-18T20:30:00Z</time>
        <extensions><gpxtpx:TrackPointExtension><gpxtpx:hr>127</gpxtpx:hr></gpxtpx:TrackPointExtension></extensions>
      </trkpt>
      <trkpt lat="57.6953718247" lon="12.0251323976">
        <ele>78.2</ele>
        <time>2011-05-18T20:30:04Z</time>
        <extensions><gpxtpx:TrackPointExtension><gpxtpx:hr>125</gpxtpx:hr></gpxtpx:TrackPointExtension></extensions>
      </trkpt>
      <trkpt lat="57.6954071963" lon="12.0250938408">
        <ele>78</ele>
        <time>2011-05-18T20:30:05Z</time>
        <extensions><gpxtpx:TrackPointExtension><gpxtpx:hr>125</gpxtpx:hr></gpxtpx:TrackPointExtension></extensions>
      </trkpt>
      <trkpt lat="57.6954745868" lon="12.0249156416">
        <ele>77</ele>
        <time>2011-05-18T20:30:09Z</time>
        <extensions><gpxtpx:TrackPointExtension><gpxtpx:hr>124</gpxtpx:hr></gpxtpx:TrackPointExtension></extensions>
      </trkpt>
      <trkpt lat="57.6954644447" lon="12.0248059226">
        <ele>76.4</ele>
        <time>2011-05-18T20:30:11Z</time>
        <extensions><gpxtpx:TrackPointExtension><gpxtpx:hr>123</gpxtpx:hr></gpxtpx:TrackPointExtension></extensions>
      </trkpt>
      <trkpt lat="57.695547677" lon="12.0246355185">
        <ele>75.4</ele>
        <time>2011-05-18T20:30:15Z</time>
        <extensions><gpxtpx:TrackPointExtension><gpxtpx:hr>122</gpxtpx:hr></gpxtpx:TrackPointExtension></extensions>
      </trkpt>
      <trkpt lat="57.6956589886" lon="12.0244914337">
        <ele>74.4</ele>
        <time>2011-05-18T20:30:19Z</time>
        <extensions><gpxtpx:TrackPointExtension><gpxtpx:hr>123</gpxtpx:hr></gpxtpx:TrackPointExtension></extensions>
      </trkpt>
      <trkpt lat="57.6958151434" lon="12.0243728298">
        <ele>73.2</ele>
        <time>2011-05-18T20:30:24Z</time>
        <extensions><gpxtpx:TrackPointExtension><gpxtpx:hr>126</gpxtpx:hr></gpxtpx:TrackPointExtension></extensions>
      </trkpt>
      <trkpt lat="57.6960061669" lon="12.0242422398">
        <ele>72.6</ele>
        <time>2011-05-18T20:30:30Z</time>
        <extensions><gpxtpx:TrackPointExtension><gpxtpx:hr>128</gpxtpx:hr></gpxtpx:TrackPointExtension></extensions>
      </trkpt>
      <trkpt lat="57.6961245193" lon="12.0241618574">
        <ele>72.2</ele>
        <time>2011-05-18T20:30:34Z</time>
        <extensions><gpxtpx:TrackPointExtension><gpxtpx:hr>132</gpxtpx:hr></gpxtpx:TrackPointExtension></extensions>
      </trkpt>
      <trkpt lat="57.6963002039" lon="12.0239878491">
        <ele>72</ele>
        <time>2011-05-18T20:30:41Z</time>
        <extensions><gpxtpx:TrackPointExtension><gpxtpx:hr>135</gpxtpx:hr></gpxtpx:TrackPointExtension></extensions>
      </trkpt>
      <trkpt lat="57.6964444564" lon="12.0238808961">
        <ele>71.8</ele>
        <time>2011-05-18T20:30:46Z</time>
        <extensions><gpxtpx:TrackPointExtension><gpxtpx:hr>138</gpxtpx:hr></gpxtpx:TrackPointExtension></extensions>
      </trkpt>
      <trkpt lat="57.696630367" lon="12.0237831631">
        <ele>71.8</ele>
        <time>2011-05-18T20:30:51Z</time>
        <extensions><gpxtpx:TrackPointExtension><gpxtpx:hr>139</gpxtpx:hr></gpxtpx:TrackPointExtension></extensions>
      </trkpt>
      <trkpt lat="57.6967795648" lon="12.0236603683">
        <ele>71.8</ele>
        <time>2011-05-18T20:30:56Z</time>
        <extensions><gpxtpx:TrackPointExtension><gpxtpx:hr>139</gpxtpx:hr></gpxtpx:TrackPointExtension></extensions>
      </trkpt>
      <trkpt lat="57.6969030302" lon="12.0235714363">
        <ele>71.8</ele>
        <time>2011-05-18T20:31:00Z</time>
        <extensions><gpxtpx:TrackPointExtension><gpxtpx:hr>135</gpxtpx:hr></gpxtpx:TrackPointExtension></extensions>
      </trkpt>
      <trkpt lat="57.6969928003" lon="12.0234119288">
        <ele>71.8</ele>
        <time>2011-05-18T20:31:04Z</time>
        <extensions><gpxtpx:TrackPointExtension><gpxtpx:hr>133</gpxtpx:hr></gpxtpx:TrackPointExtension></extensions>
      </trkpt>
      <trkpt lat="57.6970710873" lon="12.0232842724">
        <ele>71.8</ele>
        <time>2011-05-18T20:31:07Z</time>
        <extensions><gpxtpx:TrackPointExtension><gpxtpx:hr>134</gpxtpx:hr></gpxtpx:TrackPointExtension></extensions>
      </trkpt>
      <trkpt lat="57.6971396512" lon="12.0230480705">
        <ele>71.6</ele>
        <time>2011-05-18T20:31:11Z</time>
        <extensions><gpxtpx:TrackPointExtension><gpxtpx:hr>136</gpxtpx:hr></gpxtpx:TrackPointExtension></extensions>
      </trkpt>
      <trkpt lat="57.6971886853" lon="12.0229438835">
        <ele>71.2</ele>
        <time>2011-05-18T20:31:13Z</time>
        <extensions><gpxtpx:TrackPointExtension><gpxtpx:hr>137</gpxtpx:hr></gpxtpx:TrackPointExtension></extensions>
      </trkpt>
      <trkpt lat="57.6972227159" lon="12.0228263692">
        <ele>71</ele>
        <time>2011-05-18T20:31:15Z</time>
        <extensions><gpxtpx:TrackPointExtension><gpxtpx:hr>137</gpxtpx:hr></gpxtpx:TrackPointExtension></extensions>
      </trkpt>
      <trkpt lat="57.6973094685" lon="12.0227052508">
        <ele>70.6</ele>
        <time>2011-05-18T20:31:18Z</time>
        <extensions><gpxtpx:TrackPointExtension><gpxtpx:hr>137</gpxtpx:hr></gpxtpx:TrackPointExtension></extensions>
      </trkpt>
      <trkpt lat="57.6973176828" lon="12.0226491759">
        <ele>70.4</ele>
        <time>2011-05-18T20:31:19Z</time>
        <extensions><gpxtpx:TrackPointExtension><gpxtpx:hr>137</gpxtpx:hr></gpxtpx:TrackPointExtension></extensions>
      </trkpt>
      <trkpt lat="57.6973756017" lon="12.0225286442">
        <ele>69.8</ele>
        <time>2011-05-18T20:31:22Z</time>
        <extensions><gpxtpx:TrackPointExtension><gpxtpx:hr>136</gpxtpx:hr></gpxtpx:TrackPointExtension></extensions>
      </trkpt>
      <trkpt lat="57.6974294135" lon="12.0223640236">
        <ele>69.2</ele>
        <time>2011-05-18T20:31:26Z</time>
        <extensions><gpxtpx:TrackPointExtension><gpxtpx:hr>135</gpxtpx:hr></gpxtpx:TrackPointExtension></extensions>
      </trkpt>
      <trkpt lat="57.6974916072" lon="12.0222264767">
        <ele>68.8</ele>
        <time>2011-05-18T20:31:29Z</time>
        <extensions><gpxtpx:TrackPointExtension><gpxtpx:hr>135</gpxtpx:hr></gpxtpx:TrackPointExtension></extensions>
      </trkpt>
      <trkpt lat="57.697527817" lon="12.0221953798">
        <ele>68.6</ele>
        <time>2011-05-18T20:31:30Z</time>
        <extensions><gpxtpx:TrackPointExtension><gpxtpx:hr>135</gpxtpx:hr></gpxtpx:TrackPointExtension></extensions>
      </trkpt>
      <trkpt lat="57.6975725764" lon="12.0221100521">
        <ele>68.2</ele>
        <time>2011-05-18T20:31:32Z</time>
        <extensions><gpxtpx:TrackPointExtension><gpxtpx:hr>134</gpxtpx:hr></gpxtpx:TrackPointExtension></extensions>
      </trkpt>
      <trkpt lat="57.6976104626" lon="12.0220218745">
        <ele>67.8</ele>
        <time>2011-05-18T20:31:34Z</time>
        <extensions><gpxtpx:TrackPointExtension><gpxtpx:hr>135</gpxtpx:hr></gpxtpx:TrackPointExtension></extensions>
      </trkpt>
      <trkpt lat="57.6977707245" lon="12.0217523964">
        <ele>66.6</ele>
        <time>2011-05-18T20:31:40Z</time>
        <extensions><gpxtpx:TrackPointExtension><gpxtpx:hr>134</gpxtpx:hr></gpxtpx:TrackPointExtension></extensions>
      </trkpt>
      <trkpt lat="57.6978794377" lon="12.021478895">
        <ele>65.8</ele>
        <time>2011-05-18T20:31:45Z</time>
        <extensions><gpxtpx:TrackPointExtension><gpxtpx:hr>135</gpxtpx:hr></gpxtpx:TrackPointExtension></extensions>
      </trkpt>
      <trkpt lat="57.6979925934" lon="12.0211951677">
        <ele>64.8</ele>
        <time>2011-05-18T20:31:50Z</time>
        <extensions><gpxtpx:TrackPointExtension><gpxtpx:hr>133</gpxtpx:hr></gpxtpx:TrackPointExtension></extensions>
      </trkpt>
      <trkpt lat="57.6980481654" lon="12.0209775736">
        <ele>64.4</ele>
        <time>2011-05-18T20:31:54Z</time>
        <extensions><gpxtpx:TrackPointExtension><gpxtpx:hr>132</gpxtpx:hr></gpxtpx:TrackPointExtension></extensions>
      </trkpt>
      <trkpt lat="57.6981088503" lon="12.0207850413">
        <ele>63.2</ele>
        <time>2011-05-18T20:31:58Z</time>
        <extensions><gpxtpx:TrackPointExtension><gpxtpx:hr>132</gpxtpx:hr></gpxtpx:TrackPointExtension></extensions>
      </trkpt>
      <trkpt lat="57.6981327387" lon="12.0204980451">
        <ele>62</ele>
        <time>2011-05-18T20:32:03Z</time>
        <extensions><gpxtpx:TrackPointExtension><gpxtpx:hr>131</gpxtpx:hr></gpxtpx:TrackPointExtension></extensions>
      </trkpt>
      <trkpt lat="57.6981406177" lon="12.0204560517">
        <ele>61.6</ele>
        <time>2011-05-18T20:32:04Z</time>
        <extensions><gpxtpx:TrackPointExtension><gpxtpx:hr>130</gpxtpx:hr></gpxtpx:TrackPointExtension></extensions>
      </trkpt>
      <trkpt lat="57.6980385262" lon="12.0201962128">
        <ele>59.8</ele>
        <time>2011-05-18T20:32:09Z</time>
        <extensions><gpxtpx:TrackPointExtension><gpxtpx:hr>131</gpxtpx:hr></gpxtpx:TrackPointExtension></extensions>
      </trkpt>
      <trkpt lat="57.6979709681" lon="12.0200718254">
        <ele>58.4</ele>
        <time>2011-05-18T20:32:12Z</time>
        <extensions><gpxtpx:TrackPointExtension><gpxtpx:hr>132</gpxtpx:hr></gpxtpx:TrackPointExtension></extensions>
      </trkpt>
      <trkpt lat="57.697846916" lon="12.0199038522">
        <ele>56.4</ele>
        <time>2011-05-18T20:32:17Z</time>
        <extensions><gpxtpx:TrackPointExtension><gpxtpx:hr>135</gpxtpx:hr></gpxtpx:TrackPointExtension></extensions>
      </trkpt>
      <trkpt lat="57.6977478419" lon="12.0196892755">
        <ele>54.2</ele>
        <time>2011-05-18T20:32:23Z</time>
        <extensions><gpxtpx:TrackPointExtension><gpxtpx:hr>137</gpxtpx:hr></gpxtpx:TrackPointExtension></extensions>
      </trkpt>
      <trkpt lat="57.6976601672" lon="12.0193964958">
        <ele>52.4</ele>
        <time>2011-05-18T20:32:29Z</time>
        <extensions><gpxtpx:TrackPointExtension><gpxtpx:hr>139</gpxtpx:hr></gpxtpx:TrackPointExtension></extensions>
      </trkpt>
      <trkpt lat="57.6975902622" lon="12.0191607967">
        <ele>50.8</ele>
        <time>2011-05-18T20:32:34Z</time>
        <extensions><gpxtpx:TrackPointExtension><gpxtpx:hr>140</gpxtpx:hr></gpxtpx:TrackPointExtension></extensions>
      </trkpt>
      <trkpt lat="57.6975617637" lon="12.0191101701">
        <ele>50.2</ele>
        <time>2011-05-18T20:32:35Z</time>
        <extensions><gpxtpx:TrackPointExtension><gpxtpx:hr>140</gpxtpx:hr></gpxtpx:TrackPointExtension></extensions>
      </trkpt>
      <trkpt lat="57.6974211993" lon="12.0189701085">
        <ele>49.4</ele>
        <time>2011-05-18T20:32:41Z</time>
        <extensions><gpxtpx:TrackPointExtension><gpxtpx:hr>140</gpxtpx:hr></gpxtpx:TrackPointExtension></extensions>
      </trkpt>
      <trkpt lat="57.6973279925" lon="12.0187552804">
        <ele>49</ele>
        <time>2011-05-18T20:32:47Z</time>
        <extensions><gpxtpx:TrackPointExtension><gpxtpx:hr>142</gpxtpx:hr></gpxtpx:TrackPointExtension></extensions>
      </trkpt>
      <trkpt lat="57.6972739293" lon="12.0185381054">
        <ele>48.6</ele>
        <time>2011-05-18T20:32:52Z</time>
        <extensions><gpxtpx:TrackPointExtension><gpxtpx:hr>143</gpxtpx:hr></gpxtpx:TrackPointExtension></extensions>
      </trkpt>
      <trkpt lat="57.6972573331" lon="12.0184930108">
        <ele>48.6</ele>
        <time>2011-05-18T20:32:53Z</time>
        <extensions><gpxtpx:TrackPointExtension><gpxtpx:hr>144</gpxtpx:hr></gpxtpx:TrackPointExtension></extensions>
      </trkpt>
      <trkpt lat="57.6971919543" lon="12.0182853911">
        <ele>48.6</ele>
        <time>2011-05-18T20:32:57Z</time>
        <extensions><gpxtpx:TrackPointExtension><gpxtpx:hr>144</gpxtpx:hr></gpxtpx:TrackPointExtension></extensions>
      </trkpt>
      <trkpt lat="57.6971322752" lon="12.0181171664">
        <ele>48.4</ele>
        <time>2011-05-18T20:33:02Z</time>
        <extensions><gpxtpx:TrackPointExtension><gpxtpx:hr>145</gpxtpx:hr></gpxtpx:TrackPointExtension></extensions>
      </trkpt>
      <trkpt lat="57.697126324" lon="12.0180527096">
        <ele>48.4</ele>
        <time>2011-05-18T20:33:03Z</time>
        <extensions><gpxtpx:TrackPointExtension><gpxtpx:hr>145</gpxtpx:hr></gpxtpx:TrackPointExtension></extensions>
      </trkpt>
      <trkpt lat="57.697088354" lon="12.0179307529">
        <ele>48.4</ele>
        <time>2011-05-18T20:33:06Z</time>
        <extensions><gpxtpx:TrackPointExtension><gpxtpx:hr>146</gpxtpx:hr></gpxtpx:TrackPointExtension></extensions>
      </trkpt>
      <trkpt lat="57.6971445127" lon="12.0177052798">
        <ele>48.6</ele>
        <time>2011-05-18T20:33:12Z</time>
        <extensions><gpxtpx:TrackPointExtension><gpxtpx:hr>147</gpxtpx:hr></gpxtpx:TrackPointExtension></extensions>
      </trkpt>
      <trkpt lat="57.6971546548" lon="12.0176564971">
        <ele>48.8</ele>
        <time>2011-05-18T20:33:13Z</time>
        <extensions><gpxtpx:TrackPointExtension><gpxtpx:hr>147</gpxtpx:hr></gpxtpx:TrackPointExtension></extensions>
      </trkpt>
      <trkpt lat="57.6972348696" lon="12.0174824889">
        <ele>49.4</ele>
        <time>2011-05-18T20:33:17Z</time>
        <extensions><gpxtpx:TrackPointExtension><gpxtpx:hr>146</gpxtpx:hr></gpxtpx:TrackPointExtension></extensions>
      </trkpt>
      <trkpt lat="57.6972401502" lon="12.017451392">
        <ele>49.4</ele>
        <time>2011-05-18T20:33:18Z</time>
        <extensions><gpxtpx:TrackPointExtension><gpxtpx:hr>147</gpxtpx:hr></gpxtpx:TrackPointExtension></extensions>
      </trkpt>
      <trkpt lat="57.6972900225" lon="12.0171579417">
        <ele>50.2</ele>
        <time>2011-05-18T20:33:23Z</time>
        <extensions><gpxtpx:TrackPointExtension><gpxtpx:hr>146</gpxtpx:hr></gpxtpx:TrackPointExtension></extensions>
      </trkpt>
      <trkpt lat="57.6972759409" lon="12.0169286968">
        <ele>51</ele>
        <time>2011-05-18T20:33:27Z</time>
        <extensions><gpxtpx:TrackPointExtension><gpxtpx:hr>146</gpxtpx:hr></gpxtpx:TrackPointExtension></extensions>
      </trkpt>
      <trkpt lat="57.697277282" lon="12.0166852864">
        <ele>51.8</ele>
        <time>2011-05-18T20:33:31Z</time>
        <extensions><gpxtpx:TrackPointExtension><gpxtpx:hr>144</gpxtpx:hr></gpxtpx:TrackPointExtension></extensions>
      </trkpt>
      <trkpt lat="57.6972471072" lon="12.0164716318">
        <ele>52.8</ele>
        <time>2011-05-18T20:33:35Z</time>
        <extensions><gpxtpx:TrackPointExtension><gpxtpx:hr>143</gpxtpx:hr></gpxtpx:TrackPointExtension></extensions>
      </trkpt>
      <trkpt lat="57.6972126576" lon="12.0162738189">
        <ele>53.4</ele>
        <time>2011-05-18T20:33:39Z</time>
        <extensions><gpxtpx:TrackPointExtension><gpxtpx:hr>141</gpxtpx:hr></gpxtpx:TrackPointExtension></extensions>
      </trkpt>
      <trkpt lat="57.6972165971" lon="12.0160644391">
        <ele>54.2</ele>
        <time>2011-05-18T20:33:43Z</time>
        <extensions><gpxtpx:TrackPointExtension><gpxtpx:hr>141</gpxtpx:hr></gpxtpx:TrackPointExtension></extensions>
      </trkpt>
      <trkpt lat="57.6972061197" lon="12.0159448293">
        <ele>54.8</ele>
        <time>2011-05-18T20:33:46Z</time>
        <extensions><gpxtpx:TrackPointExtension><gpxtpx:hr>140</gpxtpx:hr></gpxtpx:TrackPointExtension></extensions>
      </trkpt>
      <trkpt lat="57.6972849934" lon="12.0157284087">
        <ele>55.6</ele>
        <time>2011-05-18T20:33:51Z</time>
        <extensions><gpxtpx:TrackPointExtension><gpxtpx:hr>140</gpxtpx:hr></gpxtpx:TrackPointExtension></extensions>
      </trkpt>
      <trkpt lat="57.6973457622" lon="12.0156186896">
        <ele>56</ele>
        <time>2011-05-18T20:33:55Z</time>
        <extensions><gpxtpx:TrackPointExtension><gpxtpx:hr>137</gpxtpx:hr></gpxtpx:TrackPointExtension></extensions>
      </trkpt>
      <trkpt lat="57.6974405614" lon="12.0153881874">
        <ele>56.4</ele>
        <time>2011-05-18T20:34:00Z</time>
        <extensions><gpxtpx:TrackPointExtension><gpxtpx:hr>135</gpxtpx:hr></gpxtpx:TrackPointExtension></extensions>
      </trkpt>
      <trkpt lat="57.6974780285" lon="12.0153659753">
        <ele>56.4</ele>
        <time>2011-05-18T20:34:01Z</time>
        <extensions><gpxtpx:TrackPointExtension><gpxtpx:hr>134</gpxtpx:hr></gpxtpx:TrackPointExtension></extensions>
      </trkpt>
      <trkpt lat="57.6976457504" lon="12.0152246565">
        <ele>56.6</ele>
        <time>2011-05-18T20:34:07Z</time>
        <extensions><gpxtpx:TrackPointExtension><gpxtpx:hr>133</gpxtpx:hr></gpxtpx:TrackPointExtension></extensions>
      </trkpt>
      <trkpt lat="57.6978118796" lon="12.0150994309">
        <ele>56.6</ele>
        <time>2011-05-18T20:34:12Z</time>
        <extensions><gpxtpx:TrackPointExtension><gpxtpx:hr>131</gpxtpx:hr></gpxtpx:TrackPointExtension></extensions>
      </trkpt>
      <trkpt lat="57.6978444852" lon="12.0150685855">
        <ele>56.8</ele>
        <time>2011-05-18T20:34:13Z</time>
        <extensions><gpxtpx:TrackPointExtension><gpxtpx:hr>130</gpxtpx:hr></gpxtpx:TrackPointExtension></extensions>
      </trkpt>
      <trkpt lat="57.6979662742" lon="12.0151809868">
        <ele>56.8</ele>
        <time>2011-05-18T20:34:17Z</time>
        <extensions><gpxtpx:TrackPointExtension><gpxtpx:hr>128</gpxtpx:hr></gpxtpx:TrackPointExtension></extensions>
      </trkpt>
      <trkpt lat="57.6979799367" lon="12.0152132571">
        <ele>56.8</ele>
        <time>2011-05-18T20:34:18Z</time>
        <extensions><gpxtpx:TrackPointExtension><gpxtpx:hr>128</gpxtpx:hr></gpxtpx:TrackPointExtension></extensions>
      </trkpt>
      <trkpt lat="57.6980743169" lon="12.0154616128">
        <ele>56.8</ele>
        <time>2011-05-18T20:34:23Z</time>
        <extensions><gpxtpx:TrackPointExtension><gpxtpx:hr>127</gpxtpx:hr></gpxtpx:TrackPointExtension></extensions>
      </trkpt>
      <trkpt lat="57.698187724" lon="12.0156451764">
        <ele>56.8</ele>
        <time>2011-05-18T20:34:27Z</time>
        <extensions><gpxtpx:TrackPointExtension><gpxtpx:hr>126</gpxtpx:hr></gpxtpx:TrackPointExtension></extensions>
      </trkpt>
      <trkpt lat="57.6982800087" lon="12.0159056859">
        <ele>56.8</ele>
        <time>2011-05-18T20:34:32Z</time>
        <extensions><gpxtpx:TrackPointExtension><gpxtpx:hr>124</gpxtpx:hr></gpxtpx:TrackPointExtension></extensions>
      </trkpt>
      <trkpt lat="57.6983264445" lon="12.0161246211">
        <ele>56.2</ele>
        <time>2011-05-18T20:34:36Z</time>
        <extensions><gpxtpx:TrackPointExtension><gpxtpx:hr>125</gpxtpx:hr></gpxtpx:TrackPointExtension></extensions>
      </trkpt>
      <trkpt lat="57.6984043123" lon="12.0163276307">
        <ele>55.6</ele>
        <time>2011-05-18T20:34:41Z</time>
        <extensions><gpxtpx:TrackPointExtension><gpxtpx:hr>124</gpxtpx:hr></gpxtpx:TrackPointExtension></extensions>
      </trkpt>
      <trkpt lat="57.6985045598" lon="12.016529383">
        <ele>55</ele>
        <time>2011-05-18T20:34:45Z</time>
        <extensions><gpxtpx:TrackPointExtension><gpxtpx:hr>125</gpxtpx:hr></gpxtpx:TrackPointExtension></extensions>
      </trkpt>
      <trkpt lat="57.6985586231" lon="12.0166935006">
        <ele>54.4</ele>
        <time>2011-05-18T20:34:48Z</time>
        <extensions><gpxtpx:TrackPointExtension><gpxtpx:hr>125</gpxtpx:hr></gpxtpx:TrackPointExtension></extensions>
      </trkpt>
      <trkpt lat="57.6986430288" lon="12.0169282777">
        <ele>53.6</ele>
        <time>2011-05-18T20:34:53Z</time>
        <extensions><gpxtpx:TrackPointExtension><gpxtpx:hr>128</gpxtpx:hr></gpxtpx:TrackPointExtension></extensions>
      </trkpt>
      <trkpt lat="57.6986644027" lon="12.0170409304">
        <ele>53.4</ele>
        <time>2011-05-18T20:34:56Z</time>
        <extensions><gpxtpx:TrackPointExtension><gpxtpx:hr>128</gpxtpx:hr></gpxtpx:TrackPointExtension></extensions>
      </trkpt>
      <trkpt lat="57.6986956671" lon="12.0171305329">
        <ele>53.4</ele>
        <time>2011-05-18T20:34:57Z</time>
        <extensions><gpxtpx:TrackPointExtension><gpxtpx:hr>128</gpxtpx:hr></gpxtpx:TrackPointExtension></extensions>
      </trkpt>
      <trkpt lat="57.6987864431" lon="12.0173695847">
        <ele>52.6</ele>
        <time>2011-05-18T20:35:02Z</time>
        <extensions><gpxtpx:TrackPointExtension><gpxtpx:hr>130</gpxtpx:hr></gpxtpx:TrackPointExtension></extensions>
      </trkpt>
      <trkpt lat="57.6988392491" lon="12.0175310201">
        <ele>52</ele>
        <time>2011-05-18T20:35:06Z</time>
        <extensions><gpxtpx:TrackPointExtension><gpxtpx:hr>131</gpxtpx:hr></gpxtpx:TrackPointExtension></extensions>
      </trkpt>
      <trkpt lat="57.6989218108" lon="12.0177419925">
        <ele>51.4</ele>
        <time>2011-05-18T20:35:11Z</time>
        <extensions><gpxtpx:TrackPointExtension><gpxtpx:hr>132</gpxtpx:hr></gpxtpx:TrackPointExtension></extensions>
      </trkpt>
      <trkpt lat="57.6990017741" lon="12.0179746741">
        <ele>51</ele>
        <time>2011-05-18T20:35:16Z</time>
        <extensions><gpxtpx:TrackPointExtension><gpxtpx:hr>133</gpxtpx:hr></gpxtpx:TrackPointExtension></extensions>
      </trkpt>
      <trkpt lat="57.6990617885" lon="12.0181314994">
        <ele>51</ele>
        <time>2011-05-18T20:35:20Z</time>
        <extensions><gpxtpx:TrackPointExtension><gpxtpx:hr>136</gpxtpx:hr></gpxtpx:TrackPointExtension></extensions>
      </trkpt>
      <trkpt lat="57.699164383" lon="12.0180770171">
        <ele>50.2</ele>
        <time>2011-05-18T20:35:24Z</time>
        <extensions><gpxtpx:TrackPointExtension><gpxtpx:hr>138</gpxtpx:hr></gpxtpx:TrackPointExtension></extensions>
      </trkpt>
      <trkpt lat="57.6991917918" lon="12.0180579901">
        <ele>50</ele>
        <time>2011-05-18T20:35:25Z</time>
        <extensions><gpxtpx:TrackPointExtension><gpxtpx:hr>139</gpxtpx:hr></gpxtpx:TrackPointExtension></extensions>
      </trkpt>
      <trkpt lat="57.6993576696" lon="12.0179307529">
        <ele>49.4</ele>
        <time>2011-05-18T20:35:31Z</time>
        <extensions><gpxtpx:TrackPointExtension><gpxtpx:hr>139</gpxtpx:hr></gpxtpx:TrackPointExtension></extensions>
      </trkpt>
      <trkpt lat="57.69954182" lon="12.0177726703">
        <ele>48.6</ele>
        <time>2011-05-18T20:35:37Z</time>
        <extensions><gpxtpx:TrackPointExtension><gpxtpx:hr>139</gpxtpx:hr></gpxtpx:TrackPointExtension></extensions>
      </trkpt>
      <trkpt lat="57.6996970527" lon="12.0175989135">
        <ele>47.6</ele>
        <time>2011-05-18T20:35:43Z</time>
        <extensions><gpxtpx:TrackPointExtension><gpxtpx:hr>138</gpxtpx:hr></gpxtpx:TrackPointExtension></extensions>
      </trkpt>
      <trkpt lat="57.699855303" lon="12.0173980832">
        <ele>46</ele>
        <time>2011-05-18T20:35:49Z</time>
        <extensions><gpxtpx:TrackPointExtension><gpxtpx:hr>137</gpxtpx:hr></gpxtpx:TrackPointExtension></extensions>
      </trkpt>
      <trkpt lat="57.7000161517" lon="12.0171551757">
        <ele>44</ele>
        <time>2011-05-18T20:35:56Z</time>
        <extensions><gpxtpx:TrackPointExtension><gpxtpx:hr>135</gpxtpx:hr></gpxtpx:TrackPointExtension></extensions>
      </trkpt>
      <trkpt lat="57.700169289" lon="12.0169153695">
        <ele>42.2</ele>
        <time>2011-05-18T20:36:02Z</time>
        <extensions><gpxtpx:TrackPointExtension><gpxtpx:hr>131</gpxtpx:hr></gpxtpx:TrackPointExtension></extensions>
      </trkpt>
      <trkpt lat="57.7003356697" lon="12.0167117732">
        <ele>40.2</ele>
        <time>2011-05-18T20:36:08Z</time>
        <extensions><gpxtpx:TrackPointExtension><gpxtpx:hr>130</gpxtpx:hr></gpxtpx:TrackPointExtension></extensions>
      </trkpt>
      <trkpt lat="57.7004821853" lon="12.0165776628">
        <ele>38.4</ele>
        <time>2011-05-18T20:36:13Z</time>
        <extensions><gpxtpx:TrackPointExtension><gpxtpx:hr>128</gpxtpx:hr></gpxtpx:TrackPointExtension></extensions>
      </trkpt>
      <trkpt lat="57.7006234203" lon="12.0164052471">
        <ele>37.2</ele>
        <time>2011-05-18T20:36:18Z</time>
        <extensions><gpxtpx:TrackPointExtension><gpxtpx:hr>127</gpxtpx:hr></gpxtpx:TrackPointExtension></extensions>
      </trkpt>
      <trkpt lat="57.7006872904" lon="12.016268203">
        <ele>36.2</ele>
        <time>2011-05-18T20:36:21Z</time>
        <extensions><gpxtpx:TrackPointExtension><gpxtpx:hr>127</gpxtpx:hr></gpxtpx:TrackPointExtension></extensions>
      </trkpt>
      <trkpt lat="57.7006728735" lon="12.016147336">
        <ele>35.8</ele>
        <time>2011-05-18T20:36:23Z</time>
        <extensions><gpxtpx:TrackPointExtension><gpxtpx:hr>128</gpxtpx:hr></gpxtpx:TrackPointExtension></extensions>
      </trkpt>
      <trkpt lat="57.7006200676" lon="12.0160021615">
        <ele>35.2</ele>
        <time>2011-05-18T20:36:26Z</time>
        <extensions><gpxtpx:TrackPointExtension><gpxtpx:hr>128</gpxtpx:hr></gpxtpx:TrackPointExtension></extensions>
      </trkpt>
      <trkpt lat="57.700603639" lon="12.0159646944">
        <ele>35</ele>
        <time>2011-05-18T20:36:27Z</time>
        <extensions><gpxtpx:TrackPointExtension><gpxtpx:hr>128</gpxtpx:hr></gpxtpx:TrackPointExtension></extensions>
      </trkpt>
      <trkpt lat="57.7004808442" lon="12.015637046">
        <ele>33.4</ele>
        <time>2011-05-18T20:36:34Z</time>
        <extensions><gpxtpx:TrackPointExtension><gpxtpx:hr>129</gpxtpx:hr></gpxtpx:TrackPointExtension></extensions>
      </trkpt>
      <trkpt lat="57.7004042336" lon="12.0153515585">
        <ele>32.6</ele>
        <time>2011-05-18T20:36:40Z</time>
        <extensions><gpxtpx:TrackPointExtension><gpxtpx:hr>129</gpxtpx:hr></gpxtpx:TrackPointExtension></extensions>
      </trkpt>
      <trkpt lat="57.7003401121" lon="12.0151402508">
        <ele>32.2</ele>
        <time>2011-05-18T20:36:44Z</time>
        <extensions><gpxtpx:TrackPointExtension><gpxtpx:hr>130</gpxtpx:hr></gpxtpx:TrackPointExtension></extensions>
      </trkpt>
      <trkpt lat="57.7002436364" lon="12.014847471">
        <ele>31.8</ele>
        <time>2011-05-18T20:36:50Z</time>
        <extensions><gpxtpx:TrackPointExtension><gpxtpx:hr>132</gpxtpx:hr></gpxtpx:TrackPointExtension></extensions>
      </trkpt>
      <trkpt lat="57.7001508488" lon="12.0145456388">
        <ele>31.6</ele>
        <time>2011-05-18T20:36:56Z</time>
        <extensions><gpxtpx:TrackPointExtension><gpxtpx:hr>134</gpxtpx:hr></gpxtpx:TrackPointExtension></extensions>
      </trkpt>
      <trkpt lat="57.7000558819" lon="12.0142295573">
        <ele>31.6</ele>
        <time>2011-05-18T20:37:02Z</time>
        <extensions><gpxtpx:TrackPointExtension><gpxtpx:hr>134</gpxtpx:hr></gpxtpx:TrackPointExtension></extensions>
      </trkpt>
      <trkpt lat="57.6999714761" lon="12.0139800282">
        <ele>31.6</ele>
        <time>2011-05-18T20:37:07Z</time>
        <extensions><gpxtpx:TrackPointExtension><gpxtpx:hr>135</gpxtpx:hr></gpxtpx:TrackPointExtension></extensions>
      </trkpt>
      <trkpt lat="57.6998938598" lon="12.013714741">
        <ele>30.8</ele>
        <time>2011-05-18T20:37:12Z</time>
        <extensions><gpxtpx:TrackPointExtension><gpxtpx:hr>135</gpxtpx:hr></gpxtpx:TrackPointExtension></extensions>
      </trkpt>
      <trkpt lat="57.6997993119" lon="12.0133956421">
        <ele>30.2</ele>
        <time>2011-05-18T20:37:18Z</time>
        <extensions><gpxtpx:TrackPointExtension><gpxtpx:hr>134</gpxtpx:hr></gpxtpx:TrackPointExtension></extensions>
      </trkpt>
      <trkpt lat="57.6997466736" lon="12.0131262478">
        <ele>29.8</ele>
        <time>2011-05-18T20:37:23Z</time>
        <extensions><gpxtpx:TrackPointExtension><gpxtpx:hr>134</gpxtpx:hr></gpxtpx:TrackPointExtension></extensions>
      </trkpt>
      <trkpt lat="57.6996968013" lon="12.0129087375">
        <ele>29.8</ele>
        <time>2011-05-18T20:37:27Z</time>
        <extensions><gpxtpx:TrackPointExtension><gpxtpx:hr>134</gpxtpx:hr></gpxtpx:TrackPointExtension></extensions>
      </trkpt>
      <trkpt lat="57.6996349429" lon="12.0126406844">
        <ele>29</ele>
        <time>2011-05-18T20:37:32Z</time>
        <extensions><gpxtpx:TrackPointExtension><gpxtpx:hr>136</gpxtpx:hr></gpxtpx:TrackPointExtension></extensions>
      </trkpt>
      <trkpt lat="57.699607115" lon="12.0123681888">
        <ele>28.2</ele>
        <time>2011-05-18T20:37:37Z</time>
        <extensions><gpxtpx:TrackPointExtension><gpxtpx:hr>135</gpxtpx:hr></gpxtpx:TrackPointExtension></extensions>
      </trkpt>
      <trkpt lat="57.6995608469" lon="12.0120485031">
        <ele>27.8</ele>
        <time>2011-05-18T20:37:44Z</time>
        <extensions><gpxtpx:TrackPointExtension><gpxtpx:hr>136</gpxtpx:hr></gpxtpx:TrackPointExtension></extensions>
      </trkpt>
      <trkpt lat="57.6995258943" lon="12.0118307414">
        <ele>27.6</ele>
        <time>2011-05-18T20:37:48Z</time>
        <extensions><gpxtpx:TrackPointExtension><gpxtpx:hr>137</gpxtpx:hr></gpxtpx:TrackPointExtension></extensions>
      </trkpt>
      <trkpt lat="57.6994713282" lon="12.0115934498">
        <ele>27</ele>
        <time>2011-05-18T20:37:53Z</time>
        <extensions><gpxtpx:TrackPointExtension><gpxtpx:hr>137</gpxtpx:hr></gpxtpx:TrackPointExtension></extensions>
      </trkpt>
      <trkpt lat="57.6994298378" lon="12.0113285817">
        <ele>26.4</ele>
        <time>2011-05-18T20:37:58Z</time>
        <extensions><gpxtpx:TrackPointExtension><gpxtpx:hr>137</gpxtpx:hr></gpxtpx:TrackPointExtension></extensions>
      </trkpt>
      <trkpt lat="57.6993843241" lon="12.0110399929">
        <ele>26</ele>
        <time>2011-05-18T20:38:03Z</time>
        <extensions><gpxtpx:TrackPointExtension><gpxtpx:hr>133</gpxtpx:hr></gpxtpx:TrackPointExtension></extensions>
      </trkpt>
      <trkpt lat="57.6993546521" lon="12.0107516556">
        <ele>25.6</ele>
        <time>2011-05-18T20:38:08Z</time>
        <extensions><gpxtpx:TrackPointExtension><gpxtpx:hr>132</gpxtpx:hr></gpxtpx:TrackPointExtension></extensions>
      </trkpt>
      <trkpt lat="57.6993305123" lon="12.0104965105">
        <ele>25.6</ele>
        <time>2011-05-18T20:38:13Z</time>
        <extensions><gpxtpx:TrackPointExtension><gpxtpx:hr>134</gpxtpx:hr></gpxtpx:TrackPointExtension></extensions>
      </trkpt>
      <trkpt lat="57.6993027682" lon="12.0101724663">
        <ele>25.4</ele>
        <time>2011-05-18T20:38:19Z</time>
        <extensions><gpxtpx:TrackPointExtension><gpxtpx:hr>135</gpxtpx:hr></gpxtpx:TrackPointExtension></extensions>
      </trkpt>
      <trkpt lat="57.6992716713" lon="12.0098999707">
        <ele>25.4</ele>
        <time>2011-05-18T20:38:24Z</time>
        <extensions><gpxtpx:TrackPointExtension><gpxtpx:hr>135</gpxtpx:hr></gpxtpx:TrackPointExtension></extensions>
      </trkpt>
      <trkpt lat="57.6992317735" lon="12.0095731604">
        <ele>25.4</ele>
        <time>2011-05-18T20:38:30Z</time>
        <extensions><gpxtpx:TrackPointExtension><gpxtpx:hr>135</gpxtpx:hr></gpxtpx:TrackPointExtension></extensions>
      </trkpt>
      <trkpt lat="57.699222721" lon="12.0092824761">
        <ele>25.4</ele>
        <time>2011-05-18T20:38:35Z</time>
        <extensions><gpxtpx:TrackPointExtension><gpxtpx:hr>136</gpxtpx:hr></gpxtpx:TrackPointExtension></extensions>
      </trkpt>
      <trkpt lat="57.6992052028" lon="12.0089778779">
        <ele>25.4</ele>
        <time>2011-05-18T20:38:40Z</time>
        <extensions><gpxtpx:TrackPointExtension><gpxtpx:hr>137</gpxtpx:hr></gpxtpx:TrackPointExtension></extensions>
      </trkpt>
      <trkpt lat="57.6991894449" lon="12.0086541689">
        <ele>25.4</ele>
        <time>2011-05-18T20:38:45Z</time>
        <extensions><gpxtpx:TrackPointExtension><gpxtpx:hr>137</gpxtpx:hr></gpxtpx:TrackPointExtension></extensions>
      </trkpt>
      <trkpt lat="57.699168071" lon="12.0083243411">
        <ele>25.4</ele>
        <time>2011-05-18T20:38:51Z</time>
        <extensions><gpxtpx:TrackPointExtension><gpxtpx:hr>138</gpxtpx:hr></gpxtpx:TrackPointExtension></extensions>
      </trkpt>
      <trkpt lat="57.6991521454" lon="12.0080090979">
        <ele>25.4</ele>
        <time>2011-05-18T20:38:56Z</time>
        <extensions><gpxtpx:TrackPointExtension><gpxtpx:hr>137</gpxtpx:hr></gpxtpx:TrackPointExtension></extensions>
      </trkpt>
      <trkpt lat="57.6991575098" lon="12.0076367739">
        <ele>26.2</ele>
        <time>2011-05-18T20:39:03Z</time>
        <extensions><gpxtpx:TrackPointExtension><gpxtpx:hr>139</gpxtpx:hr></gpxtpx:TrackPointExtension></extensions>
      </trkpt>
      <trkpt lat="57.6991499661" lon="12.0074150726">
        <ele>26.6</ele>
        <time>2011-05-18T20:39:07Z</time>
        <extensions><gpxtpx:TrackPointExtension><gpxtpx:hr>139</gpxtpx:hr></gpxtpx:TrackPointExtension></extensions>
      </trkpt>
      <trkpt lat="57.6991513911" lon="12.0070840714">
        <ele>27</ele>
        <time>2011-05-18T20:39:13Z</time>
        <extensions><gpxtpx:TrackPointExtension><gpxtpx:hr>138</gpxtpx:hr></gpxtpx:TrackPointExtension></extensions>
      </trkpt>
      <trkpt lat="57.6991689092" lon="12.0067821554">
        <ele>27.2</ele>
        <time>2011-05-18T20:39:19Z</time>
        <extensions><gpxtpx:TrackPointExtension><gpxtpx:hr>137</gpxtpx:hr></gpxtpx:TrackPointExtension></extensions>
      </trkpt>
      <trkpt lat="57.699176872" lon="12.0065397508">
        <ele>28</ele>
        <time>2011-05-18T20:39:23Z</time>
        <extensions><gpxtpx:TrackPointExtension><gpxtpx:hr>136</gpxtpx:hr></gpxtpx:TrackPointExtension></extensions>
      </trkpt>
      <trkpt lat="57.6992000061" lon="12.0062934906">
        <ele>28.6</ele>
        <time>2011-05-18T20:39:28Z</time>
        <extensions><gpxtpx:TrackPointExtension><gpxtpx:hr>137</gpxtpx:hr></gpxtpx:TrackPointExtension></extensions>
      </trkpt>
      <trkpt lat="57.6991957313" lon="12.0059624894">
        <ele>29</ele>
        <time>2011-05-18T20:39:34Z</time>
        <extensions><gpxtpx:TrackPointExtension><gpxtpx:hr>138</gpxtpx:hr></gpxtpx:TrackPointExtension></extensions>
      </trkpt>
      <trkpt lat="57.6992126627" lon="12.0056214298">
        <ele>29.2</ele>
        <time>2011-05-18T20:39:39Z</time>
        <extensions><gpxtpx:TrackPointExtension><gpxtpx:hr>136</gpxtpx:hr></gpxtpx:TrackPointExtension></extensions>
      </trkpt>
      <trkpt lat="57.6992209608" lon="12.0053013251">
        <ele>29.2</ele>
        <time>2011-05-18T20:39:44Z</time>
        <extensions><gpxtpx:TrackPointExtension><gpxtpx:hr>134</gpxtpx:hr></gpxtpx:TrackPointExtension></extensions>
      </trkpt>
      <trkpt lat="57.6992295104" lon="12.0049126564">
        <ele>29.4</ele>
        <time>2011-05-18T20:39:50Z</time>
        <extensions><gpxtpx:TrackPointExtension><gpxtpx:hr>132</gpxtpx:hr></gpxtpx:TrackPointExtension></extensions>
      </trkpt>
      <trkpt lat="57.6992404906" lon="12.0045532405">
        <ele>29.4</ele>
        <time>2011-05-18T20:39:56Z</time>
        <extensions><gpxtpx:TrackPointExtension><gpxtpx:hr>131</gpxtpx:hr></gpxtpx:TrackPointExtension></extensions>
      </trkpt>
      <trkpt lat="57.6992404906" lon="12.0045036197">
        <ele>29.4</ele>
        <time>2011-05-18T20:39:57Z</time>
        <extensions><gpxtpx:TrackPointExtension><gpxtpx:hr>131</gpxtpx:hr></gpxtpx:TrackPointExtension></extensions>
      </trkpt>
      <trkpt lat="57.6992475314" lon="12.0043287732">
        <ele>29.4</ele>
        <time>2011-05-18T20:40:00Z</time>
        <extensions><gpxtpx:TrackPointExtension><gpxtpx:hr>132</gpxtpx:hr></gpxtpx:TrackPointExtension></extensions>
      </trkpt>
      <trkpt lat="57.6992321926" lon="12.0039112708">
        <ele>29.4</ele>
        <time>2011-05-18T20:40:07Z</time>
        <extensions><gpxtpx:TrackPointExtension><gpxtpx:hr>133</gpxtpx:hr></gpxtpx:TrackPointExtension></extensions>
      </trkpt>
      <trkpt lat="57.6992071307" lon="12.0036376856">
        <ele>29.4</ele>
        <time>2011-05-18T20:40:12Z</time>
        <extensions><gpxtpx:TrackPointExtension><gpxtpx:hr>133</gpxtpx:hr></gpxtpx:TrackPointExtension></extensions>
      </trkpt>
      <trkpt lat="57.6991700827" lon="12.0033451573">
        <ele>29.4</ele>
        <time>2011-05-18T20:40:17Z</time>
        <extensions><gpxtpx:TrackPointExtension><gpxtpx:hr>132</gpxtpx:hr></gpxtpx:TrackPointExtension></extensions>
      </trkpt>
      <trkpt lat="57.6991182825" lon="12.0030111385">
        <ele>29.4</ele>
        <time>2011-05-18T20:40:23Z</time>
        <extensions><gpxtpx:TrackPointExtension><gpxtpx:hr>132</gpxtpx:hr></gpxtpx:TrackPointExtension></extensions>
      </trkpt>
      <trkpt lat="57.6990085635" lon="12.0027217115">
        <ele>29.4</ele>
        <time>2011-05-18T20:40:29Z</time>
        <extensions><gpxtpx:TrackPointExtension><gpxtpx:hr>134</gpxtpx:hr></gpxtpx:TrackPointExtension></extensions>
      </trkpt>
      <trkpt lat="57.6988799851" lon="12.0025346275">
        <ele>29.4</ele>
        <time>2011-05-18T20:40:34Z</time>
        <extensions><gpxtpx:TrackPointExtension><gpxtpx:hr>135</gpxtpx:hr></gpxtpx:TrackPointExtension></extensions>
      </trkpt>
      <trkpt lat="57.6987590343" lon="12.0024082285">
        <ele>29.4</ele>
        <time>2011-05-18T20:40:38Z</time>
        <extensions><gpxtpx:TrackPointExtension><gpxtpx:hr>136</gpxtpx:hr></gpxtpx:TrackPointExtension></extensions>
      </trkpt>
      <trkpt lat="57.6986172964" lon="12.0022072305">
        <ele>28.8</ele>
        <time>2011-05-18T20:40:44Z</time>
        <extensions><gpxtpx:TrackPointExtension><gpxtpx:hr>135</gpxtpx:hr></gpxtpx:TrackPointExtension></extensions>
      </trkpt>
      <trkpt lat="57.6985313819" lon="12.001956025">
        <ele>28.2</ele>
        <time>2011-05-18T20:40:49Z</time>
        <extensions><gpxtpx:TrackPointExtension><gpxtpx:hr>135</gpxtpx:hr></gpxtpx:TrackPointExtension></extensions>
      </trkpt>
      <trkpt lat="57.6984591299" lon="12.0016703698">
        <ele>27.8</ele>
        <time>2011-05-18T20:40:54Z</time>
        <extensions><gpxtpx:TrackPointExtension><gpxtpx:hr>134</gpxtpx:hr></gpxtpx:TrackPointExtension></extensions>
      </trkpt>
      <trkpt lat="57.6984126104" lon="12.0014539492">
        <ele>27.8</ele>
        <time>2011-05-18T20:40:58Z</time>
        <extensions><gpxtpx:TrackPointExtension><gpxtpx:hr>133</gpxtpx:hr></gpxtpx:TrackPointExtension></extensions>
      </trkpt>
      <trkpt lat="57.6983618161" lon="12.0012168252">
        <ele>27.2</ele>
        <time>2011-05-18T20:41:02Z</time>
        <extensions><gpxtpx:TrackPointExtension><gpxtpx:hr>133</gpxtpx:hr></gpxtpx:TrackPointExtension></extensions>
      </trkpt>
      <trkpt lat="57.6982817689" lon="12.0008755142">
        <ele>26.2</ele>
        <time>2011-05-18T20:41:08Z</time>
        <extensions><gpxtpx:TrackPointExtension><gpxtpx:hr>132</gpxtpx:hr></gpxtpx:TrackPointExtension></extensions>
      </trkpt>
      <trkpt lat="57.6982322319" lon="12.0006263204">
        <ele>25.4</ele>
        <time>2011-05-18T20:41:12Z</time>
        <extensions><gpxtpx:TrackPointExtension><gpxtpx:hr>131</gpxtpx:hr></gpxtpx:TrackPointExtension></extensions>
      </trkpt>
      <trkpt lat="57.6982197429" lon="12.0005684014">
        <ele>25.2</ele>
        <time>2011-05-18T20:41:13Z</time>
        <extensions><gpxtpx:TrackPointExtension><gpxtpx:hr>131</gpxtpx:hr></gpxtpx:TrackPointExtension></extensions>
      </trkpt>
      <trkpt lat="57.6981521009" lon="12.0002146852">
        <ele>23.8</ele>
        <time>2011-05-18T20:41:19Z</time>
        <extensions><gpxtpx:TrackPointExtension><gpxtpx:hr>128</gpxtpx:hr></gpxtpx:TrackPointExtension></extensions>
      </trkpt>
      <trkpt lat="57.6981077607" lon="11.9999897151">
        <ele>23</ele>
        <time>2011-05-18T20:41:23Z</time>
        <extensions><gpxtpx:TrackPointExtension><gpxtpx:hr>130</gpxtpx:hr></gpxtpx:TrackPointExtension></extensions>
      </trkpt>
      <trkpt lat="57.6980218462" lon="11.999706323">
        <ele>22.2</ele>
        <time>2011-05-18T20:41:28Z</time>
        <extensions><gpxtpx:TrackPointExtension><gpxtpx:hr>131</gpxtpx:hr></gpxtpx:TrackPointExtension></extensions>
      </trkpt>
      <trkpt lat="57.6979354288" lon="11.9993709632">
        <ele>21</ele>
        <time>2011-05-18T20:41:34Z</time>
        <extensions><gpxtpx:TrackPointExtension><gpxtpx:hr>133</gpxtpx:hr></gpxtpx:TrackPointExtension></extensions>
      </trkpt>
      <trkpt lat="57.6978506878" lon="11.9991309056">
        <ele>20.2</ele>
        <time>2011-05-18T20:41:39Z</time>
        <extensions><gpxtpx:TrackPointExtension><gpxtpx:hr>133</gpxtpx:hr></gpxtpx:TrackPointExtension></extensions>
      </trkpt>
      <trkpt lat="57.6977831297" lon="11.9989506947">
        <ele>19.8</ele>
        <time>2011-05-18T20:41:43Z</time>
        <extensions><gpxtpx:TrackPointExtension><gpxtpx:hr>135</gpxtpx:hr></gpxtpx:TrackPointExtension></extensions>
      </trkpt>
      <trkpt lat="57.6977169965" lon="11.9986797079">
        <ele>19</ele>
        <time>2011-05-18T20:41:48Z</time>
        <extensions><gpxtpx:TrackPointExtension><gpxtpx:hr>135</gpxtpx:hr></gpxtpx:TrackPointExtension></extensions>
      </trkpt>
      <trkpt lat="57.6976585747" lon="11.9984864213">
        <ele>18.4</ele>
        <time>2011-05-18T20:41:52Z</time>
        <extensions><gpxtpx:TrackPointExtension><gpxtpx:hr>134</gpxtpx:hr></gpxtpx:TrackPointExtension></extensions>
      </trkpt>
      <trkpt lat="57.6976366979" lon="11.9981615388">
        <ele>17.8</ele>
        <time>2011-05-18T20:41:57Z</time>
        <extensions><gpxtpx:TrackPointExtension><gpxtpx:hr>135</gpxtpx:hr></gpxtpx:TrackPointExtension></extensions>
      </trkpt>
      <trkpt lat="57.6976058525" lon="11.9978745426">
        <ele>17.6</ele>
        <time>2011-05-18T20:42:02Z</time>
        <extensions><gpxtpx:TrackPointExtension><gpxtpx:hr>135</gpxtpx:hr></gpxtpx:TrackPointExtension></extensions>
      </trkpt>
      <trkpt lat="57.6975687207" lon="11.9975089241">
        <ele>17</ele>
        <time>2011-05-18T20:42:09Z</time>
        <extensions><gpxtpx:TrackPointExtension><gpxtpx:hr>136</gpxtpx:hr></gpxtpx:TrackPointExtension></extensions>
      </trkpt>
      <trkpt lat="57.697527817" lon="11.9972065052">
        <ele>16.2</ele>
        <time>2011-05-18T20:42:14Z</time>
        <extensions><gpxtpx:TrackPointExtension><gpxtpx:hr>136</gpxtpx:hr></gpxtpx:TrackPointExtension></extensions>
      </trkpt>
      <trkpt lat="57.6974793696" lon="11.996845832">
        <ele>15.6</ele>
        <time>2011-05-18T20:42:20Z</time>
        <extensions><gpxtpx:TrackPointExtension><gpxtpx:hr>136</gpxtpx:hr></gpxtpx:TrackPointExtension></extensions>
      </trkpt>
      <trkpt lat="57.6974474346" lon="11.9964661319">
        <ele>15.4</ele>
        <time>2011-05-18T20:42:26Z</time>
        <extensions><gpxtpx:TrackPointExtension><gpxtpx:hr>135</gpxtpx:hr></gpxtpx:TrackPointExtension></extensions>
      </trkpt>
      <trkpt lat="57.6974173436" lon="11.9960915448">
        <ele>14.6</ele>
        <time>2011-05-18T20:42:32Z</time>
        <extensions><gpxtpx:TrackPointExtension><gpxtpx:hr>135</gpxtpx:hr></gpxtpx:TrackPointExtension></extensions>
      </trkpt>
      <trkpt lat="57.6974184332" lon="11.9958195522">
        <ele>13.8</ele>
        <time>2011-05-18T20:42:37Z</time>
        <extensions><gpxtpx:TrackPointExtension><gpxtpx:hr>134</gpxtpx:hr></gpxtpx:TrackPointExtension></extensions>
      </trkpt>
      <trkpt lat="57.6974318443" lon="11.9951602319">
        <ele>12.2</ele>
        <time>2011-05-18T20:42:49Z</time>
        <extensions><gpxtpx:TrackPointExtension><gpxtpx:hr>135</gpxtpx:hr></gpxtpx:TrackPointExtension></extensions>
      </trkpt>
      <trkpt lat="57.6973959697" lon="11.9949979583">
        <ele>11.8</ele>
        <time>2011-05-18T20:42:52Z</time>
        <extensions><gpxtpx:TrackPointExtension><gpxtpx:hr>136</gpxtpx:hr></gpxtpx:TrackPointExtension></extensions>
      </trkpt>
      <trkpt lat="57.6973526353" lon="11.9946284842">
        <ele>11.4</ele>
        <time>2011-05-18T20:42:57Z</time>
        <extensions><gpxtpx:TrackPointExtension><gpxtpx:hr>137</gpxtpx:hr></gpxtpx:TrackPointExtension></extensions>
      </trkpt>
      <trkpt lat="57.6973490311" lon="11.9945867423">
        <ele>11.4</ele>
        <time>2011-05-18T20:42:58Z</time>
        <extensions><gpxtpx:TrackPointExtension><gpxtpx:hr>137</gpxtpx:hr></gpxtpx:TrackPointExtension></extensions>
      </trkpt>
      <trkpt lat="57.6973127375" lon="11.9942816412">
        <ele>11.2</ele>
        <time>2011-05-18T20:43:03Z</time>
        <extensions><gpxtpx:TrackPointExtension><gpxtpx:hr>138</gpxtpx:hr></gpxtpx:TrackPointExtension></extensions>
      </trkpt>
      <trkpt lat="57.6972912798" lon="11.9939731034">
        <ele>11</ele>
        <time>2011-05-18T20:43:08Z</time>
        <extensions><gpxtpx:TrackPointExtension><gpxtpx:hr>137</gpxtpx:hr></gpxtpx:TrackPointExtension></extensions>
      </trkpt>
      <trkpt lat="57.6972642063" lon="11.993669511">
        <ele>11</ele>
        <time>2011-05-18T20:43:13Z</time>
        <extensions><gpxtpx:TrackPointExtension><gpxtpx:hr>136</gpxtpx:hr></gpxtpx:TrackPointExtension></extensions>
      </trkpt>
      <trkpt lat="57.6972988235" lon="11.9933668406">
        <ele>11</ele>
        <time>2011-05-18T20:43:18Z</time>
        <extensions><gpxtpx:TrackPointExtension><gpxtpx:hr>136</gpxtpx:hr></gpxtpx:TrackPointExtension></extensions>
      </trkpt>
      <trkpt lat="57.6972998293" lon="11.9930718815">
        <ele>11</ele>
        <time>2011-05-18T20:43:23Z</time>
        <extensions><gpxtpx:TrackPointExtension><gpxtpx:hr>136</gpxtpx:hr></gpxtpx:TrackPointExtension></extensions>
      </trkpt>
      <trkpt lat="57.6972544833" lon="11.9927314926">
        <ele>10.8</ele>
        <time>2011-05-18T20:43:29Z</time>
        <extensions><gpxtpx:TrackPointExtension><gpxtpx:hr>138</gpxtpx:hr></gpxtpx:TrackPointExtension></extensions>
      </trkpt>
      <trkpt lat="57.6971857517" lon="11.9923910198">
        <ele>10.8</ele>
        <time>2011-05-18T20:43:35Z</time>
        <extensions><gpxtpx:TrackPointExtension><gpxtpx:hr>137</gpxtpx:hr></gpxtpx:TrackPointExtension></extensions>
      </trkpt>
      <trkpt lat="57.6971550739" lon="11.9921080468">
        <ele>10.8</ele>
        <time>2011-05-18T20:43:40Z</time>
        <extensions><gpxtpx:TrackPointExtension><gpxtpx:hr>138</gpxtpx:hr></gpxtpx:TrackPointExtension></extensions>
      </trkpt>
      <trkpt lat="57.6971195347" lon="11.9918658938">
        <ele>10.8</ele>
        <time>2011-05-18T20:43:44Z</time>
        <extensions><gpxtpx:TrackPointExtension><gpxtpx:hr>139</gpxtpx:hr></gpxtpx:TrackPointExtension></extensions>
      </trkpt>
      <trkpt lat="57.6970692433" lon="11.9916228187">
        <ele>10.8</ele>
        <time>2011-05-18T20:43:49Z</time>
        <extensions><gpxtpx:TrackPointExtension><gpxtpx:hr>141</gpxtpx:hr></gpxtpx:TrackPointExtension></extensions>
      </trkpt>
      <trkpt lat="57.6970341231" lon="11.9913807494">
        <ele>10.8</ele>
        <time>2011-05-18T20:43:54Z</time>
        <extensions><gpxtpx:TrackPointExtension><gpxtpx:hr>141</gpxtpx:hr></gpxtpx:TrackPointExtension></extensions>
      </trkpt>
      <trkpt lat="57.696980479" lon="11.9910517598">
        <ele>10.8</ele>
        <time>2011-05-18T20:44:00Z</time>
        <extensions><gpxtpx:TrackPointExtension><gpxtpx:hr>141</gpxtpx:hr></gpxtpx:TrackPointExtension></extensions>
      </trkpt>
      <trkpt lat="57.6969444368" lon="11.9907682839">
        <ele>10.8</ele>
        <time>2011-05-18T20:44:05Z</time>
        <extensions><gpxtpx:TrackPointExtension><gpxtpx:hr>141</gpxtpx:hr></gpxtpx:TrackPointExtension></extensions>
      </trkpt>
      <trkpt lat="57.6969292655" lon="11.9905170784">
        <ele>10.8</ele>
        <time>2011-05-18T20:44:10Z</time>
        <extensions><gpxtpx:TrackPointExtension><gpxtpx:hr>140</gpxtpx:hr></gpxtpx:TrackPointExtension></extensions>
      </trkpt>
      <trkpt lat="57.696910071" lon="11.9902646156">
        <ele>10.8</ele>
        <time>2011-05-18T20:44:15Z</time>
        <extensions><gpxtpx:TrackPointExtension><gpxtpx:hr>140</gpxtpx:hr></gpxtpx:TrackPointExtension></extensions>
      </trkpt>
      <trkpt lat="57.6969072211" lon="11.990168559">
        <ele>10.8</ele>
        <time>2011-05-18T20:44:17Z</time>
        <extensions><gpxtpx:TrackPointExtension><gpxtpx:hr>140</gpxtpx:hr></gpxtpx:TrackPointExtension></extensions>
      </trkpt>
      <trkpt lat="57.696874867" lon="11.9899088877">
        <ele>10.8</ele>
        <time>2011-05-18T20:44:23Z</time>
        <extensions><gpxtpx:TrackPointExtension><gpxtpx:hr>141</gpxtpx:hr></gpxtpx:TrackPointExtension></extensions>
      </trkpt>
      <trkpt lat="57.696839663" lon="11.9896485459">
        <ele>10.8</ele>
        <time>2011-05-18T20:44:28Z</time>
        <extensions><gpxtpx:TrackPointExtension><gpxtpx:hr>142</gpxtpx:hr></gpxtpx:TrackPointExtension></extensions>
      </trkpt>
      <trkpt lat="57.6967728593" lon="11.9893038822">
        <ele>10.8</ele>
        <time>2011-05-18T20:44:35Z</time>
        <extensions><gpxtpx:TrackPointExtension><gpxtpx:hr>143</gpxtpx:hr></gpxtpx:TrackPointExtension></extensions>
      </trkpt>
      <trkpt lat="57.6967223164" lon="11.9890051513">
        <ele>10.8</ele>
        <time>2011-05-18T20:44:40Z</time>
        <extensions><gpxtpx:TrackPointExtension><gpxtpx:hr>143</gpxtpx:hr></gpxtpx:TrackPointExtension></extensions>
      </trkpt>
      <trkpt lat="57.6966819157" lon="11.988698709">
        <ele>10.8</ele>
        <time>2011-05-18T20:44:46Z</time>
        <extensions><gpxtpx:TrackPointExtension><gpxtpx:hr>143</gpxtpx:hr></gpxtpx:TrackPointExtension></extensions>
      </trkpt>
      <trkpt lat="57.69668267" lon="11.9883755868">
        <ele>10.8</ele>
        <time>2011-05-18T20:44:52Z</time>
        <extensions><gpxtpx:TrackPointExtension><gpxtpx:hr>142</gpxtpx:hr></gpxtpx:TrackPointExtension></extensions>
      </trkpt>
      <trkpt lat="57.6966618829" lon="11.9880810468">
        <ele>10.8</ele>
        <time>2011-05-18T20:44:57Z</time>
        <extensions><gpxtpx:TrackPointExtension><gpxtpx:hr>140</gpxtpx:hr></gpxtpx:TrackPointExtension></extensions>
      </trkpt>
      <trkpt lat="57.6966530819" lon="11.98785264">
        <ele>10.8</ele>
        <time>2011-05-18T20:45:01Z</time>
        <extensions><gpxtpx:TrackPointExtension><gpxtpx:hr>139</gpxtpx:hr></gpxtpx:TrackPointExtension></extensions>
      </trkpt>
      <trkpt lat="57.6967958257" lon="11.9875953157">
        <ele>10.8</ele>
        <time>2011-05-18T20:45:07Z</time>
        <extensions><gpxtpx:TrackPointExtension><gpxtpx:hr>137</gpxtpx:hr></gpxtpx:TrackPointExtension></extensions>
      </trkpt>
      <trkpt lat="57.6969408326" lon="11.9875388217">
        <ele>10.8</ele>
        <time>2011-05-18T20:45:12Z</time>
        <extensions><gpxtpx:TrackPointExtension><gpxtpx:hr>136</gpxtpx:hr></gpxtpx:TrackPointExtension></extensions>
      </trkpt>
      <trkpt lat="57.6970569219" lon="11.9875311942">
        <ele>10.8</ele>
        <time>2011-05-18T20:45:16Z</time>
        <extensions><gpxtpx:TrackPointExtension><gpxtpx:hr>136</gpxtpx:hr></gpxtpx:TrackPointExtension></extensions>
      </trkpt>
      <trkpt lat="57.6971974025" lon="11.9873286036">
        <ele>11</ele>
        <time>2011-05-18T20:45:21Z</time>
        <extensions><gpxtpx:TrackPointExtension><gpxtpx:hr>137</gpxtpx:hr></gpxtpx:TrackPointExtension></extensions>
      </trkpt>
      <trkpt lat="57.6973631965" lon="11.9870800803">
        <ele>12</ele>
        <time>2011-05-18T20:45:28Z</time>
        <extensions><gpxtpx:TrackPointExtension><gpxtpx:hr>137</gpxtpx:hr></gpxtpx:TrackPointExtension></extensions>
      </trkpt>
      <trkpt lat="57.6975325947" lon="11.9869402702">
        <ele>13.4</ele>
        <time>2011-05-18T20:45:34Z</time>
        <extensions><gpxtpx:TrackPointExtension><gpxtpx:hr>136</gpxtpx:hr></gpxtpx:TrackPointExtension></extensions>
      </trkpt>
      <trkpt lat="57.6977483448" lon="11.9868651684">
        <ele>14.8</ele>
        <time>2011-05-18T20:45:41Z</time>
        <extensions><gpxtpx:TrackPointExtension><gpxtpx:hr>136</gpxtpx:hr></gpxtpx:TrackPointExtension></extensions>
      </trkpt>
      <trkpt lat="57.6979357641" lon="11.9867703691">
        <ele>16.8</ele>
        <time>2011-05-18T20:45:47Z</time>
        <extensions><gpxtpx:TrackPointExtension><gpxtpx:hr>134</gpxtpx:hr></gpxtpx:TrackPointExtension></extensions>
      </trkpt>
      <trkpt lat="57.6980681981" lon="11.9866236859">
        <ele>18.6</ele>
        <time>2011-05-18T20:45:52Z</time>
        <extensions><gpxtpx:TrackPointExtension><gpxtpx:hr>134</gpxtpx:hr></gpxtpx:TrackPointExtension></extensions>
      </trkpt>
      <trkpt lat="57.6981870535" lon="11.9864876476">
        <ele>20.6</ele>
        <time>2011-05-18T20:45:56Z</time>
        <extensions><gpxtpx:TrackPointExtension><gpxtpx:hr>134</gpxtpx:hr></gpxtpx:TrackPointExtension></extensions>
      </trkpt>
      <trkpt lat="57.6983010473" lon="11.9863708878">
        <ele>22.8</ele>
        <time>2011-05-18T20:46:00Z</time>
        <extensions><gpxtpx:TrackPointExtension><gpxtpx:hr>135</gpxtpx:hr></gpxtpx:TrackPointExtension></extensions>
      </trkpt>
      <trkpt lat="57.6983619837" lon="11.9863172436">
        <ele>24.2</ele>
        <time>2011-05-18T20:46:02Z</time>
        <extensions><gpxtpx:TrackPointExtension><gpxtpx:hr>135</gpxtpx:hr></gpxtpx:TrackPointExtension></extensions>
      </trkpt>
      <trkpt lat="57.6985514985" lon="11.9861998132">
        <ele>28.2</ele>
        <time>2011-05-18T20:46:08Z</time>
        <extensions><gpxtpx:TrackPointExtension><gpxtpx:hr>136</gpxtpx:hr></gpxtpx:TrackPointExtension></extensions>
      </trkpt>
      <trkpt lat="57.6987491437" lon="11.9862299042">
        <ele>32.6</ele>
        <time>2011-05-18T20:46:14Z</time>
        <extensions><gpxtpx:TrackPointExtension><gpxtpx:hr>136</gpxtpx:hr></gpxtpx:TrackPointExtension></extensions>
      </trkpt>
      <trkpt lat="57.6989320367" lon="11.9861736616">
        <ele>36.8</ele>
        <time>2011-05-18T20:46:20Z</time>
        <extensions><gpxtpx:TrackPointExtension><gpxtpx:hr>136</gpxtpx:hr></gpxtpx:TrackPointExtension></extensions>
      </trkpt>
      <trkpt lat="57.6990881077" lon="11.9860310017">
        <ele>41</ele>
        <time>2011-05-18T20:46:26Z</time>
        <extensions><gpxtpx:TrackPointExtension><gpxtpx:hr>136</gpxtpx:hr></gpxtpx:TrackPointExtension></extensions>
      </trkpt>
      <trkpt lat="57.69922599" lon="11.9859124816">
        <ele>44</ele>
        <time>2011-05-18T20:46:31Z</time>
        <extensions><gpxtpx:TrackPointExtension><gpxtpx:hr>135</gpxtpx:hr></gpxtpx:TrackPointExtension></extensions>
      </trkpt>
      <trkpt lat="57.6994077096" lon="11.9859101347">
        <ele>47</ele>
        <time>2011-05-18T20:46:36Z</time>
        <extensions><gpxtpx:TrackPointExtension><gpxtpx:hr>135</gpxtpx:hr></gpxtpx:TrackPointExtension></extensions>
      </trkpt>
      <trkpt lat="57.6996201907" lon="11.9859774414">
        <ele>49</ele>
        <time>2011-05-18T20:46:42Z</time>
        <extensions><gpxtpx:TrackPointExtension><gpxtpx:hr>135</gpxtpx:hr></gpxtpx:TrackPointExtension></extensions>
      </trkpt>
      <trkpt lat="57.6998651098" lon="11.9860802873">
        <ele>50.2</ele>
        <time>2011-05-18T20:46:49Z</time>
        <extensions><gpxtpx:TrackPointExtension><gpxtpx:hr>135</gpxtpx:hr></gpxtpx:TrackPointExtension></extensions>
      </trkpt>
      <trkpt lat="57.7000392857" lon="11.9860450833">
        <ele>50</ele>
        <time>2011-05-18T20:46:55Z</time>
        <extensions><gpxtpx:TrackPointExtension><gpxtpx:hr>135</gpxtpx:hr></gpxtpx:TrackPointExtension></extensions>
      </trkpt>
      <trkpt lat="57.7001794311" lon="11.9859243839">
        <ele>49.4</ele>
        <time>2011-05-18T20:47:00Z</time>
        <extensions><gpxtpx:TrackPointExtension><gpxtpx:hr>136</gpxtpx:hr></gpxtpx:TrackPointExtension></extensions>
      </trkpt>
      <trkpt lat="57.7003515953" lon="11.9858295846">
        <ele>48.2</ele>
        <time>2011-05-18T20:47:06Z</time>
        <extensions><gpxtpx:TrackPointExtension><gpxtpx:hr>138</gpxtpx:hr></gpxtpx:TrackPointExtension></extensions>
      </trkpt>
      <trkpt lat="57.7004981109" lon="11.9857151717">
        <ele>47.8</ele>
        <time>2011-05-18T20:47:11Z</time>
        <extensions><gpxtpx:TrackPointExtension><gpxtpx:hr>137</gpxtpx:hr></gpxtpx:TrackPointExtension></extensions>
      </trkpt>
      <trkpt lat="57.7006909784" lon="11.985646524">
        <ele>47.4</ele>
        <time>2011-05-18T20:47:17Z</time>
        <extensions><gpxtpx:TrackPointExtension><gpxtpx:hr>134</gpxtpx:hr></gpxtpx:TrackPointExtension></extensions>
      </trkpt>
      <trkpt lat="57.7008635618" lon="11.9855018524">
        <ele>48.2</ele>
        <time>2011-05-18T20:47:23Z</time>
        <extensions><gpxtpx:TrackPointExtension><gpxtpx:hr>134</gpxtpx:hr></gpxtpx:TrackPointExtension></extensions>
      </trkpt>
      <trkpt lat="57.7010384082" lon="11.9854332046">
        <ele>50</ele>
        <time>2011-05-18T20:47:29Z</time>
        <extensions><gpxtpx:TrackPointExtension><gpxtpx:hr>133</gpxtpx:hr></gpxtpx:TrackPointExtension></extensions>
      </trkpt>
      <trkpt lat="57.7011992569" lon="11.9854214699">
        <ele>51.6</ele>
        <time>2011-05-18T20:47:34Z</time>
        <extensions><gpxtpx:TrackPointExtension><gpxtpx:hr>130</gpxtpx:hr></gpxtpx:TrackPointExtension></extensions>
      </trkpt>
      <trkpt lat="57.7013938008" lon="11.9855016847">
        <ele>52.8</ele>
        <time>2011-05-18T20:47:40Z</time>
        <extensions><gpxtpx:TrackPointExtension><gpxtpx:hr>127</gpxtpx:hr></gpxtpx:TrackPointExtension></extensions>
      </trkpt>
      <trkpt lat="57.7015818906" lon="11.9854627927">
        <ele>53.4</ele>
        <time>2011-05-18T20:47:46Z</time>
        <extensions><gpxtpx:TrackPointExtension><gpxtpx:hr>132</gpxtpx:hr></gpxtpx:TrackPointExtension></extensions>
      </trkpt>
      <trkpt lat="57.7017305017" lon="11.9854512257">
        <ele>53.6</ele>
        <time>2011-05-18T20:47:51Z</time>
        <extensions><gpxtpx:TrackPointExtension><gpxtpx:hr>137</gpxtpx:hr></gpxtpx:TrackPointExtension></extensions>
      </trkpt>
      <trkpt lat="57.701852626" lon="11.9854876869">
        <ele>53.8</ele>
        <time>2011-05-18T20:47:55Z</time>
        <extensions><gpxtpx:TrackPointExtension><gpxtpx:hr>140</gpxtpx:hr></gpxtpx:TrackPointExtension></extensions>
      </trkpt>
      <trkpt lat="57.702045242" lon="11.985510821">
        <ele>53.2</ele>
        <time>2011-05-18T20:48:01Z</time>
        <extensions><gpxtpx:TrackPointExtension><gpxtpx:hr>142</gpxtpx:hr></gpxtpx:TrackPointExtension></extensions>
      </trkpt>
      <trkpt lat="57.702231404" lon="11.985527501">
        <ele>51.8</ele>
        <time>2011-05-18T20:48:07Z</time>
        <extensions><gpxtpx:TrackPointExtension><gpxtpx:hr>142</gpxtpx:hr></gpxtpx:TrackPointExtension></extensions>
      </trkpt>
      <trkpt lat="57.7024119502" lon="11.9855216336">
        <ele>49.8</ele>
        <time>2011-05-18T20:48:13Z</time>
        <extensions><gpxtpx:TrackPointExtension><gpxtpx:hr>142</gpxtpx:hr></gpxtpx:TrackPointExtension></extensions>
      </trkpt>
      <trkpt lat="57.7026065779" lon="11.9854802271">
        <ele>47.6</ele>
        <time>2011-05-18T20:48:19Z</time>
        <extensions><gpxtpx:TrackPointExtension><gpxtpx:hr>140</gpxtpx:hr></gpxtpx:TrackPointExtension></extensions>
      </trkpt>
      <trkpt lat="57.7027902253" lon="11.9854390719">
        <ele>45.4</ele>
        <time>2011-05-18T20:48:25Z</time>
        <extensions><gpxtpx:TrackPointExtension><gpxtpx:hr>140</gpxtpx:hr></gpxtpx:TrackPointExtension></extensions>
      </trkpt>
      <trkpt lat="57.7029205638" lon="11.9854421732">
        <ele>43.8</ele>
        <time>2011-05-18T20:48:29Z</time>
        <extensions><gpxtpx:TrackPointExtension><gpxtpx:hr>140</gpxtpx:hr></gpxtpx:TrackPointExtension></extensions>
      </trkpt>
      <trkpt lat="57.703070516" lon="11.9854087295">
        <ele>42.2</ele>
        <time>2011-05-18T20:48:34Z</time>
        <extensions><gpxtpx:TrackPointExtension><gpxtpx:hr>139</gpxtpx:hr></gpxtpx:TrackPointExtension></extensions>
      </trkpt>
      <trkpt lat="57.7032241563" lon="11.9853886967">
        <ele>40.6</ele>
        <time>2011-05-18T20:48:39Z</time>
        <extensions><gpxtpx:TrackPointExtension><gpxtpx:hr>139</gpxtpx:hr></gpxtpx:TrackPointExtension></extensions>
      </trkpt>
      <trkpt lat="57.7034195383" lon="11.9853018602">
        <ele>38.6</ele>
        <time>2011-05-18T20:48:45Z</time>
        <extensions><gpxtpx:TrackPointExtension><gpxtpx:hr>138</gpxtpx:hr></gpxtpx:TrackPointExtension></extensions>
      </trkpt>
      <trkpt lat="57.7035886013" lon="11.9851831725">
        <ele>37.4</ele>
        <time>2011-05-18T20:48:51Z</time>
        <extensions><gpxtpx:TrackPointExtension><gpxtpx:hr>138</gpxtpx:hr></gpxtpx:TrackPointExtension></extensions>
      </trkpt>
      <trkpt lat="57.7037732545" lon="11.9850524149">
        <ele>36.8</ele>
        <time>2011-05-18T20:48:57Z</time>
        <extensions><gpxtpx:TrackPointExtension><gpxtpx:hr>137</gpxtpx:hr></gpxtpx:TrackPointExtension></extensions>
      </trkpt>
      <trkpt lat="57.7039170879" lon="11.9849987707">
        <ele>36.6</ele>
        <time>2011-05-18T20:49:02Z</time>
        <extensions><gpxtpx:TrackPointExtension><gpxtpx:hr>136</gpxtpx:hr></gpxtpx:TrackPointExtension></extensions>
      </trkpt>
      <trkpt lat="57.70405321" lon="11.9850008662">
        <ele>36.4</ele>
        <time>2011-05-18T20:49:06Z</time>
        <extensions><gpxtpx:TrackPointExtension><gpxtpx:hr>136</gpxtpx:hr></gpxtpx:TrackPointExtension></extensions>
      </trkpt>
      <trkpt lat="57.7041600792" lon="11.9849568612">
        <ele>36.4</ele>
        <time>2011-05-18T20:49:10Z</time>
        <extensions><gpxtpx:TrackPointExtension><gpxtpx:hr>135</gpxtpx:hr></gpxtpx:TrackPointExtension></extensions>
      </trkpt>
      <trkpt lat="57.7042003962" lon="11.9848085016">
        <ele>36.2</ele>
        <time>2011-05-18T20:49:14Z</time>
        <extensions><gpxtpx:TrackPointExtension><gpxtpx:hr>135</gpxtpx:hr></gpxtpx:TrackPointExtension></extensions>
      </trkpt>
      <trkpt lat="57.7041734903" lon="11.9845512611">
        <ele>36.2</ele>
        <time>2011-05-18T20:49:20Z</time>
        <extensions><gpxtpx:TrackPointExtension><gpxtpx:hr>134</gpxtpx:hr></gpxtpx:TrackPointExtension></extensions>
      </trkpt>
      <trkpt lat="57.704174999" lon="11.9845078428">
        <ele>36.2</ele>
        <time>2011-05-18T20:49:21Z</time>
        <extensions><gpxtpx:TrackPointExtension><gpxtpx:hr>134</gpxtpx:hr></gpxtpx:TrackPointExtension></extensions>
      </trkpt>
      <trkpt lat="57.7042269668" lon="11.9843153106">
        <ele>36.2</ele>
        <time>2011-05-18T20:49:26Z</time>
        <extensions><gpxtpx:TrackPointExtension><gpxtpx:hr>134</gpxtpx:hr></gpxtpx:TrackPointExtension></extensions>
      </trkpt>
      <trkpt lat="57.7042545432" lon="11.984074331">
        <ele>36.2</ele>
        <time>2011-05-18T20:49:32Z</time>
        <extensions><gpxtpx:TrackPointExtension><gpxtpx:hr>133</gpxtpx:hr></gpxtpx:TrackPointExtension></extensions>
      </trkpt>
      <trkpt lat="57.7042082751" lon="11.9837662961">
        <ele>36.2</ele>
        <time>2011-05-18T20:49:38Z</time>
        <extensions><gpxtpx:TrackPointExtension><gpxtpx:hr>134</gpxtpx:hr></gpxtpx:TrackPointExtension></extensions>
      </trkpt>
      <trkpt lat="57.7041258811" lon="11.9834595186">
        <ele>35.8</ele>
        <time>2011-05-18T20:49:43Z</time>
        <extensions><gpxtpx:TrackPointExtension><gpxtpx:hr>135</gpxtpx:hr></gpxtpx:TrackPointExtension></extensions>
      </trkpt>
      <trkpt lat="57.7040445766" lon="11.9831705107">
        <ele>34.8</ele>
        <time>2011-05-18T20:49:48Z</time>
        <extensions><gpxtpx:TrackPointExtension><gpxtpx:hr>135</gpxtpx:hr></gpxtpx:TrackPointExtension></extensions>
      </trkpt>
      <trkpt lat="57.7039476819" lon="11.9828475561">
        <ele>33.2</ele>
        <time>2011-05-18T20:49:54Z</time>
        <extensions><gpxtpx:TrackPointExtension><gpxtpx:hr>134</gpxtpx:hr></gpxtpx:TrackPointExtension></extensions>
      </trkpt>
      <trkpt lat="57.7038882542" lon="11.9826401041">
        <ele>32</ele>
        <time>2011-05-18T20:49:58Z</time>
        <extensions><gpxtpx:TrackPointExtension><gpxtpx:hr>134</gpxtpx:hr></gpxtpx:TrackPointExtension></extensions>
      </trkpt>
      <trkpt lat="57.7037694827" lon="11.9823642557">
        <ele>29.6</ele>
        <time>2011-05-18T20:50:04Z</time>
        <extensions><gpxtpx:TrackPointExtension><gpxtpx:hr>135</gpxtpx:hr></gpxtpx:TrackPointExtension></extensions>
      </trkpt>
      <trkpt lat="57.7036706601" lon="11.9821422192">
        <ele>27.6</ele>
        <time>2011-05-18T20:50:09Z</time>
        <extensions><gpxtpx:TrackPointExtension><gpxtpx:hr>136</gpxtpx:hr></gpxtpx:TrackPointExtension></extensions>
      </trkpt>
      <trkpt lat="57.7035883498" lon="11.9819687977">
        <ele>26.2</ele>
        <time>2011-05-18T20:50:13Z</time>
        <extensions><gpxtpx:TrackPointExtension><gpxtpx:hr>136</gpxtpx:hr></gpxtpx:TrackPointExtension></extensions>
      </trkpt>
      <trkpt lat="57.7034782116" lon="11.9817042649">
        <ele>23.6</ele>
        <time>2011-05-18T20:50:19Z</time>
        <extensions><gpxtpx:TrackPointExtension><gpxtpx:hr>134</gpxtpx:hr></gpxtpx:TrackPointExtension></extensions>
      </trkpt>
      <trkpt lat="57.7034563349" lon="11.9816695639">
        <ele>23.2</ele>
        <time>2011-05-18T20:50:20Z</time>
        <extensions><gpxtpx:TrackPointExtension><gpxtpx:hr>134</gpxtpx:hr></gpxtpx:TrackPointExtension></extensions>
      </trkpt>
      <trkpt lat="57.7033928839" lon="11.981550038">
        <ele>22</ele>
        <time>2011-05-18T20:50:23Z</time>
        <extensions><gpxtpx:TrackPointExtension><gpxtpx:hr>134</gpxtpx:hr></gpxtpx:TrackPointExtension></extensions>
      </trkpt>
      <trkpt lat="57.7033083105" lon="11.9812679032">
        <ele>19.8</ele>
        <time>2011-05-18T20:50:29Z</time>
        <extensions><gpxtpx:TrackPointExtension><gpxtpx:hr>135</gpxtpx:hr></gpxtpx:TrackPointExtension></extensions>
      </trkpt>
      <trkpt lat="57.7031961607" lon="11.9809682503">
        <ele>17.4</ele>
        <time>2011-05-18T20:50:35Z</time>
        <extensions><gpxtpx:TrackPointExtension><gpxtpx:hr>137</gpxtpx:hr></gpxtpx:TrackPointExtension></extensions>
      </trkpt>
      <trkpt lat="57.7030867769" lon="11.9806685974">
        <ele>15.4</ele>
        <time>2011-05-18T20:50:41Z</time>
        <extensions><gpxtpx:TrackPointExtension><gpxtpx:hr>138</gpxtpx:hr></gpxtpx:TrackPointExtension></extensions>
      </trkpt>
      <trkpt lat="57.7029856912" lon="11.9803505043">
        <ele>14</ele>
        <time>2011-05-18T20:50:47Z</time>
        <extensions><gpxtpx:TrackPointExtension><gpxtpx:hr>138</gpxtpx:hr></gpxtpx:TrackPointExtension></extensions>
      </trkpt>
      <trkpt lat="57.7028816718" lon="11.9801008913">
        <ele>12.8</ele>
        <time>2011-05-18T20:50:52Z</time>
        <extensions><gpxtpx:TrackPointExtension><gpxtpx:hr>139</gpxtpx:hr></gpxtpx:TrackPointExtension></extensions>
      </trkpt>
      <trkpt lat="57.7028070729" lon="11.9797590774">
        <ele>11.8</ele>
        <time>2011-05-18T20:50:58Z</time>
        <extensions><gpxtpx:TrackPointExtension><gpxtpx:hr>139</gpxtpx:hr></gpxtpx:TrackPointExtension></extensions>
      </trkpt>
      <trkpt lat="57.7027147882" lon="11.9795144936">
        <ele>11.2</ele>
        <time>2011-05-18T20:51:03Z</time>
        <extensions><gpxtpx:TrackPointExtension><gpxtpx:hr>140</gpxtpx:hr></gpxtpx:TrackPointExtension></extensions>
      </trkpt>
      <trkpt lat="57.7026327294" lon="11.9792502961">
        <ele>10.6</ele>
        <time>2011-05-18T20:51:08Z</time>
        <extensions><gpxtpx:TrackPointExtension><gpxtpx:hr>142</gpxtpx:hr></gpxtpx:TrackPointExtension></extensions>
      </trkpt>
      <trkpt lat="57.7025148799" lon="11.978976627">
        <ele>9.6</ele>
        <time>2011-05-18T20:51:14Z</time>
        <extensions><gpxtpx:TrackPointExtension><gpxtpx:hr>143</gpxtpx:hr></gpxtpx:TrackPointExtension></extensions>
      </trkpt>
      <trkpt lat="57.7024153029" lon="11.9787490584">
        <ele>9.2</ele>
        <time>2011-05-18T20:51:19Z</time>
        <extensions><gpxtpx:TrackPointExtension><gpxtpx:hr>142</gpxtpx:hr></gpxtpx:TrackPointExtension></extensions>
      </trkpt>
      <trkpt lat="57.7023189949" lon="11.9785282792">
        <ele>8.8</ele>
        <time>2011-05-18T20:51:24Z</time>
        <extensions><gpxtpx:TrackPointExtension><gpxtpx:hr>141</gpxtpx:hr></gpxtpx:TrackPointExtension></extensions>
      </trkpt>
      <trkpt lat="57.7021972897" lon="11.978244049">
        <ele>8.4</ele>
        <time>2011-05-18T20:51:30Z</time>
        <extensions><gpxtpx:TrackPointExtension><gpxtpx:hr>141</gpxtpx:hr></gpxtpx:TrackPointExtension></extensions>
      </trkpt>
      <trkpt lat="57.7020785182" lon="11.9779878981">
        <ele>7.4</ele>
        <time>2011-05-18T20:51:36Z</time>
        <extensions><gpxtpx:TrackPointExtension><gpxtpx:hr>141</gpxtpx:hr></gpxtpx:TrackPointExtension></extensions>
      </trkpt>
      <trkpt lat="57.7019651949" lon="11.9777109601">
        <ele>7</ele>
        <time>2011-05-18T20:51:42Z</time>
        <extensions><gpxtpx:TrackPointExtension><gpxtpx:hr>141</gpxtpx:hr></gpxtpx:TrackPointExtension></extensions>
      </trkpt>
      <trkpt lat="57.7018423162" lon="11.9774464274">
        <ele>6.8</ele>
        <time>2011-05-18T20:51:48Z</time>
        <extensions><gpxtpx:TrackPointExtension><gpxtpx:hr>140</gpxtpx:hr></gpxtpx:TrackPointExtension></extensions>
      </trkpt>
      <trkpt lat="57.7017314237" lon="11.9771771169">
        <ele>6.6</ele>
        <time>2011-05-18T20:51:54Z</time>
        <extensions><gpxtpx:TrackPointExtension><gpxtpx:hr>140</gpxtpx:hr></gpxtpx:TrackPointExtension></extensions>
      </trkpt>
      <trkpt lat="57.7016383846" lon="11.9769576788">
        <ele>6.4</ele>
        <time>2011-05-18T20:51:59Z</time>
        <extensions><gpxtpx:TrackPointExtension><gpxtpx:hr>140</gpxtpx:hr></gpxtpx:TrackPointExtension></extensions>
      </trkpt>
      <trkpt lat="57.7015523025" lon="11.9767337982">
        <ele>6.4</ele>
        <time>2011-05-18T20:52:04Z</time>
        <extensions><gpxtpx:TrackPointExtension><gpxtpx:hr>142</gpxtpx:hr></gpxtpx:TrackPointExtension></extensions>
      </trkpt>
      <trkpt lat="57.7014576708" lon="11.9765080737">
        <ele>6.4</ele>
        <time>2011-05-18T20:52:09Z</time>
        <extensions><gpxtpx:TrackPointExtension><gpxtpx:hr>143</gpxtpx:hr></gpxtpx:TrackPointExtension></extensions>
      </trkpt>
      <trkpt lat="57.7013687389" lon="11.9762926588">
        <ele>6.4</ele>
        <time>2011-05-18T20:52:14Z</time>
        <extensions><gpxtpx:TrackPointExtension><gpxtpx:hr>145</gpxtpx:hr></gpxtpx:TrackPointExtension></extensions>
      </trkpt>
      <trkpt lat="57.7013361333" lon="11.9762085884">
        <ele>6.4</ele>
        <time>2011-05-18T20:52:20Z</time>
        <extensions><gpxtpx:TrackPointExtension><gpxtpx:hr>142</gpxtpx:hr></gpxtpx:TrackPointExtension></extensions>
      </trkpt>
      <trkpt lat="57.701304785" lon="11.9761364202">
        <ele>6.4</ele>
        <time>2011-05-18T20:52:23Z</time>
        <extensions><gpxtpx:TrackPointExtension><gpxtpx:hr>141</gpxtpx:hr></gpxtpx:TrackPointExtension></extensions>
      </trkpt>
      <trkpt lat="57.701208896" lon="11.9758936804">
        <ele>6.4</ele>
        <time>2011-05-18T20:52:28Z</time>
        <extensions><gpxtpx:TrackPointExtension><gpxtpx:hr>142</gpxtpx:hr></gpxtpx:TrackPointExtension></extensions>
      </trkpt>
      <trkpt lat="57.70109683" lon="11.9756890782">
        <ele>6.4</ele>
        <time>2011-05-18T20:52:33Z</time>
        <extensions><gpxtpx:TrackPointExtension><gpxtpx:hr>142</gpxtpx:hr></gpxtpx:TrackPointExtension></extensions>
      </trkpt>
      <trkpt lat="57.7009726941" lon="11.9754407225">
        <ele>6.4</ele>
        <time>2011-05-18T20:52:39Z</time>
        <extensions><gpxtpx:TrackPointExtension><gpxtpx:hr>142</gpxtpx:hr></gpxtpx:TrackPointExtension></extensions>
      </trkpt>
      <trkpt lat="57.7009011127" lon="11.9752685583">
        <ele>7.2</ele>
        <time>2011-05-18T20:52:43Z</time>
        <extensions><gpxtpx:TrackPointExtension><gpxtpx:hr>142</gpxtpx:hr></gpxtpx:TrackPointExtension></extensions>
      </trkpt>
      <trkpt lat="57.7008827563" lon="11.9752294986">
        <ele>7.2</ele>
        <time>2011-05-18T20:52:44Z</time>
        <extensions><gpxtpx:TrackPointExtension><gpxtpx:hr>141</gpxtpx:hr></gpxtpx:TrackPointExtension></extensions>
      </trkpt>
      <trkpt lat="57.7008072354" lon="11.9750552389">
        <ele>7.6</ele>
        <time>2011-05-18T20:52:48Z</time>
        <extensions><gpxtpx:TrackPointExtension><gpxtpx:hr>141</gpxtpx:hr></gpxtpx:TrackPointExtension></extensions>
      </trkpt>
      <trkpt lat="57.7006960914" lon="11.9748260778">
        <ele>8</ele>
        <time>2011-05-18T20:52:53Z</time>
        <extensions><gpxtpx:TrackPointExtension><gpxtpx:hr>143</gpxtpx:hr></gpxtpx:TrackPointExtension></extensions>
      </trkpt>
      <trkpt lat="57.7006043096" lon="11.9745653169">
        <ele>8.2</ele>
        <time>2011-05-18T20:52:58Z</time>
        <extensions><gpxtpx:TrackPointExtension><gpxtpx:hr>143</gpxtpx:hr></gpxtpx:TrackPointExtension></extensions>
      </trkpt>
      <trkpt lat="57.7005199877" lon="11.9742882113">
        <ele>8.4</ele>
        <time>2011-05-18T20:53:03Z</time>
        <extensions><gpxtpx:TrackPointExtension><gpxtpx:hr>144</gpxtpx:hr></gpxtpx:TrackPointExtension></extensions>
      </trkpt>
      <trkpt lat="57.700393421" lon="11.9740277018">
        <ele>9.2</ele>
        <time>2011-05-18T20:53:09Z</time>
        <extensions><gpxtpx:TrackPointExtension><gpxtpx:hr>146</gpxtpx:hr></gpxtpx:TrackPointExtension></extensions>
      </trkpt>
      <trkpt lat="57.7003141282" lon="11.9738473233">
        <ele>9.6</ele>
        <time>2011-05-18T20:53:13Z</time>
        <extensions><gpxtpx:TrackPointExtension><gpxtpx:hr>147</gpxtpx:hr></gpxtpx:TrackPointExtension></extensions>
      </trkpt>
      <trkpt lat="57.7002075943" lon="11.9736287234">
        <ele>10</ele>
        <time>2011-05-18T20:53:18Z</time>
        <extensions><gpxtpx:TrackPointExtension><gpxtpx:hr>146</gpxtpx:hr></gpxtpx:TrackPointExtension></extensions>
      </trkpt>
      <trkpt lat="57.7001682832" lon="11.9735346785">
        <ele>10.2</ele>
        <time>2011-05-18T20:53:20Z</time>
        <extensions><gpxtpx:TrackPointExtension><gpxtpx:hr>146</gpxtpx:hr></gpxtpx:TrackPointExtension></extensions>
      </trkpt>
      <trkpt lat="57.7000913373" lon="11.9733414757">
        <ele>10.2</ele>
        <time>2011-05-18T20:53:24Z</time>
        <extensions><gpxtpx:TrackPointExtension><gpxtpx:hr>145</gpxtpx:hr></gpxtpx:TrackPointExtension></extensions>
      </trkpt>
      <trkpt lat="57.6999454084" lon="11.9730152521">
        <ele>10.4</ele>
        <time>2011-05-18T20:53:31Z</time>
        <extensions><gpxtpx:TrackPointExtension><gpxtpx:hr>147</gpxtpx:hr></gpxtpx:TrackPointExtension></extensions>
      </trkpt>
      <trkpt lat="57.6998447418" lon="11.9727746078">
        <ele>10.4</ele>
        <time>2011-05-18T20:53:36Z</time>
        <extensions><gpxtpx:TrackPointExtension><gpxtpx:hr>148</gpxtpx:hr></gpxtpx:TrackPointExtension></extensions>
      </trkpt>
      <trkpt lat="57.6997506131" lon="11.9725655632">
        <ele>11.4</ele>
        <time>2011-05-18T20:53:41Z</time>
        <extensions><gpxtpx:TrackPointExtension><gpxtpx:hr>147</gpxtpx:hr></gpxtpx:TrackPointExtension></extensions>
      </trkpt>
      <trkpt lat="57.6996522934" lon="11.972356351">
        <ele>11.8</ele>
        <time>2011-05-18T20:53:46Z</time>
        <extensions><gpxtpx:TrackPointExtension><gpxtpx:hr>147</gpxtpx:hr></gpxtpx:TrackPointExtension></extensions>
      </trkpt>
      <trkpt lat="57.6995447536" lon="11.9721078276">
        <ele>12.6</ele>
        <time>2011-05-18T20:53:51Z</time>
        <extensions><gpxtpx:TrackPointExtension><gpxtpx:hr>148</gpxtpx:hr></gpxtpx:TrackPointExtension></extensions>
      </trkpt>
      <trkpt lat="57.699459845" lon="11.9718711228">
        <ele>13.4</ele>
        <time>2011-05-18T20:53:56Z</time>
        <extensions><gpxtpx:TrackPointExtension><gpxtpx:hr>148</gpxtpx:hr></gpxtpx:TrackPointExtension></extensions>
      </trkpt>
      <trkpt lat="57.6993933765" lon="11.9717351683">
        <ele>13.8</ele>
        <time>2011-05-18T20:53:59Z</time>
        <extensions><gpxtpx:TrackPointExtension><gpxtpx:hr>149</gpxtpx:hr></gpxtpx:TrackPointExtension></extensions>
      </trkpt>
      <trkpt lat="57.6992957274" lon="11.9714990502">
        <ele>14.6</ele>
        <time>2011-05-18T20:54:04Z</time>
        <extensions><gpxtpx:TrackPointExtension><gpxtpx:hr>148</gpxtpx:hr></gpxtpx:TrackPointExtension></extensions>
      </trkpt>
      <trkpt lat="57.6992621159" lon="11.9714191707">
        <ele>15</ele>
        <time>2011-05-18T20:54:06Z</time>
        <extensions><gpxtpx:TrackPointExtension><gpxtpx:hr>148</gpxtpx:hr></gpxtpx:TrackPointExtension></extensions>
      </trkpt>
      <trkpt lat="57.6991835775" lon="11.9712080307">
        <ele>15.8</ele>
        <time>2011-05-18T20:54:11Z</time>
        <extensions><gpxtpx:TrackPointExtension><gpxtpx:hr>149</gpxtpx:hr></gpxtpx:TrackPointExtension></extensions>
      </trkpt>
      <trkpt lat="57.6990693322" lon="11.9709932864">
        <ele>16.2</ele>
        <time>2011-05-18T20:54:16Z</time>
        <extensions><gpxtpx:TrackPointExtension><gpxtpx:hr>150</gpxtpx:hr></gpxtpx:TrackPointExtension></extensions>
      </trkpt>
      <trkpt lat="57.6989898718" lon="11.9707755246">
        <ele>16.6</ele>
        <time>2011-05-18T20:54:20Z</time>
        <extensions><gpxtpx:TrackPointExtension><gpxtpx:hr>150</gpxtpx:hr></gpxtpx:TrackPointExtension></extensions>
      </trkpt>
      <trkpt lat="57.6989185419" lon="11.9705557512">
        <ele>17.4</ele>
        <time>2011-05-18T20:54:24Z</time>
        <extensions><gpxtpx:TrackPointExtension><gpxtpx:hr>150</gpxtpx:hr></gpxtpx:TrackPointExtension></extensions>
      </trkpt>
      <trkpt lat="57.698835142" lon="11.9703106644">
        <ele>18.2</ele>
        <time>2011-05-18T20:54:29Z</time>
        <extensions><gpxtpx:TrackPointExtension><gpxtpx:hr>150</gpxtpx:hr></gpxtpx:TrackPointExtension></extensions>
      </trkpt>
      <trkpt lat="57.6987048872" lon="11.9700089999">
        <ele>19</ele>
        <time>2011-05-18T20:54:35Z</time>
        <extensions><gpxtpx:TrackPointExtension><gpxtpx:hr>150</gpxtpx:hr></gpxtpx:TrackPointExtension></extensions>
      </trkpt>
      <trkpt lat="57.6986625586" lon="11.9699199003">
        <ele>19.4</ele>
        <time>2011-05-18T20:54:37Z</time>
        <extensions><gpxtpx:TrackPointExtension><gpxtpx:hr>150</gpxtpx:hr></gpxtpx:TrackPointExtension></extensions>
      </trkpt>
      <trkpt lat="57.6985505765" lon="11.9698962633">
        <ele>20</ele>
        <time>2011-05-18T20:54:42Z</time>
        <extensions><gpxtpx:TrackPointExtension><gpxtpx:hr>150</gpxtpx:hr></gpxtpx:TrackPointExtension></extensions>
      </trkpt>
      <trkpt lat="57.6984497422" lon="11.9699413579">
        <ele>20.4</ele>
        <time>2011-05-18T20:54:46Z</time>
        <extensions><gpxtpx:TrackPointExtension><gpxtpx:hr>150</gpxtpx:hr></gpxtpx:TrackPointExtension></extensions>
      </trkpt>
      <trkpt lat="57.6983603073" lon="11.9699793279">
        <ele>20.8</ele>
        <time>2011-05-18T20:54:50Z</time>
        <extensions><gpxtpx:TrackPointExtension><gpxtpx:hr>150</gpxtpx:hr></gpxtpx:TrackPointExtension></extensions>
      </trkpt>
      <trkpt lat="57.6983392688" lon="11.9699880451">
        <ele>21.2</ele>
        <time>2011-05-18T20:54:51Z</time>
        <extensions><gpxtpx:TrackPointExtension><gpxtpx:hr>151</gpxtpx:hr></gpxtpx:TrackPointExtension></extensions>
      </trkpt>
      <trkpt lat="57.6982261131" lon="11.9700314633">
        <ele>21.8</ele>
        <time>2011-05-18T20:54:55Z</time>
        <extensions><gpxtpx:TrackPointExtension><gpxtpx:hr>150</gpxtpx:hr></gpxtpx:TrackPointExtension></extensions>
      </trkpt>
      <trkpt lat="57.6981963574" lon="11.9700469699">
        <ele>22</ele>
        <time>2011-05-18T20:54:56Z</time>
        <extensions><gpxtpx:TrackPointExtension><gpxtpx:hr>150</gpxtpx:hr></gpxtpx:TrackPointExtension></extensions>
      </trkpt>
      <trkpt lat="57.6980311501" lon="11.9701362371">
        <ele>23.2</ele>
        <time>2011-05-18T20:55:02Z</time>
        <extensions><gpxtpx:TrackPointExtension><gpxtpx:hr>149</gpxtpx:hr></gpxtpx:TrackPointExtension></extensions>
      </trkpt>
      <trkpt lat="57.6978914238" lon="11.9702294438">
        <ele>24</ele>
        <time>2011-05-18T20:55:07Z</time>
        <extensions><gpxtpx:TrackPointExtension><gpxtpx:hr>149</gpxtpx:hr></gpxtpx:TrackPointExtension></extensions>
      </trkpt>
      <trkpt lat="57.6977498536" lon="11.9703047971">
        <ele>25.6</ele>
        <time>2011-05-18T20:55:13Z</time>
        <extensions><gpxtpx:TrackPointExtension><gpxtpx:hr>149</gpxtpx:hr></gpxtpx:TrackPointExtension></extensions>
      </trkpt>
      <trkpt lat="57.697615827" lon="11.9703849281">
        <ele>26.8</ele>
        <time>2011-05-18T20:55:18Z</time>
        <extensions><gpxtpx:TrackPointExtension><gpxtpx:hr>148</gpxtpx:hr></gpxtpx:TrackPointExtension></extensions>
      </trkpt>
      <trkpt lat="57.697493116" lon="11.9704464512">
        <ele>27.8</ele>
        <time>2011-05-18T20:55:22Z</time>
        <extensions><gpxtpx:TrackPointExtension><gpxtpx:hr>147</gpxtpx:hr></gpxtpx:TrackPointExtension></extensions>
      </trkpt>
      <trkpt lat="57.6973882584" lon="11.9705042863">
        <ele>28.8</ele>
        <time>2011-05-18T20:55:26Z</time>
        <extensions><gpxtpx:TrackPointExtension><gpxtpx:hr>148</gpxtpx:hr></gpxtpx:TrackPointExtension></extensions>
      </trkpt>
      <trkpt lat="57.6972564949" lon="11.9706397378">
        <ele>30.2</ele>
        <time>2011-05-18T20:55:32Z</time>
        <extensions><gpxtpx:TrackPointExtension><gpxtpx:hr>149</gpxtpx:hr></gpxtpx:TrackPointExtension></extensions>
      </trkpt>
      <trkpt lat="57.697241659" lon="11.970656334">
        <ele>30.4</ele>
        <time>2011-05-18T20:55:33Z</time>
        <extensions><gpxtpx:TrackPointExtension><gpxtpx:hr>149</gpxtpx:hr></gpxtpx:TrackPointExtension></extensions>
      </trkpt>
      <trkpt lat="57.6971148408" lon="11.9707784583">
        <ele>31.6</ele>
        <time>2011-05-18T20:55:38Z</time>
        <extensions><gpxtpx:TrackPointExtension><gpxtpx:hr>149</gpxtpx:hr></gpxtpx:TrackPointExtension></extensions>
      </trkpt>
      <trkpt lat="57.6969834964" lon="11.9708726708">
        <ele>33.2</ele>
        <time>2011-05-18T20:55:44Z</time>
        <extensions><gpxtpx:TrackPointExtension><gpxtpx:hr>149</gpxtpx:hr></gpxtpx:TrackPointExtension></extensions>
      </trkpt>
      <trkpt lat="57.6968247432" lon="11.9709792886">
        <ele>34.2</ele>
        <time>2011-05-18T20:55:49Z</time>
        <extensions><gpxtpx:TrackPointExtension><gpxtpx:hr>149</gpxtpx:hr></gpxtpx:TrackPointExtension></extensions>
      </trkpt>
      <trkpt lat="57.6966670797" lon="11.9710688911">
        <ele>36.2</ele>
        <time>2011-05-18T20:55:55Z</time>
        <extensions><gpxtpx:TrackPointExtension><gpxtpx:hr>150</gpxtpx:hr></gpxtpx:TrackPointExtension></extensions>
      </trkpt>
      <trkpt lat="57.6966396709" lon="11.9710843138">
        <ele>36.4</ele>
        <time>2011-05-18T20:55:56Z</time>
        <extensions><gpxtpx:TrackPointExtension><gpxtpx:hr>149</gpxtpx:hr></gpxtpx:TrackPointExtension></extensions>
      </trkpt>
      <trkpt lat="57.6965409321" lon="11.9711149916">
        <ele>37.2</ele>
        <time>2011-05-18T20:56:00Z</time>
        <extensions><gpxtpx:TrackPointExtension><gpxtpx:hr>149</gpxtpx:hr></gpxtpx:TrackPointExtension></extensions>
      </trkpt>
      <trkpt lat="57.696465495" lon="11.9711626008">
        <ele>38</ele>
        <time>2011-05-18T20:56:03Z</time>
        <extensions><gpxtpx:TrackPointExtension><gpxtpx:hr>149</gpxtpx:hr></gpxtpx:TrackPointExtension></extensions>
      </trkpt>
      <trkpt lat="57.6963614756" lon="11.9711729943">
        <ele>39</ele>
        <time>2011-05-18T20:56:08Z</time>
        <extensions><gpxtpx:TrackPointExtension><gpxtpx:hr>150</gpxtpx:hr></gpxtpx:TrackPointExtension></extensions>
      </trkpt>
      <trkpt lat="57.6963259364" lon="11.9711824659">
        <ele>39.4</ele>
        <time>2011-05-18T20:56:09Z</time>
        <extensions><gpxtpx:TrackPointExtension><gpxtpx:hr>150</gpxtpx:hr></gpxtpx:TrackPointExtension></extensions>
      </trkpt>
      <trkpt lat="57.6962498287" lon="11.9711985591">
        <ele>40.2</ele>
        <time>2011-05-18T20:56:12Z</time>
        <extensions><gpxtpx:TrackPointExtension><gpxtpx:hr>150</gpxtpx:hr></gpxtpx:TrackPointExtension></extensions>
      </trkpt>
      <trkpt lat="57.6960999604" lon="11.9712493534">
        <ele>41.8</ele>
        <time>2011-05-18T20:56:17Z</time>
        <extensions><gpxtpx:TrackPointExtension><gpxtpx:hr>149</gpxtpx:hr></gpxtpx:TrackPointExtension></extensions>
      </trkpt>
      <trkpt lat="57.6959441408" lon="11.9713207672">
        <ele>43.6</ele>
        <time>2011-05-18T20:56:22Z</time>
        <extensions><gpxtpx:TrackPointExtension><gpxtpx:hr>150</gpxtpx:hr></gpxtpx:TrackPointExtension></extensions>
      </trkpt>
      <trkpt lat="57.6958345894" lon="11.9713892473">
        <ele>45.4</ele>
        <time>2011-05-18T20:56:26Z</time>
        <extensions><gpxtpx:TrackPointExtension><gpxtpx:hr>150</gpxtpx:hr></gpxtpx:TrackPointExtension></extensions>
      </trkpt>
      <trkpt lat="57.6958112877" lon="11.9713995571">
        <ele>45.8</ele>
        <time>2011-05-18T20:56:27Z</time>
        <extensions><gpxtpx:TrackPointExtension><gpxtpx:hr>150</gpxtpx:hr></gpxtpx:TrackPointExtension></extensions>
      </trkpt>
      <trkpt lat="57.6957312406" lon="11.9714485074">
        <ele>47.2</ele>
        <time>2011-05-18T20:56:30Z</time>
        <extensions><gpxtpx:TrackPointExtension><gpxtpx:hr>150</gpxtpx:hr></gpxtpx:TrackPointExtension></extensions>
      </trkpt>
      <trkpt lat="57.6955536281" lon="11.9715461565">
        <ele>50.2</ele>
        <time>2011-05-18T20:56:36Z</time>
        <extensions><gpxtpx:TrackPointExtension><gpxtpx:hr>151</gpxtpx:hr></gpxtpx:TrackPointExtension></extensions>
      </trkpt>
      <trkpt lat="57.6954489382" lon="11.9716122059">
        <ele>53</ele>
        <time>2011-05-18T20:56:41Z</time>
        <extensions><gpxtpx:TrackPointExtension><gpxtpx:hr>151</gpxtpx:hr></gpxtpx:TrackPointExtension></extensions>
      </trkpt>
      <trkpt lat="57.6954319229" lon="11.9716179894">
        <ele>53.4</ele>
        <time>2011-05-18T20:56:42Z</time>
        <extensions><gpxtpx:TrackPointExtension><gpxtpx:hr>151</gpxtpx:hr></gpxtpx:TrackPointExtension></extensions>
      </trkpt>
      <trkpt lat="57.6954155782" lon="11.9716775847">
        <ele>53.8</ele>
        <time>2011-05-18T20:56:43Z</time>
        <extensions><gpxtpx:TrackPointExtension><gpxtpx:hr>151</gpxtpx:hr></gpxtpx:TrackPointExtension></extensions>
      </trkpt>
      <trkpt lat="57.695291107" lon="11.9717767426">
        <ele>56.6</ele>
        <time>2011-05-18T20:56:48Z</time>
        <extensions><gpxtpx:TrackPointExtension><gpxtpx:hr>150</gpxtpx:hr></gpxtpx:TrackPointExtension></extensions>
      </trkpt>
      <trkpt lat="57.6952060307" lon="11.971839523">
        <ele>58.6</ele>
        <time>2011-05-18T20:56:52Z</time>
        <extensions><gpxtpx:TrackPointExtension><gpxtpx:hr>151</gpxtpx:hr></gpxtpx:TrackPointExtension></extensions>
      </trkpt>
      <trkpt lat="57.6950722556" lon="11.9718743079">
        <ele>61</ele>
        <time>2011-05-18T20:56:57Z</time>
        <extensions><gpxtpx:TrackPointExtension><gpxtpx:hr>151</gpxtpx:hr></gpxtpx:TrackPointExtension></extensions>
      </trkpt>
      <trkpt lat="57.6950435895" lon="11.9718763195">
        <ele>61.4</ele>
        <time>2011-05-18T20:56:58Z</time>
        <extensions><gpxtpx:TrackPointExtension><gpxtpx:hr>151</gpxtpx:hr></gpxtpx:TrackPointExtension></extensions>
      </trkpt>
      <trkpt lat="57.6949553281" lon="11.9718997889">
        <ele>62.8</ele>
        <time>2011-05-18T20:57:01Z</time>
        <extensions><gpxtpx:TrackPointExtension><gpxtpx:hr>151</gpxtpx:hr></gpxtpx:TrackPointExtension></extensions>
      </trkpt>
      <trkpt lat="57.6948271688" lon="11.9719970189">
        <ele>65</ele>
        <time>2011-05-18T20:57:06Z</time>
        <extensions><gpxtpx:TrackPointExtension><gpxtpx:hr>151</gpxtpx:hr></gpxtpx:TrackPointExtension></extensions>
      </trkpt>
      <trkpt lat="57.6947202996" lon="11.9721080791">
        <ele>66.8</ele>
        <time>2011-05-18T20:57:10Z</time>
        <extensions><gpxtpx:TrackPointExtension><gpxtpx:hr>150</gpxtpx:hr></gpxtpx:TrackPointExtension></extensions>
      </trkpt>
      <trkpt lat="57.6946902924" lon="11.9721170477">
        <ele>67.2</ele>
        <time>2011-05-18T20:57:11Z</time>
        <extensions><gpxtpx:TrackPointExtension><gpxtpx:hr>150</gpxtpx:hr></gpxtpx:TrackPointExtension></extensions>
      </trkpt>
      <trkpt lat="57.6945414299" lon="11.9722462128">
        <ele>69.2</ele>
        <time>2011-05-18T20:57:16Z</time>
        <extensions><gpxtpx:TrackPointExtension><gpxtpx:hr>150</gpxtpx:hr></gpxtpx:TrackPointExtension></extensions>
      </trkpt>
      <trkpt lat="57.6944094988" lon="11.9724728594">
        <ele>70.8</ele>
        <time>2011-05-18T20:57:21Z</time>
        <extensions><gpxtpx:TrackPointExtension><gpxtpx:hr>149</gpxtpx:hr></gpxtpx:TrackPointExtension></extensions>
      </trkpt>
      <trkpt lat="57.6942721194" lon="11.9727248193">
        <ele>72</ele>
        <time>2011-05-18T20:57:27Z</time>
        <extensions><gpxtpx:TrackPointExtension><gpxtpx:hr>148</gpxtpx:hr></gpxtpx:TrackPointExtension></extensions>
      </trkpt>
      <trkpt lat="57.6941348239" lon="11.9728718378">
        <ele>72.2</ele>
        <time>2011-05-18T20:57:32Z</time>
        <extensions><gpxtpx:TrackPointExtension><gpxtpx:hr>148</gpxtpx:hr></gpxtpx:TrackPointExtension></extensions>
      </trkpt>
      <trkpt lat="57.6940240152" lon="11.9729986559">
        <ele>71.8</ele>
        <time>2011-05-18T20:57:36Z</time>
        <extensions><gpxtpx:TrackPointExtension><gpxtpx:hr>148</gpxtpx:hr></gpxtpx:TrackPointExtension></extensions>
      </trkpt>
      <trkpt lat="57.6939049922" lon="11.9731270667">
        <ele>70.8</ele>
        <time>2011-05-18T20:57:40Z</time>
        <extensions><gpxtpx:TrackPointExtension><gpxtpx:hr>148</gpxtpx:hr></gpxtpx:TrackPointExtension></extensions>
      </trkpt>
      <trkpt lat="57.6938021463" lon="11.9733132287">
        <ele>69.8</ele>
        <time>2011-05-18T20:57:44Z</time>
        <extensions><gpxtpx:TrackPointExtension><gpxtpx:hr>148</gpxtpx:hr></gpxtpx:TrackPointExtension></extensions>
      </trkpt>
      <trkpt lat="57.6937984583" lon="11.9735363548">
        <ele>68.8</ele>
        <time>2011-05-18T20:57:48Z</time>
        <extensions><gpxtpx:TrackPointExtension><gpxtpx:hr>149</gpxtpx:hr></gpxtpx:TrackPointExtension></extensions>
      </trkpt>
      <trkpt lat="57.6938449778" lon="11.9738181543">
        <ele>67.6</ele>
        <time>2011-05-18T20:57:53Z</time>
        <extensions><gpxtpx:TrackPointExtension><gpxtpx:hr>149</gpxtpx:hr></gpxtpx:TrackPointExtension></extensions>
      </trkpt>
      <trkpt lat="57.6938999631" lon="11.9740877162">
        <ele>66.2</ele>
        <time>2011-05-18T20:57:58Z</time>
        <extensions><gpxtpx:TrackPointExtension><gpxtpx:hr>149</gpxtpx:hr></gpxtpx:TrackPointExtension></extensions>
      </trkpt>
      <trkpt lat="57.6939801778" lon="11.9744348107">
        <ele>64.4</ele>
        <time>2011-05-18T20:58:04Z</time>
        <extensions><gpxtpx:TrackPointExtension><gpxtpx:hr>147</gpxtpx:hr></gpxtpx:TrackPointExtension></extensions>
      </trkpt>
      <trkpt lat="57.69407548" lon="11.9747554184">
        <ele>62.4</ele>
        <time>2011-05-18T20:58:10Z</time>
        <extensions><gpxtpx:TrackPointExtension><gpxtpx:hr>146</gpxtpx:hr></gpxtpx:TrackPointExtension></extensions>
      </trkpt>
      <trkpt lat="57.694144966" lon="11.9750638723">
        <ele>60.4</ele>
        <time>2011-05-18T20:58:16Z</time>
        <extensions><gpxtpx:TrackPointExtension><gpxtpx:hr>143</gpxtpx:hr></gpxtpx:TrackPointExtension></extensions>
      </trkpt>
      <trkpt lat="57.6942205707" lon="11.9753683867">
        <ele>58.2</ele>
        <time>2011-05-18T20:58:22Z</time>
        <extensions><gpxtpx:TrackPointExtension><gpxtpx:hr>141</gpxtpx:hr></gpxtpx:TrackPointExtension></extensions>
      </trkpt>
      <trkpt lat="57.6942304614" lon="11.9754197678">
        <ele>58</ele>
        <time>2011-05-18T20:58:23Z</time>
        <extensions><gpxtpx:TrackPointExtension><gpxtpx:hr>141</gpxtpx:hr></gpxtpx:TrackPointExtension></extensions>
      </trkpt>
      <trkpt lat="57.6943237519" lon="11.9756409661">
        <ele>56.4</ele>
        <time>2011-05-18T20:58:28Z</time>
        <extensions><gpxtpx:TrackPointExtension><gpxtpx:hr>140</gpxtpx:hr></gpxtpx:TrackPointExtension></extensions>
      </trkpt>
      <trkpt lat="57.6943883764" lon="11.97584012">
        <ele>55.6</ele>
        <time>2011-05-18T20:58:32Z</time>
        <extensions><gpxtpx:TrackPointExtension><gpxtpx:hr>139</gpxtpx:hr></gpxtpx:TrackPointExtension></extensions>
      </trkpt>
      <trkpt lat="57.6944007816" lon="11.975889238">
        <ele>55.4</ele>
        <time>2011-05-18T20:58:33Z</time>
        <extensions><gpxtpx:TrackPointExtension><gpxtpx:hr>139</gpxtpx:hr></gpxtpx:TrackPointExtension></extensions>
      </trkpt>
      <trkpt lat="57.6944863608" lon="11.9761339056">
        <ele>54.8</ele>
        <time>2011-05-18T20:58:38Z</time>
        <extensions><gpxtpx:TrackPointExtension><gpxtpx:hr>138</gpxtpx:hr></gpxtpx:TrackPointExtension></extensions>
      </trkpt>
      <trkpt lat="57.694559451" lon="11.9764066527">
        <ele>54</ele>
        <time>2011-05-18T20:58:43Z</time>
        <extensions><gpxtpx:TrackPointExtension><gpxtpx:hr>137</gpxtpx:hr></gpxtpx:TrackPointExtension></extensions>
      </trkpt>
      <trkpt lat="57.6946254165" lon="11.9766330478">
        <ele>53.2</ele>
        <time>2011-05-18T20:58:47Z</time>
        <extensions><gpxtpx:TrackPointExtension><gpxtpx:hr>137</gpxtpx:hr></gpxtpx:TrackPointExtension></extensions>
      </trkpt>
      <trkpt lat="57.6947002669" lon="11.9768807329">
        <ele>52.6</ele>
        <time>2011-05-18T20:58:52Z</time>
        <extensions><gpxtpx:TrackPointExtension><gpxtpx:hr>135</gpxtpx:hr></gpxtpx:TrackPointExtension></extensions>
      </trkpt>
      <trkpt lat="57.6947589402" lon="11.9772105607">
        <ele>51.2</ele>
        <time>2011-05-18T20:58:58Z</time>
        <extensions><gpxtpx:TrackPointExtension><gpxtpx:hr>134</gpxtpx:hr></gpxtpx:TrackPointExtension></extensions>
      </trkpt>
      <trkpt lat="57.6947810684" lon="11.9774754287">
        <ele>50</ele>
        <time>2011-05-18T20:59:03Z</time>
        <extensions><gpxtpx:TrackPointExtension><gpxtpx:hr>135</gpxtpx:hr></gpxtpx:TrackPointExtension></extensions>
      </trkpt>
      <trkpt lat="57.6948307731" lon="11.9777899176">
        <ele>48.8</ele>
        <time>2011-05-18T20:59:09Z</time>
        <extensions><gpxtpx:TrackPointExtension><gpxtpx:hr>137</gpxtpx:hr></gpxtpx:TrackPointExtension></extensions>
      </trkpt>
      <trkpt lat="57.6948845849" lon="11.977940708">
        <ele>48.2</ele>
        <time>2011-05-18T20:59:13Z</time>
        <extensions><gpxtpx:TrackPointExtension><gpxtpx:hr>138</gpxtpx:hr></gpxtpx:TrackPointExtension></extensions>
      </trkpt>
      <trkpt lat="57.6950111515" lon="11.9780094396">
        <ele>47</ele>
        <time>2011-05-18T20:59:18Z</time>
        <extensions><gpxtpx:TrackPointExtension><gpxtpx:hr>139</gpxtpx:hr></gpxtpx:TrackPointExtension></extensions>
      </trkpt>
      <trkpt lat="57.695043338" lon="11.9780278798">
        <ele>46.8</ele>
        <time>2011-05-18T20:59:19Z</time>
        <extensions><gpxtpx:TrackPointExtension><gpxtpx:hr>139</gpxtpx:hr></gpxtpx:TrackPointExtension></extensions>
      </trkpt>
      <trkpt lat="57.6951760235" lon="11.9781144648">
        <ele>46.2</ele>
        <time>2011-05-18T20:59:24Z</time>
        <extensions><gpxtpx:TrackPointExtension><gpxtpx:hr>141</gpxtpx:hr></gpxtpx:TrackPointExtension></extensions>
      </trkpt>
      <trkpt lat="57.6952027618" lon="11.9781505908">
        <ele>46.2</ele>
        <time>2011-05-18T20:59:25Z</time>
        <extensions><gpxtpx:TrackPointExtension><gpxtpx:hr>141</gpxtpx:hr></gpxtpx:TrackPointExtension></extensions>
      </trkpt>
      <trkpt lat="57.6953455055" lon="11.9784032212">
        <ele>45.8</ele>
        <time>2011-05-18T20:59:31Z</time>
        <extensions><gpxtpx:TrackPointExtension><gpxtpx:hr>142</gpxtpx:hr></gpxtpx:TrackPointExtension></extensions>
      </trkpt>
      <trkpt lat="57.6954115549" lon="11.9786581986">
        <ele>45.6</ele>
        <time>2011-05-18T20:59:36Z</time>
        <extensions><gpxtpx:TrackPointExtension><gpxtpx:hr>144</gpxtpx:hr></gpxtpx:TrackPointExtension></extensions>
      </trkpt>
      <trkpt lat="57.6954469265" lon="11.9789267547">
        <ele>45.6</ele>
        <time>2011-05-18T20:59:41Z</time>
        <extensions><gpxtpx:TrackPointExtension><gpxtpx:hr>146</gpxtpx:hr></gpxtpx:TrackPointExtension></extensions>
      </trkpt>
      <trkpt lat="57.6954299951" lon="11.9792087218">
        <ele>45.6</ele>
        <time>2011-05-18T20:59:46Z</time>
        <extensions><gpxtpx:TrackPointExtension><gpxtpx:hr>147</gpxtpx:hr></gpxtpx:TrackPointExtension></extensions>
      </trkpt>
      <trkpt lat="57.6953786979" lon="11.979532347">
        <ele>45.4</ele>
        <time>2011-05-18T20:59:52Z</time>
        <extensions><gpxtpx:TrackPointExtension><gpxtpx:hr>148</gpxtpx:hr></gpxtpx:TrackPointExtension></extensions>
      </trkpt>
      <trkpt lat="57.695272583" lon="11.9797790263">
        <ele>45.4</ele>
        <time>2011-05-18T20:59:57Z</time>
        <extensions><gpxtpx:TrackPointExtension><gpxtpx:hr>149</gpxtpx:hr></gpxtpx:TrackPointExtension></extensions>
      </trkpt>
      <trkpt lat="57.6951726708" lon="11.9799614165">
        <ele>45.4</ele>
        <time>2011-05-18T21:00:02Z</time>
        <extensions><gpxtpx:TrackPointExtension><gpxtpx:hr>148</gpxtpx:hr></gpxtpx:TrackPointExtension></extensions>
      </trkpt>
      <trkpt lat="57.6950733452" lon="11.9800542041">
        <ele>45.4</ele>
        <time>2011-05-18T21:00:06Z</time>
        <extensions><gpxtpx:TrackPointExtension><gpxtpx:hr>148</gpxtpx:hr></gpxtpx:TrackPointExtension></extensions>
      </trkpt>
      <trkpt lat="57.6949134186" lon="11.9801610733">
        <ele>46</ele>
        <time>2011-05-18T21:00:12Z</time>
        <extensions><gpxtpx:TrackPointExtension><gpxtpx:hr>148</gpxtpx:hr></gpxtpx:TrackPointExtension></extensions>
      </trkpt>
      <trkpt lat="57.6947932221" lon="11.9801682818">
        <ele>46.4</ele>
        <time>2011-05-18T21:00:16Z</time>
        <extensions><gpxtpx:TrackPointExtension><gpxtpx:hr>147</gpxtpx:hr></gpxtpx:TrackPointExtension></extensions>
      </trkpt>
      <trkpt lat="57.6946323735" lon="11.9801408729">
        <ele>46.8</ele>
        <time>2011-05-18T21:00:21Z</time>
        <extensions><gpxtpx:TrackPointExtension><gpxtpx:hr>146</gpxtpx:hr></gpxtpx:TrackPointExtension></extensions>
      </trkpt>
      <trkpt lat="57.6944928987" lon="11.9800935152">
        <ele>47.2</ele>
        <time>2011-05-18T21:00:26Z</time>
        <extensions><gpxtpx:TrackPointExtension><gpxtpx:hr>146</gpxtpx:hr></gpxtpx:TrackPointExtension></extensions>
      </trkpt>
      <trkpt lat="57.6943969259" lon="11.9801180742">
        <ele>47.2</ele>
        <time>2011-05-18T21:00:30Z</time>
        <extensions><gpxtpx:TrackPointExtension><gpxtpx:hr>144</gpxtpx:hr></gpxtpx:TrackPointExtension></extensions>
      </trkpt>
      <trkpt lat="57.6942664197" lon="11.9802570461">
        <ele>47.4</ele>
        <time>2011-05-18T21:00:35Z</time>
        <extensions><gpxtpx:TrackPointExtension><gpxtpx:hr>143</gpxtpx:hr></gpxtpx:TrackPointExtension></extensions>
      </trkpt>
      <trkpt lat="57.6941958441" lon="11.9803735545">
        <ele>47.4</ele>
        <time>2011-05-18T21:00:38Z</time>
        <extensions><gpxtpx:TrackPointExtension><gpxtpx:hr>143</gpxtpx:hr></gpxtpx:TrackPointExtension></extensions>
      </trkpt>
      <trkpt lat="57.6941128633" lon="11.9805380912">
        <ele>47.4</ele>
        <time>2011-05-18T21:00:42Z</time>
        <extensions><gpxtpx:TrackPointExtension><gpxtpx:hr>142</gpxtpx:hr></gpxtpx:TrackPointExtension></extensions>
      </trkpt>
      <trkpt lat="57.6940221712" lon="11.9807358202">
        <ele>47.4</ele>
        <time>2011-05-18T21:00:46Z</time>
        <extensions><gpxtpx:TrackPointExtension><gpxtpx:hr>141</gpxtpx:hr></gpxtpx:TrackPointExtension></extensions>
      </trkpt>
      <trkpt lat="57.693935167" lon="11.9810658156">
        <ele>47.4</ele>
        <time>2011-05-18T21:00:52Z</time>
        <extensions><gpxtpx:TrackPointExtension><gpxtpx:hr>140</gpxtpx:hr></gpxtpx:TrackPointExtension></extensions>
      </trkpt>
      <trkpt lat="57.693899544" lon="11.9813065438">
        <ele>47.4</ele>
        <time>2011-05-18T21:00:57Z</time>
        <extensions><gpxtpx:TrackPointExtension><gpxtpx:hr>139</gpxtpx:hr></gpxtpx:TrackPointExtension></extensions>
      </trkpt>
      <trkpt lat="57.6938912459" lon="11.9813611938">
        <ele>47.4</ele>
        <time>2011-05-18T21:00:58Z</time>
        <extensions><gpxtpx:TrackPointExtension><gpxtpx:hr>138</gpxtpx:hr></gpxtpx:TrackPointExtension></extensions>
      </trkpt>
      <trkpt lat="57.6938762423" lon="11.981594965">
        <ele>48.2</ele>
        <time>2011-05-18T21:01:02Z</time>
        <extensions><gpxtpx:TrackPointExtension><gpxtpx:hr>137</gpxtpx:hr></gpxtpx:TrackPointExtension></extensions>
      </trkpt>
      <trkpt lat="57.6938736439" lon="11.9819334261">
        <ele>48.8</ele>
        <time>2011-05-18T21:01:08Z</time>
        <extensions><gpxtpx:TrackPointExtension><gpxtpx:hr>134</gpxtpx:hr></gpxtpx:TrackPointExtension></extensions>
      </trkpt>
      <trkpt lat="57.6939222589" lon="11.9822054187">
        <ele>49</ele>
        <time>2011-05-18T21:01:13Z</time>
        <extensions><gpxtpx:TrackPointExtension><gpxtpx:hr>132</gpxtpx:hr></gpxtpx:TrackPointExtension></extensions>
      </trkpt>
      <trkpt lat="57.6939609833" lon="11.9823505094">
        <ele>49.2</ele>
        <time>2011-05-18T21:01:16Z</time>
        <extensions><gpxtpx:TrackPointExtension><gpxtpx:hr>131</gpxtpx:hr></gpxtpx:TrackPointExtension></extensions>
      </trkpt>
      <trkpt lat="57.6940334867" lon="11.9825923272">
        <ele>49.2</ele>
        <time>2011-05-18T21:01:21Z</time>
        <extensions><gpxtpx:TrackPointExtension><gpxtpx:hr>130</gpxtpx:hr></gpxtpx:TrackPointExtension></extensions>
      </trkpt>
      <trkpt lat="57.6940786652" lon="11.9827789921">
        <ele>49.4</ele>
        <time>2011-05-18T21:01:25Z</time>
        <extensions><gpxtpx:TrackPointExtension><gpxtpx:hr>129</gpxtpx:hr></gpxtpx:TrackPointExtension></extensions>
      </trkpt>
      <trkpt lat="57.6941035594" lon="11.9830100811">
        <ele>49.4</ele>
        <time>2011-05-18T21:01:29Z</time>
        <extensions><gpxtpx:TrackPointExtension><gpxtpx:hr>129</gpxtpx:hr></gpxtpx:TrackPointExtension></extensions>
      </trkpt>
      <trkpt lat="57.6941057387" lon="11.9830646473">
        <ele>49.4</ele>
        <time>2011-05-18T21:01:30Z</time>
        <extensions><gpxtpx:TrackPointExtension><gpxtpx:hr>129</gpxtpx:hr></gpxtpx:TrackPointExtension></extensions>
      </trkpt>
      <trkpt lat="57.6941038947" lon="11.9832827443">
        <ele>48.8</ele>
        <time>2011-05-18T21:01:34Z</time>
        <extensions><gpxtpx:TrackPointExtension><gpxtpx:hr>129</gpxtpx:hr></gpxtpx:TrackPointExtension></extensions>
      </trkpt>
      <trkpt lat="57.6941308006" lon="11.9835725904">
        <ele>48.2</ele>
        <time>2011-05-18T21:01:39Z</time>
        <extensions><gpxtpx:TrackPointExtension><gpxtpx:hr>128</gpxtpx:hr></gpxtpx:TrackPointExtension></extensions>
      </trkpt>
      <trkpt lat="57.6941656693" lon="11.9837292481">
        <ele>48</ele>
        <time>2011-05-18T21:01:42Z</time>
        <extensions><gpxtpx:TrackPointExtension><gpxtpx:hr>128</gpxtpx:hr></gpxtpx:TrackPointExtension></extensions>
      </trkpt>
    </trkseg>
  </trk>
</gpx>